<?xml version="1.0" encoding="UTF-8" standalone="no" ?>
<gpx xmlns="http://www.topografix.com/GPX/1/1" xmlns:xsi="http://www.w3.org/2001/XMLSchema-instance" xsi:schemaLocation="http://www.topografix.com/GPX/1/1 http://www.topografix.com/GPX/1/1/gpx.xsd" version="1.1" creator="VisuGPX - https://www.visugpx.com">
  <metadata>
    <name>les Prés</name>
    <desc><![CDATA[Barraux - Chapareillan - Bellecombe - St Marcel - St Georges - Les Prés]]></desc>
  </metadata>
  <trk>
    <name><![CDATA[les pres]]></name>
    <desc><![CDATA[<h1>OruxMaps</h1><br /><hr align="center" width="480" style="height: 2px; width: 517px"/><h2>Nom: les pres</h2><br /><p>Temps de départ: 11/11/2014 10:32</p><p>Temps d'arrivée: 11/11/2014 13:34</p><p>Distance: 30,8 km (03:02)</p><p>Temps déplacement: 02:39</p><p>Vitesse moyenne: 10,1 km/h</p><p>Vitesse moyenne: 11,6 km/h</p><p>Vitess Max.: 41,9 km/h</p><p>Altitude minimale: 237 m</p><p>Altitude maximale: 1092 m</p><p>Vitesse d'élévation: 620,4 m/h</p><p>Vitesse de descente: -1086,9 m/h</p><p>Gain Altitude: 1115 m</p><p>Perte Altitude: -1129 m</p><p>Temps d'élévation: 01:47</p><p>Temps de descente: 01:02</p><hr align="center" width="480" style="height: 2px; width: 517px"/>]]></desc>
    <trkseg>
      <trkpt lat="45.42885" lon="5.9838">
        <ele>329</ele>
        <time>2014-11-11T09:32:13Z</time>
      </trkpt>
      <trkpt lat="45.42921" lon="5.98395">
        <ele>330</ele>
        <time>2014-11-11T09:32:57Z</time>
      </trkpt>
      <trkpt lat="45.42904" lon="5.98405">
        <ele>329</ele>
        <time>2014-11-11T09:33:56Z</time>
      </trkpt>
      <trkpt lat="45.42895" lon="5.98427">
        <ele>328</ele>
        <time>2014-11-11T09:34:03Z</time>
      </trkpt>
      <trkpt lat="45.42903" lon="5.98404">
        <ele>329</ele>
        <time>2014-11-11T09:34:24Z</time>
      </trkpt>
      <trkpt lat="45.42921" lon="5.98398">
        <ele>330</ele>
        <time>2014-11-11T09:34:39Z</time>
      </trkpt>
      <trkpt lat="45.42918" lon="5.98372">
        <ele>330</ele>
        <time>2014-11-11T09:38:46Z</time>
      </trkpt>
      <trkpt lat="45.42929" lon="5.98347">
        <ele>330</ele>
        <time>2014-11-11T09:38:53Z</time>
      </trkpt>
      <trkpt lat="45.42939" lon="5.98318">
        <ele>330</ele>
        <time>2014-11-11T09:38:58Z</time>
      </trkpt>
      <trkpt lat="45.42955" lon="5.98297">
        <ele>330</ele>
        <time>2014-11-11T09:39:02Z</time>
      </trkpt>
      <trkpt lat="45.4297" lon="5.98279">
        <ele>330</ele>
        <time>2014-11-11T09:39:06Z</time>
      </trkpt>
      <trkpt lat="45.42983" lon="5.98257">
        <ele>329</ele>
        <time>2014-11-11T09:39:11Z</time>
      </trkpt>
      <trkpt lat="45.42996" lon="5.98233">
        <ele>329</ele>
        <time>2014-11-11T09:39:17Z</time>
      </trkpt>
      <trkpt lat="45.43009" lon="5.9821">
        <ele>329</ele>
        <time>2014-11-11T09:39:23Z</time>
      </trkpt>
      <trkpt lat="45.4302" lon="5.98189">
        <ele>329</ele>
        <time>2014-11-11T09:39:28Z</time>
      </trkpt>
      <trkpt lat="45.43033" lon="5.98168">
        <ele>329</ele>
        <time>2014-11-11T09:39:34Z</time>
      </trkpt>
      <trkpt lat="45.43049" lon="5.98152">
        <ele>331</ele>
        <time>2014-11-11T09:39:41Z</time>
      </trkpt>
      <trkpt lat="45.43071" lon="5.98152">
        <ele>331</ele>
        <time>2014-11-11T09:39:47Z</time>
      </trkpt>
      <trkpt lat="45.43092" lon="5.98153">
        <ele>332</ele>
        <time>2014-11-11T09:39:53Z</time>
      </trkpt>
      <trkpt lat="45.43111" lon="5.98152">
        <ele>332</ele>
        <time>2014-11-11T09:39:58Z</time>
      </trkpt>
      <trkpt lat="45.4313" lon="5.98151">
        <ele>332</ele>
        <time>2014-11-11T09:40:03Z</time>
      </trkpt>
      <trkpt lat="45.43146" lon="5.98134">
        <ele>332</ele>
        <time>2014-11-11T09:40:09Z</time>
      </trkpt>
      <trkpt lat="45.43152" lon="5.98107">
        <ele>333</ele>
        <time>2014-11-11T09:40:15Z</time>
      </trkpt>
      <trkpt lat="45.43158" lon="5.9808">
        <ele>334</ele>
        <time>2014-11-11T09:40:21Z</time>
      </trkpt>
      <trkpt lat="45.43163" lon="5.98053">
        <ele>335</ele>
        <time>2014-11-11T09:40:27Z</time>
      </trkpt>
      <trkpt lat="45.43169" lon="5.98028">
        <ele>338</ele>
        <time>2014-11-11T09:40:33Z</time>
      </trkpt>
      <trkpt lat="45.43176" lon="5.98004">
        <ele>339</ele>
        <time>2014-11-11T09:40:39Z</time>
      </trkpt>
      <trkpt lat="45.43183" lon="5.9798">
        <ele>341</ele>
        <time>2014-11-11T09:40:45Z</time>
      </trkpt>
      <trkpt lat="45.43191" lon="5.97955">
        <ele>342</ele>
        <time>2014-11-11T09:40:51Z</time>
      </trkpt>
      <trkpt lat="45.43198" lon="5.97931">
        <ele>343</ele>
        <time>2014-11-11T09:40:57Z</time>
      </trkpt>
      <trkpt lat="45.43206" lon="5.97907">
        <ele>346</ele>
        <time>2014-11-11T09:41:03Z</time>
      </trkpt>
      <trkpt lat="45.43216" lon="5.97886">
        <ele>346</ele>
        <time>2014-11-11T09:41:09Z</time>
      </trkpt>
      <trkpt lat="45.43226" lon="5.97862">
        <ele>347</ele>
        <time>2014-11-11T09:41:16Z</time>
      </trkpt>
      <trkpt lat="45.43237" lon="5.97841">
        <ele>349</ele>
        <time>2014-11-11T09:41:24Z</time>
      </trkpt>
      <trkpt lat="45.43249" lon="5.97819">
        <ele>352</ele>
        <time>2014-11-11T09:41:32Z</time>
      </trkpt>
      <trkpt lat="45.43261" lon="5.97796">
        <ele>355</ele>
        <time>2014-11-11T09:41:40Z</time>
      </trkpt>
      <trkpt lat="45.43273" lon="5.97773">
        <ele>356</ele>
        <time>2014-11-11T09:41:48Z</time>
      </trkpt>
      <trkpt lat="45.43286" lon="5.97751">
        <ele>357</ele>
        <time>2014-11-11T09:41:56Z</time>
      </trkpt>
      <trkpt lat="45.43297" lon="5.9773">
        <ele>362</ele>
        <time>2014-11-11T09:42:04Z</time>
      </trkpt>
      <trkpt lat="45.43316" lon="5.9772">
        <ele>363</ele>
        <time>2014-11-11T09:42:12Z</time>
      </trkpt>
      <trkpt lat="45.43333" lon="5.97731">
        <ele>362</ele>
        <time>2014-11-11T09:42:19Z</time>
      </trkpt>
      <trkpt lat="45.43351" lon="5.9774">
        <ele>363</ele>
        <time>2014-11-11T09:42:25Z</time>
      </trkpt>
      <trkpt lat="45.43368" lon="5.97755">
        <ele>361</ele>
        <time>2014-11-11T09:42:32Z</time>
      </trkpt>
      <trkpt lat="45.43386" lon="5.97769">
        <ele>361</ele>
        <time>2014-11-11T09:42:39Z</time>
      </trkpt>
      <trkpt lat="45.43404" lon="5.97784">
        <ele>361</ele>
        <time>2014-11-11T09:42:45Z</time>
      </trkpt>
      <trkpt lat="45.43421" lon="5.97802">
        <ele>362</ele>
        <time>2014-11-11T09:42:50Z</time>
      </trkpt>
      <trkpt lat="45.4344" lon="5.97819">
        <ele>361</ele>
        <time>2014-11-11T09:42:54Z</time>
      </trkpt>
      <trkpt lat="45.43459" lon="5.97836">
        <ele>358</ele>
        <time>2014-11-11T09:42:58Z</time>
      </trkpt>
      <trkpt lat="45.4348" lon="5.97845">
        <ele>357</ele>
        <time>2014-11-11T09:43:02Z</time>
      </trkpt>
      <trkpt lat="45.43501" lon="5.97848">
        <ele>357</ele>
        <time>2014-11-11T09:43:06Z</time>
      </trkpt>
      <trkpt lat="45.43523" lon="5.97844">
        <ele>357</ele>
        <time>2014-11-11T09:43:11Z</time>
      </trkpt>
      <trkpt lat="45.43541" lon="5.97848">
        <ele>357</ele>
        <time>2014-11-11T09:43:15Z</time>
      </trkpt>
      <trkpt lat="45.43561" lon="5.97849">
        <ele>357</ele>
        <time>2014-11-11T09:43:19Z</time>
      </trkpt>
      <trkpt lat="45.43579" lon="5.9785">
        <ele>357</ele>
        <time>2014-11-11T09:43:23Z</time>
      </trkpt>
      <trkpt lat="45.43598" lon="5.97847">
        <ele>358</ele>
        <time>2014-11-11T09:43:27Z</time>
      </trkpt>
      <trkpt lat="45.43617" lon="5.97852">
        <ele>358</ele>
        <time>2014-11-11T09:43:31Z</time>
      </trkpt>
      <trkpt lat="45.43636" lon="5.97859">
        <ele>358</ele>
        <time>2014-11-11T09:43:35Z</time>
      </trkpt>
      <trkpt lat="45.43654" lon="5.97862">
        <ele>358</ele>
        <time>2014-11-11T09:43:39Z</time>
      </trkpt>
      <trkpt lat="45.43675" lon="5.97871">
        <ele>361</ele>
        <time>2014-11-11T09:43:44Z</time>
      </trkpt>
      <trkpt lat="45.43692" lon="5.97881">
        <ele>361</ele>
        <time>2014-11-11T09:43:49Z</time>
      </trkpt>
      <trkpt lat="45.4371" lon="5.97893">
        <ele>361</ele>
        <time>2014-11-11T09:43:54Z</time>
      </trkpt>
      <trkpt lat="45.43728" lon="5.97904">
        <ele>361</ele>
        <time>2014-11-11T09:44:00Z</time>
      </trkpt>
      <trkpt lat="45.43744" lon="5.97915">
        <ele>362</ele>
        <time>2014-11-11T09:44:06Z</time>
      </trkpt>
      <trkpt lat="45.43763" lon="5.9793">
        <ele>362</ele>
        <time>2014-11-11T09:44:13Z</time>
      </trkpt>
      <trkpt lat="45.43782" lon="5.9794">
        <ele>362</ele>
        <time>2014-11-11T09:44:19Z</time>
      </trkpt>
      <trkpt lat="45.43802" lon="5.97946">
        <ele>363</ele>
        <time>2014-11-11T09:44:25Z</time>
      </trkpt>
      <trkpt lat="45.43822" lon="5.97953">
        <ele>363</ele>
        <time>2014-11-11T09:44:31Z</time>
      </trkpt>
      <trkpt lat="45.4384" lon="5.97964">
        <ele>366</ele>
        <time>2014-11-11T09:44:37Z</time>
      </trkpt>
      <trkpt lat="45.43857" lon="5.97977">
        <ele>366</ele>
        <time>2014-11-11T09:44:43Z</time>
      </trkpt>
      <trkpt lat="45.43873" lon="5.97993">
        <ele>366</ele>
        <time>2014-11-11T09:44:49Z</time>
      </trkpt>
      <trkpt lat="45.43893" lon="5.97998">
        <ele>367</ele>
        <time>2014-11-11T09:44:55Z</time>
      </trkpt>
      <trkpt lat="45.43913" lon="5.98009">
        <ele>365</ele>
        <time>2014-11-11T09:45:00Z</time>
      </trkpt>
      <trkpt lat="45.43932" lon="5.98015">
        <ele>364</ele>
        <time>2014-11-11T09:45:04Z</time>
      </trkpt>
      <trkpt lat="45.43952" lon="5.98019">
        <ele>363</ele>
        <time>2014-11-11T09:45:08Z</time>
      </trkpt>
      <trkpt lat="45.43971" lon="5.98024">
        <ele>362</ele>
        <time>2014-11-11T09:45:12Z</time>
      </trkpt>
      <trkpt lat="45.43992" lon="5.98028">
        <ele>362</ele>
        <time>2014-11-11T09:45:16Z</time>
      </trkpt>
      <trkpt lat="45.44015" lon="5.98031">
        <ele>361</ele>
        <time>2014-11-11T09:45:20Z</time>
      </trkpt>
      <trkpt lat="45.44033" lon="5.98035">
        <ele>361</ele>
        <time>2014-11-11T09:45:23Z</time>
      </trkpt>
      <trkpt lat="45.44053" lon="5.98038">
        <ele>361</ele>
        <time>2014-11-11T09:45:26Z</time>
      </trkpt>
      <trkpt lat="45.44073" lon="5.98039">
        <ele>361</ele>
        <time>2014-11-11T09:45:29Z</time>
      </trkpt>
      <trkpt lat="45.44091" lon="5.98036">
        <ele>361</ele>
        <time>2014-11-11T09:45:32Z</time>
      </trkpt>
      <trkpt lat="45.44113" lon="5.9803">
        <ele>361</ele>
        <time>2014-11-11T09:45:36Z</time>
      </trkpt>
      <trkpt lat="45.44132" lon="5.98025">
        <ele>360</ele>
        <time>2014-11-11T09:45:40Z</time>
      </trkpt>
      <trkpt lat="45.44154" lon="5.9802">
        <ele>360</ele>
        <time>2014-11-11T09:45:44Z</time>
      </trkpt>
      <trkpt lat="45.44177" lon="5.98022">
        <ele>360</ele>
        <time>2014-11-11T09:45:48Z</time>
      </trkpt>
      <trkpt lat="45.442" lon="5.98024">
        <ele>360</ele>
        <time>2014-11-11T09:45:52Z</time>
      </trkpt>
      <trkpt lat="45.44223" lon="5.98031">
        <ele>359</ele>
        <time>2014-11-11T09:45:56Z</time>
      </trkpt>
      <trkpt lat="45.44243" lon="5.9804">
        <ele>359</ele>
        <time>2014-11-11T09:46:00Z</time>
      </trkpt>
      <trkpt lat="45.44264" lon="5.98046">
        <ele>360</ele>
        <time>2014-11-11T09:46:04Z</time>
      </trkpt>
      <trkpt lat="45.44284" lon="5.98054">
        <ele>360</ele>
        <time>2014-11-11T09:46:08Z</time>
      </trkpt>
      <trkpt lat="45.44302" lon="5.98063">
        <ele>360</ele>
        <time>2014-11-11T09:46:12Z</time>
      </trkpt>
      <trkpt lat="45.44323" lon="5.98071">
        <ele>360</ele>
        <time>2014-11-11T09:46:17Z</time>
      </trkpt>
      <trkpt lat="45.44342" lon="5.98083">
        <ele>362</ele>
        <time>2014-11-11T09:46:23Z</time>
      </trkpt>
      <trkpt lat="45.44359" lon="5.98096">
        <ele>361</ele>
        <time>2014-11-11T09:46:29Z</time>
      </trkpt>
      <trkpt lat="45.44375" lon="5.98111">
        <ele>362</ele>
        <time>2014-11-11T09:46:34Z</time>
      </trkpt>
      <trkpt lat="45.44391" lon="5.98128">
        <ele>362</ele>
        <time>2014-11-11T09:46:39Z</time>
      </trkpt>
      <trkpt lat="45.44406" lon="5.98143">
        <ele>362</ele>
        <time>2014-11-11T09:46:44Z</time>
      </trkpt>
      <trkpt lat="45.44421" lon="5.98159">
        <ele>364</ele>
        <time>2014-11-11T09:46:49Z</time>
      </trkpt>
      <trkpt lat="45.44438" lon="5.98175">
        <ele>362</ele>
        <time>2014-11-11T09:46:54Z</time>
      </trkpt>
      <trkpt lat="45.44457" lon="5.98193">
        <ele>363</ele>
        <time>2014-11-11T09:46:59Z</time>
      </trkpt>
      <trkpt lat="45.44475" lon="5.98211">
        <ele>363</ele>
        <time>2014-11-11T09:47:04Z</time>
      </trkpt>
      <trkpt lat="45.44494" lon="5.98217">
        <ele>363</ele>
        <time>2014-11-11T09:47:08Z</time>
      </trkpt>
      <trkpt lat="45.44515" lon="5.98222">
        <ele>366</ele>
        <time>2014-11-11T09:47:13Z</time>
      </trkpt>
      <trkpt lat="45.44532" lon="5.98239">
        <ele>365</ele>
        <time>2014-11-11T09:47:18Z</time>
      </trkpt>
      <trkpt lat="45.44547" lon="5.98256">
        <ele>361</ele>
        <time>2014-11-11T09:47:22Z</time>
      </trkpt>
      <trkpt lat="45.44565" lon="5.98273">
        <ele>361</ele>
        <time>2014-11-11T09:47:26Z</time>
      </trkpt>
      <trkpt lat="45.44586" lon="5.98287">
        <ele>362</ele>
        <time>2014-11-11T09:47:30Z</time>
      </trkpt>
      <trkpt lat="45.44606" lon="5.98302">
        <ele>361</ele>
        <time>2014-11-11T09:47:34Z</time>
      </trkpt>
      <trkpt lat="45.44626" lon="5.98317">
        <ele>361</ele>
        <time>2014-11-11T09:47:38Z</time>
      </trkpt>
      <trkpt lat="45.44646" lon="5.98331">
        <ele>361</ele>
        <time>2014-11-11T09:47:42Z</time>
      </trkpt>
      <trkpt lat="45.44664" lon="5.98343">
        <ele>359</ele>
        <time>2014-11-11T09:47:46Z</time>
      </trkpt>
      <trkpt lat="45.44681" lon="5.98354">
        <ele>361</ele>
        <time>2014-11-11T09:47:50Z</time>
      </trkpt>
      <trkpt lat="45.447" lon="5.98366">
        <ele>361</ele>
        <time>2014-11-11T09:47:55Z</time>
      </trkpt>
      <trkpt lat="45.44721" lon="5.98371">
        <ele>362</ele>
        <time>2014-11-11T09:48:01Z</time>
      </trkpt>
      <trkpt lat="45.44738" lon="5.98377">
        <ele>362</ele>
        <time>2014-11-11T09:48:07Z</time>
      </trkpt>
      <trkpt lat="45.44757" lon="5.98381">
        <ele>368</ele>
        <time>2014-11-11T09:48:13Z</time>
      </trkpt>
      <trkpt lat="45.44775" lon="5.98384">
        <ele>369</ele>
        <time>2014-11-11T09:48:20Z</time>
      </trkpt>
      <trkpt lat="45.44795" lon="5.98379">
        <ele>370</ele>
        <time>2014-11-11T09:48:28Z</time>
      </trkpt>
      <trkpt lat="45.44814" lon="5.98375">
        <ele>372</ele>
        <time>2014-11-11T09:48:37Z</time>
      </trkpt>
      <trkpt lat="45.44832" lon="5.98379">
        <ele>372</ele>
        <time>2014-11-11T09:48:45Z</time>
      </trkpt>
      <trkpt lat="45.4485" lon="5.98383">
        <ele>381</ele>
        <time>2014-11-11T09:48:53Z</time>
      </trkpt>
      <trkpt lat="45.44868" lon="5.98391">
        <ele>382</ele>
        <time>2014-11-11T09:49:01Z</time>
      </trkpt>
      <trkpt lat="45.44885" lon="5.98403">
        <ele>383</ele>
        <time>2014-11-11T09:49:08Z</time>
      </trkpt>
      <trkpt lat="45.44901" lon="5.98417">
        <ele>381</ele>
        <time>2014-11-11T09:49:16Z</time>
      </trkpt>
      <trkpt lat="45.44916" lon="5.98432">
        <ele>382</ele>
        <time>2014-11-11T09:49:24Z</time>
      </trkpt>
      <trkpt lat="45.44935" lon="5.98441">
        <ele>386</ele>
        <time>2014-11-11T09:49:33Z</time>
      </trkpt>
      <trkpt lat="45.44954" lon="5.98438">
        <ele>386</ele>
        <time>2014-11-11T09:49:42Z</time>
      </trkpt>
      <trkpt lat="45.44974" lon="5.98436">
        <ele>387</ele>
        <time>2014-11-11T09:49:51Z</time>
      </trkpt>
      <trkpt lat="45.44993" lon="5.98441">
        <ele>387</ele>
        <time>2014-11-11T09:50:00Z</time>
      </trkpt>
      <trkpt lat="45.4501" lon="5.98448">
        <ele>391</ele>
        <time>2014-11-11T09:50:09Z</time>
      </trkpt>
      <trkpt lat="45.4503" lon="5.98446">
        <ele>392</ele>
        <time>2014-11-11T09:50:18Z</time>
      </trkpt>
      <trkpt lat="45.45048" lon="5.98443">
        <ele>393</ele>
        <time>2014-11-11T09:50:26Z</time>
      </trkpt>
      <trkpt lat="45.45069" lon="5.98446">
        <ele>394</ele>
        <time>2014-11-11T09:50:34Z</time>
      </trkpt>
      <trkpt lat="45.45088" lon="5.98452">
        <ele>399</ele>
        <time>2014-11-11T09:50:44Z</time>
      </trkpt>
      <trkpt lat="45.45106" lon="5.98459">
        <ele>400</ele>
        <time>2014-11-11T09:50:52Z</time>
      </trkpt>
      <trkpt lat="45.45122" lon="5.98474">
        <ele>401</ele>
        <time>2014-11-11T09:51:02Z</time>
      </trkpt>
      <trkpt lat="45.45141" lon="5.9848">
        <ele>401</ele>
        <time>2014-11-11T09:51:13Z</time>
      </trkpt>
      <trkpt lat="45.45159" lon="5.98487">
        <ele>402</ele>
        <time>2014-11-11T09:51:24Z</time>
      </trkpt>
      <trkpt lat="45.45176" lon="5.98499">
        <ele>405</ele>
        <time>2014-11-11T09:51:33Z</time>
      </trkpt>
      <trkpt lat="45.45194" lon="5.98506">
        <ele>402</ele>
        <time>2014-11-11T09:51:43Z</time>
      </trkpt>
      <trkpt lat="45.45212" lon="5.98517">
        <ele>402</ele>
        <time>2014-11-11T09:51:52Z</time>
      </trkpt>
      <trkpt lat="45.45231" lon="5.98523">
        <ele>402</ele>
        <time>2014-11-11T09:52:01Z</time>
      </trkpt>
      <trkpt lat="45.45249" lon="5.98514">
        <ele>403</ele>
        <time>2014-11-11T09:52:07Z</time>
      </trkpt>
      <trkpt lat="45.45269" lon="5.98505">
        <ele>397</ele>
        <time>2014-11-11T09:52:12Z</time>
      </trkpt>
      <trkpt lat="45.4529" lon="5.98499">
        <ele>404</ele>
        <time>2014-11-11T09:52:17Z</time>
      </trkpt>
      <trkpt lat="45.45309" lon="5.98506">
        <ele>391</ele>
        <time>2014-11-11T09:52:22Z</time>
      </trkpt>
      <trkpt lat="45.45329" lon="5.98515">
        <ele>390</ele>
        <time>2014-11-11T09:52:28Z</time>
      </trkpt>
      <trkpt lat="45.45347" lon="5.9851">
        <ele>385</ele>
        <time>2014-11-11T09:52:34Z</time>
      </trkpt>
      <trkpt lat="45.45363" lon="5.98488">
        <ele>391</ele>
        <time>2014-11-11T09:52:38Z</time>
      </trkpt>
      <trkpt lat="45.45372" lon="5.98462">
        <ele>392</ele>
        <time>2014-11-11T09:52:45Z</time>
      </trkpt>
      <trkpt lat="45.45377" lon="5.98436">
        <ele>393</ele>
        <time>2014-11-11T09:52:54Z</time>
      </trkpt>
      <trkpt lat="45.45378" lon="5.98408">
        <ele>402</ele>
        <time>2014-11-11T09:53:05Z</time>
      </trkpt>
      <trkpt lat="45.45382" lon="5.98382">
        <ele>403</ele>
        <time>2014-11-11T09:53:17Z</time>
      </trkpt>
      <trkpt lat="45.45395" lon="5.98365">
        <ele>402</ele>
        <time>2014-11-11T09:53:28Z</time>
      </trkpt>
      <trkpt lat="45.45378" lon="5.98387">
        <ele>403</ele>
        <time>2014-11-11T09:53:58Z</time>
      </trkpt>
      <trkpt lat="45.45373" lon="5.98413">
        <ele>403</ele>
        <time>2014-11-11T09:54:02Z</time>
      </trkpt>
      <trkpt lat="45.45371" lon="5.98444">
        <ele>393</ele>
        <time>2014-11-11T09:54:06Z</time>
      </trkpt>
      <trkpt lat="45.45365" lon="5.98471">
        <ele>392</ele>
        <time>2014-11-11T09:54:10Z</time>
      </trkpt>
      <trkpt lat="45.45373" lon="5.98499">
        <ele>389</ele>
        <time>2014-11-11T09:54:16Z</time>
      </trkpt>
      <trkpt lat="45.45383" lon="5.98523">
        <ele>380</ele>
        <time>2014-11-11T09:54:20Z</time>
      </trkpt>
      <trkpt lat="45.454" lon="5.98541">
        <ele>378</ele>
        <time>2014-11-11T09:54:23Z</time>
      </trkpt>
      <trkpt lat="45.45419" lon="5.98552">
        <ele>370</ele>
        <time>2014-11-11T09:54:26Z</time>
      </trkpt>
      <trkpt lat="45.45437" lon="5.98561">
        <ele>369</ele>
        <time>2014-11-11T09:54:30Z</time>
      </trkpt>
      <trkpt lat="45.45459" lon="5.98555">
        <ele>368</ele>
        <time>2014-11-11T09:54:34Z</time>
      </trkpt>
      <trkpt lat="45.4548" lon="5.98568">
        <ele>365</ele>
        <time>2014-11-11T09:54:38Z</time>
      </trkpt>
      <trkpt lat="45.45498" lon="5.98586">
        <ele>360</ele>
        <time>2014-11-11T09:54:41Z</time>
      </trkpt>
      <trkpt lat="45.45514" lon="5.98603">
        <ele>355</ele>
        <time>2014-11-11T09:54:44Z</time>
      </trkpt>
      <trkpt lat="45.45529" lon="5.98623">
        <ele>353</ele>
        <time>2014-11-11T09:54:47Z</time>
      </trkpt>
      <trkpt lat="45.45543" lon="5.98642">
        <ele>351</ele>
        <time>2014-11-11T09:54:50Z</time>
      </trkpt>
      <trkpt lat="45.45559" lon="5.98665">
        <ele>350</ele>
        <time>2014-11-11T09:54:54Z</time>
      </trkpt>
      <trkpt lat="45.45574" lon="5.98682">
        <ele>348</ele>
        <time>2014-11-11T09:54:58Z</time>
      </trkpt>
      <trkpt lat="45.45578" lon="5.98712">
        <ele>348</ele>
        <time>2014-11-11T09:55:03Z</time>
      </trkpt>
      <trkpt lat="45.45583" lon="5.98739">
        <ele>346</ele>
        <time>2014-11-11T09:55:06Z</time>
      </trkpt>
      <trkpt lat="45.45586" lon="5.98771">
        <ele>339</ele>
        <time>2014-11-11T09:55:09Z</time>
      </trkpt>
      <trkpt lat="45.4559" lon="5.98803">
        <ele>337</ele>
        <time>2014-11-11T09:55:12Z</time>
      </trkpt>
      <trkpt lat="45.45594" lon="5.9884">
        <ele>336</ele>
        <time>2014-11-11T09:55:15Z</time>
      </trkpt>
      <trkpt lat="45.45598" lon="5.98876">
        <ele>333</ele>
        <time>2014-11-11T09:55:18Z</time>
      </trkpt>
      <trkpt lat="45.45602" lon="5.98911">
        <ele>333</ele>
        <time>2014-11-11T09:55:21Z</time>
      </trkpt>
      <trkpt lat="45.45605" lon="5.98937">
        <ele>330</ele>
        <time>2014-11-11T09:55:25Z</time>
      </trkpt>
      <trkpt lat="45.45609" lon="5.98968">
        <ele>328</ele>
        <time>2014-11-11T09:55:31Z</time>
      </trkpt>
      <trkpt lat="45.45613" lon="5.98998">
        <ele>328</ele>
        <time>2014-11-11T09:55:35Z</time>
      </trkpt>
      <trkpt lat="45.45616" lon="5.99027">
        <ele>323</ele>
        <time>2014-11-11T09:55:38Z</time>
      </trkpt>
      <trkpt lat="45.4562" lon="5.9906">
        <ele>322</ele>
        <time>2014-11-11T09:55:41Z</time>
      </trkpt>
      <trkpt lat="45.45624" lon="5.99093">
        <ele>319</ele>
        <time>2014-11-11T09:55:44Z</time>
      </trkpt>
      <trkpt lat="45.45628" lon="5.9912">
        <ele>318</ele>
        <time>2014-11-11T09:55:47Z</time>
      </trkpt>
      <trkpt lat="45.45646" lon="5.99136">
        <ele>318</ele>
        <time>2014-11-11T09:56:04Z</time>
      </trkpt>
      <trkpt lat="45.45666" lon="5.99132">
        <ele>318</ele>
        <time>2014-11-11T09:56:09Z</time>
      </trkpt>
      <trkpt lat="45.45688" lon="5.99127">
        <ele>315</ele>
        <time>2014-11-11T09:56:13Z</time>
      </trkpt>
      <trkpt lat="45.45712" lon="5.99122">
        <ele>314</ele>
        <time>2014-11-11T09:56:17Z</time>
      </trkpt>
      <trkpt lat="45.45732" lon="5.99116">
        <ele>314</ele>
        <time>2014-11-11T09:56:20Z</time>
      </trkpt>
      <trkpt lat="45.45755" lon="5.99111">
        <ele>311</ele>
        <time>2014-11-11T09:56:23Z</time>
      </trkpt>
      <trkpt lat="45.45777" lon="5.99106">
        <ele>310</ele>
        <time>2014-11-11T09:56:26Z</time>
      </trkpt>
      <trkpt lat="45.458" lon="5.99101">
        <ele>310</ele>
        <time>2014-11-11T09:56:29Z</time>
      </trkpt>
      <trkpt lat="45.45824" lon="5.99096">
        <ele>309</ele>
        <time>2014-11-11T09:56:32Z</time>
      </trkpt>
      <trkpt lat="45.45849" lon="5.99089">
        <ele>307</ele>
        <time>2014-11-11T09:56:35Z</time>
      </trkpt>
      <trkpt lat="45.45876" lon="5.99083">
        <ele>307</ele>
        <time>2014-11-11T09:56:38Z</time>
      </trkpt>
      <trkpt lat="45.45893" lon="5.99078">
        <ele>306</ele>
        <time>2014-11-11T09:56:40Z</time>
      </trkpt>
      <trkpt lat="45.45919" lon="5.99071">
        <ele>303</ele>
        <time>2014-11-11T09:56:43Z</time>
      </trkpt>
      <trkpt lat="45.45944" lon="5.99068">
        <ele>303</ele>
        <time>2014-11-11T09:56:46Z</time>
      </trkpt>
      <trkpt lat="45.45969" lon="5.99062">
        <ele>302</ele>
        <time>2014-11-11T09:56:49Z</time>
      </trkpt>
      <trkpt lat="45.45993" lon="5.99057">
        <ele>302</ele>
        <time>2014-11-11T09:56:52Z</time>
      </trkpt>
      <trkpt lat="45.46015" lon="5.99052">
        <ele>299</ele>
        <time>2014-11-11T09:56:55Z</time>
      </trkpt>
      <trkpt lat="45.46037" lon="5.99048">
        <ele>299</ele>
        <time>2014-11-11T09:56:58Z</time>
      </trkpt>
      <trkpt lat="45.46059" lon="5.99043">
        <ele>298</ele>
        <time>2014-11-11T09:57:01Z</time>
      </trkpt>
      <trkpt lat="45.46083" lon="5.99038">
        <ele>298</ele>
        <time>2014-11-11T09:57:04Z</time>
      </trkpt>
      <trkpt lat="45.46107" lon="5.99029">
        <ele>295</ele>
        <time>2014-11-11T09:57:07Z</time>
      </trkpt>
      <trkpt lat="45.46129" lon="5.99025">
        <ele>294</ele>
        <time>2014-11-11T09:57:10Z</time>
      </trkpt>
      <trkpt lat="45.4615" lon="5.99025">
        <ele>294</ele>
        <time>2014-11-11T09:57:14Z</time>
      </trkpt>
      <trkpt lat="45.46166" lon="5.99">
        <ele>292</ele>
        <time>2014-11-11T09:57:18Z</time>
      </trkpt>
      <trkpt lat="45.46184" lon="5.98977">
        <ele>293</ele>
        <time>2014-11-11T09:57:22Z</time>
      </trkpt>
      <trkpt lat="45.46201" lon="5.98968">
        <ele>293</ele>
        <time>2014-11-11T09:57:25Z</time>
      </trkpt>
      <trkpt lat="45.46224" lon="5.98977">
        <ele>293</ele>
        <time>2014-11-11T09:57:29Z</time>
      </trkpt>
      <trkpt lat="45.46244" lon="5.98991">
        <ele>292</ele>
        <time>2014-11-11T09:57:33Z</time>
      </trkpt>
      <trkpt lat="45.46262" lon="5.99004">
        <ele>292</ele>
        <time>2014-11-11T09:57:37Z</time>
      </trkpt>
      <trkpt lat="45.46282" lon="5.99019">
        <ele>291</ele>
        <time>2014-11-11T09:57:41Z</time>
      </trkpt>
      <trkpt lat="45.46302" lon="5.99029">
        <ele>291</ele>
        <time>2014-11-11T09:57:45Z</time>
      </trkpt>
      <trkpt lat="45.46322" lon="5.99033">
        <ele>291</ele>
        <time>2014-11-11T09:57:49Z</time>
      </trkpt>
      <trkpt lat="45.46341" lon="5.99034">
        <ele>289</ele>
        <time>2014-11-11T09:57:53Z</time>
      </trkpt>
      <trkpt lat="45.46361" lon="5.99035">
        <ele>289</ele>
        <time>2014-11-11T09:58:02Z</time>
      </trkpt>
      <trkpt lat="45.46382" lon="5.99035">
        <ele>289</ele>
        <time>2014-11-11T09:58:09Z</time>
      </trkpt>
      <trkpt lat="45.46396" lon="5.99019">
        <ele>289</ele>
        <time>2014-11-11T09:58:20Z</time>
      </trkpt>
      <trkpt lat="45.46393" lon="5.98992">
        <ele>289</ele>
        <time>2014-11-11T09:58:26Z</time>
      </trkpt>
      <trkpt lat="45.46394" lon="5.98966">
        <ele>289</ele>
        <time>2014-11-11T09:58:31Z</time>
      </trkpt>
      <trkpt lat="45.46392" lon="5.98937">
        <ele>289</ele>
        <time>2014-11-11T09:58:36Z</time>
      </trkpt>
      <trkpt lat="45.46388" lon="5.98909">
        <ele>289</ele>
        <time>2014-11-11T09:58:41Z</time>
      </trkpt>
      <trkpt lat="45.46384" lon="5.9888">
        <ele>289</ele>
        <time>2014-11-11T09:58:46Z</time>
      </trkpt>
      <trkpt lat="45.46383" lon="5.9885">
        <ele>290</ele>
        <time>2014-11-11T09:58:51Z</time>
      </trkpt>
      <trkpt lat="45.46382" lon="5.98822">
        <ele>291</ele>
        <time>2014-11-11T09:58:56Z</time>
      </trkpt>
      <trkpt lat="45.46379" lon="5.98794">
        <ele>291</ele>
        <time>2014-11-11T09:59:01Z</time>
      </trkpt>
      <trkpt lat="45.46374" lon="5.98769">
        <ele>291</ele>
        <time>2014-11-11T09:59:06Z</time>
      </trkpt>
      <trkpt lat="45.46368" lon="5.98741">
        <ele>295</ele>
        <time>2014-11-11T09:59:12Z</time>
      </trkpt>
      <trkpt lat="45.46362" lon="5.98715">
        <ele>296</ele>
        <time>2014-11-11T09:59:18Z</time>
      </trkpt>
      <trkpt lat="45.46357" lon="5.98689">
        <ele>297</ele>
        <time>2014-11-11T09:59:24Z</time>
      </trkpt>
      <trkpt lat="45.46374" lon="5.98673">
        <ele>297</ele>
        <time>2014-11-11T09:59:32Z</time>
      </trkpt>
      <trkpt lat="45.46397" lon="5.98667">
        <ele>300</ele>
        <time>2014-11-11T09:59:36Z</time>
      </trkpt>
      <trkpt lat="45.46417" lon="5.98661">
        <ele>296</ele>
        <time>2014-11-11T09:59:39Z</time>
      </trkpt>
      <trkpt lat="45.46438" lon="5.98656">
        <ele>297</ele>
        <time>2014-11-11T09:59:42Z</time>
      </trkpt>
      <trkpt lat="45.46459" lon="5.98651">
        <ele>297</ele>
        <time>2014-11-11T09:59:45Z</time>
      </trkpt>
      <trkpt lat="45.4648" lon="5.98647">
        <ele>296</ele>
        <time>2014-11-11T09:59:48Z</time>
      </trkpt>
      <trkpt lat="45.46499" lon="5.98639">
        <ele>296</ele>
        <time>2014-11-11T09:59:51Z</time>
      </trkpt>
      <trkpt lat="45.46521" lon="5.98632">
        <ele>292</ele>
        <time>2014-11-11T09:59:55Z</time>
      </trkpt>
      <trkpt lat="45.4653" lon="5.98609">
        <ele>292</ele>
        <time>2014-11-11T10:01:56Z</time>
      </trkpt>
      <trkpt lat="45.46525" lon="5.98582">
        <ele>296</ele>
        <time>2014-11-11T10:02:06Z</time>
      </trkpt>
      <trkpt lat="45.46518" lon="5.98557">
        <ele>296</ele>
        <time>2014-11-11T10:02:17Z</time>
      </trkpt>
      <trkpt lat="45.46512" lon="5.98532">
        <ele>297</ele>
        <time>2014-11-11T10:02:27Z</time>
      </trkpt>
      <trkpt lat="45.46503" lon="5.98509">
        <ele>299</ele>
        <time>2014-11-11T10:02:39Z</time>
      </trkpt>
      <trkpt lat="45.46485" lon="5.98514">
        <ele>303</ele>
        <time>2014-11-11T10:02:50Z</time>
      </trkpt>
      <trkpt lat="45.46474" lon="5.98537">
        <ele>304</ele>
        <time>2014-11-11T10:03:00Z</time>
      </trkpt>
      <trkpt lat="45.46468" lon="5.98564">
        <ele>304</ele>
        <time>2014-11-11T10:03:12Z</time>
      </trkpt>
      <trkpt lat="45.4646" lon="5.98587">
        <ele>300</ele>
        <time>2014-11-11T10:03:24Z</time>
      </trkpt>
      <trkpt lat="45.46442" lon="5.98585">
        <ele>302</ele>
        <time>2014-11-11T10:03:38Z</time>
      </trkpt>
      <trkpt lat="45.46437" lon="5.9856">
        <ele>306</ele>
        <time>2014-11-11T10:03:49Z</time>
      </trkpt>
      <trkpt lat="45.4644" lon="5.98534">
        <ele>307</ele>
        <time>2014-11-11T10:04:02Z</time>
      </trkpt>
      <trkpt lat="45.46431" lon="5.98509">
        <ele>310</ele>
        <time>2014-11-11T10:04:15Z</time>
      </trkpt>
      <trkpt lat="45.46421" lon="5.98486">
        <ele>312</ele>
        <time>2014-11-11T10:04:28Z</time>
      </trkpt>
      <trkpt lat="45.46407" lon="5.9847">
        <ele>318</ele>
        <time>2014-11-11T10:04:39Z</time>
      </trkpt>
      <trkpt lat="45.4639" lon="5.9846">
        <ele>319</ele>
        <time>2014-11-11T10:04:49Z</time>
      </trkpt>
      <trkpt lat="45.46374" lon="5.98444">
        <ele>320</ele>
        <time>2014-11-11T10:05:01Z</time>
      </trkpt>
      <trkpt lat="45.46357" lon="5.98429">
        <ele>322</ele>
        <time>2014-11-11T10:05:11Z</time>
      </trkpt>
      <trkpt lat="45.46341" lon="5.98417">
        <ele>326</ele>
        <time>2014-11-11T10:05:23Z</time>
      </trkpt>
      <trkpt lat="45.46329" lon="5.98395">
        <ele>338</ele>
        <time>2014-11-11T10:05:40Z</time>
      </trkpt>
      <trkpt lat="45.46326" lon="5.98369">
        <ele>341</ele>
        <time>2014-11-11T10:05:52Z</time>
      </trkpt>
      <trkpt lat="45.46319" lon="5.98343">
        <ele>340</ele>
        <time>2014-11-11T10:06:02Z</time>
      </trkpt>
      <trkpt lat="45.4631" lon="5.98318">
        <ele>347</ele>
        <time>2014-11-11T10:06:11Z</time>
      </trkpt>
      <trkpt lat="45.463" lon="5.98296">
        <ele>351</ele>
        <time>2014-11-11T10:06:21Z</time>
      </trkpt>
      <trkpt lat="45.46292" lon="5.98272">
        <ele>353</ele>
        <time>2014-11-11T10:06:32Z</time>
      </trkpt>
      <trkpt lat="45.4629" lon="5.98245">
        <ele>359</ele>
        <time>2014-11-11T10:06:44Z</time>
      </trkpt>
      <trkpt lat="45.46293" lon="5.98218">
        <ele>359</ele>
        <time>2014-11-11T10:06:57Z</time>
      </trkpt>
      <trkpt lat="45.46279" lon="5.982">
        <ele>362</ele>
        <time>2014-11-11T10:07:13Z</time>
      </trkpt>
      <trkpt lat="45.46263" lon="5.98213">
        <ele>363</ele>
        <time>2014-11-11T10:07:25Z</time>
      </trkpt>
      <trkpt lat="45.4625" lon="5.9823">
        <ele>378</ele>
        <time>2014-11-11T10:07:36Z</time>
      </trkpt>
      <trkpt lat="45.46257" lon="5.98255">
        <ele>364</ele>
        <time>2014-11-11T10:07:52Z</time>
      </trkpt>
      <trkpt lat="45.46259" lon="5.98281">
        <ele>359</ele>
        <time>2014-11-11T10:08:06Z</time>
      </trkpt>
      <trkpt lat="45.4625" lon="5.98304">
        <ele>378</ele>
        <time>2014-11-11T10:08:18Z</time>
      </trkpt>
      <trkpt lat="45.46244" lon="5.98329">
        <ele>372</ele>
        <time>2014-11-11T10:08:30Z</time>
      </trkpt>
      <trkpt lat="45.46242" lon="5.98355">
        <ele>372</ele>
        <time>2014-11-11T10:08:43Z</time>
      </trkpt>
      <trkpt lat="45.46233" lon="5.98378">
        <ele>373</ele>
        <time>2014-11-11T10:08:57Z</time>
      </trkpt>
      <trkpt lat="45.46216" lon="5.98386">
        <ele>375</ele>
        <time>2014-11-11T10:09:10Z</time>
      </trkpt>
      <trkpt lat="45.46198" lon="5.98392">
        <ele>378</ele>
        <time>2014-11-11T10:09:28Z</time>
      </trkpt>
      <trkpt lat="45.46181" lon="5.98403">
        <ele>381</ele>
        <time>2014-11-11T10:09:40Z</time>
      </trkpt>
      <trkpt lat="45.46168" lon="5.98421">
        <ele>382</ele>
        <time>2014-11-11T10:09:54Z</time>
      </trkpt>
      <trkpt lat="45.46152" lon="5.98436">
        <ele>387</ele>
        <time>2014-11-11T10:10:07Z</time>
      </trkpt>
      <trkpt lat="45.46136" lon="5.98449">
        <ele>387</ele>
        <time>2014-11-11T10:10:22Z</time>
      </trkpt>
      <trkpt lat="45.46121" lon="5.98463">
        <ele>387</ele>
        <time>2014-11-11T10:10:33Z</time>
      </trkpt>
      <trkpt lat="45.46105" lon="5.98475">
        <ele>388</ele>
        <time>2014-11-11T10:10:49Z</time>
      </trkpt>
      <trkpt lat="45.46086" lon="5.98475">
        <ele>389</ele>
        <time>2014-11-11T10:11:02Z</time>
      </trkpt>
      <trkpt lat="45.46067" lon="5.98478">
        <ele>397</ele>
        <time>2014-11-11T10:11:15Z</time>
      </trkpt>
      <trkpt lat="45.46049" lon="5.98487">
        <ele>397</ele>
        <time>2014-11-11T10:11:28Z</time>
      </trkpt>
      <trkpt lat="45.46031" lon="5.98487">
        <ele>398</ele>
        <time>2014-11-11T10:11:39Z</time>
      </trkpt>
      <trkpt lat="45.46014" lon="5.98475">
        <ele>400</ele>
        <time>2014-11-11T10:11:55Z</time>
      </trkpt>
      <trkpt lat="45.46001" lon="5.98457">
        <ele>402</ele>
        <time>2014-11-11T10:12:09Z</time>
      </trkpt>
      <trkpt lat="45.4599" lon="5.98437">
        <ele>402</ele>
        <time>2014-11-11T10:12:22Z</time>
      </trkpt>
      <trkpt lat="45.45973" lon="5.98425">
        <ele>400</ele>
        <time>2014-11-11T10:12:32Z</time>
      </trkpt>
      <trkpt lat="45.45965" lon="5.984">
        <ele>407</ele>
        <time>2014-11-11T10:12:45Z</time>
      </trkpt>
      <trkpt lat="45.45961" lon="5.98373">
        <ele>409</ele>
        <time>2014-11-11T10:12:57Z</time>
      </trkpt>
      <trkpt lat="45.45974" lon="5.98353">
        <ele>412</ele>
        <time>2014-11-11T10:13:54Z</time>
      </trkpt>
      <trkpt lat="45.45985" lon="5.98332">
        <ele>421</ele>
        <time>2014-11-11T10:14:05Z</time>
      </trkpt>
      <trkpt lat="45.45997" lon="5.98311">
        <ele>422</ele>
        <time>2014-11-11T10:14:16Z</time>
      </trkpt>
      <trkpt lat="45.46008" lon="5.9829">
        <ele>424</ele>
        <time>2014-11-11T10:14:26Z</time>
      </trkpt>
      <trkpt lat="45.46017" lon="5.98268">
        <ele>426</ele>
        <time>2014-11-11T10:14:36Z</time>
      </trkpt>
      <trkpt lat="45.46027" lon="5.98246">
        <ele>431</ele>
        <time>2014-11-11T10:14:47Z</time>
      </trkpt>
      <trkpt lat="45.46034" lon="5.98219">
        <ele>432</ele>
        <time>2014-11-11T10:14:58Z</time>
      </trkpt>
      <trkpt lat="45.46016" lon="5.98209">
        <ele>434</ele>
        <time>2014-11-11T10:15:14Z</time>
      </trkpt>
      <trkpt lat="45.45998" lon="5.98215">
        <ele>439</ele>
        <time>2014-11-11T10:15:27Z</time>
      </trkpt>
      <trkpt lat="45.45979" lon="5.98222">
        <ele>438</ele>
        <time>2014-11-11T10:15:37Z</time>
      </trkpt>
      <trkpt lat="45.45959" lon="5.98227">
        <ele>439</ele>
        <time>2014-11-11T10:15:49Z</time>
      </trkpt>
      <trkpt lat="45.4594" lon="5.98233">
        <ele>439</ele>
        <time>2014-11-11T10:16:00Z</time>
      </trkpt>
      <trkpt lat="45.45945" lon="5.98207">
        <ele>441</ele>
        <time>2014-11-11T10:16:32Z</time>
      </trkpt>
      <trkpt lat="45.45957" lon="5.98187">
        <ele>442</ele>
        <time>2014-11-11T10:16:46Z</time>
      </trkpt>
      <trkpt lat="45.45966" lon="5.98164">
        <ele>451</ele>
        <time>2014-11-11T10:17:01Z</time>
      </trkpt>
      <trkpt lat="45.45972" lon="5.98138">
        <ele>452</ele>
        <time>2014-11-11T10:17:14Z</time>
      </trkpt>
      <trkpt lat="45.45981" lon="5.98115">
        <ele>454</ele>
        <time>2014-11-11T10:17:25Z</time>
      </trkpt>
      <trkpt lat="45.45989" lon="5.9809">
        <ele>455</ele>
        <time>2014-11-11T10:17:37Z</time>
      </trkpt>
      <trkpt lat="45.45995" lon="5.98065">
        <ele>459</ele>
        <time>2014-11-11T10:17:49Z</time>
      </trkpt>
      <trkpt lat="45.45996" lon="5.98037">
        <ele>461</ele>
        <time>2014-11-11T10:18:02Z</time>
      </trkpt>
      <trkpt lat="45.45995" lon="5.98011">
        <ele>462</ele>
        <time>2014-11-11T10:18:15Z</time>
      </trkpt>
      <trkpt lat="45.45983" lon="5.97991">
        <ele>465</ele>
        <time>2014-11-11T10:18:30Z</time>
      </trkpt>
      <trkpt lat="45.45976" lon="5.97966">
        <ele>467</ele>
        <time>2014-11-11T10:18:45Z</time>
      </trkpt>
      <trkpt lat="45.45974" lon="5.97939">
        <ele>468</ele>
        <time>2014-11-11T10:18:59Z</time>
      </trkpt>
      <trkpt lat="45.45973" lon="5.97913">
        <ele>473</ele>
        <time>2014-11-11T10:19:12Z</time>
      </trkpt>
      <trkpt lat="45.45976" lon="5.97888">
        <ele>474</ele>
        <time>2014-11-11T10:19:26Z</time>
      </trkpt>
      <trkpt lat="45.45983" lon="5.97863">
        <ele>475</ele>
        <time>2014-11-11T10:19:38Z</time>
      </trkpt>
      <trkpt lat="45.45986" lon="5.97837">
        <ele>475</ele>
        <time>2014-11-11T10:19:51Z</time>
      </trkpt>
      <trkpt lat="45.45992" lon="5.9781">
        <ele>479</ele>
        <time>2014-11-11T10:20:06Z</time>
      </trkpt>
      <trkpt lat="45.46005" lon="5.9779">
        <ele>473</ele>
        <time>2014-11-11T10:20:18Z</time>
      </trkpt>
      <trkpt lat="45.46017" lon="5.97768">
        <ele>474</ele>
        <time>2014-11-11T10:20:29Z</time>
      </trkpt>
      <trkpt lat="45.46029" lon="5.97749">
        <ele>480</ele>
        <time>2014-11-11T10:20:40Z</time>
      </trkpt>
      <trkpt lat="45.4604" lon="5.9773">
        <ele>480</ele>
        <time>2014-11-11T10:20:52Z</time>
      </trkpt>
      <trkpt lat="45.46052" lon="5.97709">
        <ele>481</ele>
        <time>2014-11-11T10:21:03Z</time>
      </trkpt>
      <trkpt lat="45.46062" lon="5.97686">
        <ele>482</ele>
        <time>2014-11-11T10:21:16Z</time>
      </trkpt>
      <trkpt lat="45.46075" lon="5.97665">
        <ele>486</ele>
        <time>2014-11-11T10:21:25Z</time>
      </trkpt>
      <trkpt lat="45.46086" lon="5.97642">
        <ele>484</ele>
        <time>2014-11-11T10:21:34Z</time>
      </trkpt>
      <trkpt lat="45.46095" lon="5.97618">
        <ele>487</ele>
        <time>2014-11-11T10:21:44Z</time>
      </trkpt>
      <trkpt lat="45.46106" lon="5.97596">
        <ele>489</ele>
        <time>2014-11-11T10:21:57Z</time>
      </trkpt>
      <trkpt lat="45.46116" lon="5.97573">
        <ele>498</ele>
        <time>2014-11-11T10:22:09Z</time>
      </trkpt>
      <trkpt lat="45.46127" lon="5.97552">
        <ele>499</ele>
        <time>2014-11-11T10:22:22Z</time>
      </trkpt>
      <trkpt lat="45.46137" lon="5.97528">
        <ele>501</ele>
        <time>2014-11-11T10:22:38Z</time>
      </trkpt>
      <trkpt lat="45.4615" lon="5.97509">
        <ele>502</ele>
        <time>2014-11-11T10:22:49Z</time>
      </trkpt>
      <trkpt lat="45.46167" lon="5.97497">
        <ele>505</ele>
        <time>2014-11-11T10:23:02Z</time>
      </trkpt>
      <trkpt lat="45.46184" lon="5.97485">
        <ele>506</ele>
        <time>2014-11-11T10:23:16Z</time>
      </trkpt>
      <trkpt lat="45.46202" lon="5.97481">
        <ele>506</ele>
        <time>2014-11-11T10:23:31Z</time>
      </trkpt>
      <trkpt lat="45.4622" lon="5.97472">
        <ele>505</ele>
        <time>2014-11-11T10:23:43Z</time>
      </trkpt>
      <trkpt lat="45.46236" lon="5.97457">
        <ele>506</ele>
        <time>2014-11-11T10:23:53Z</time>
      </trkpt>
      <trkpt lat="45.46254" lon="5.9745">
        <ele>505</ele>
        <time>2014-11-11T10:24:06Z</time>
      </trkpt>
      <trkpt lat="45.46273" lon="5.97442">
        <ele>505</ele>
        <time>2014-11-11T10:24:18Z</time>
      </trkpt>
      <trkpt lat="45.46288" lon="5.97427">
        <ele>506</ele>
        <time>2014-11-11T10:24:29Z</time>
      </trkpt>
      <trkpt lat="45.46305" lon="5.97415">
        <ele>517</ele>
        <time>2014-11-11T10:24:42Z</time>
      </trkpt>
      <trkpt lat="45.46321" lon="5.97401">
        <ele>517</ele>
        <time>2014-11-11T10:24:55Z</time>
      </trkpt>
      <trkpt lat="45.46336" lon="5.97385">
        <ele>516</ele>
        <time>2014-11-11T10:25:08Z</time>
      </trkpt>
      <trkpt lat="45.46351" lon="5.97365">
        <ele>517</ele>
        <time>2014-11-11T10:25:18Z</time>
      </trkpt>
      <trkpt lat="45.46365" lon="5.97348">
        <ele>518</ele>
        <time>2014-11-11T10:25:28Z</time>
      </trkpt>
      <trkpt lat="45.46379" lon="5.97329">
        <ele>525</ele>
        <time>2014-11-11T10:25:39Z</time>
      </trkpt>
      <trkpt lat="45.46388" lon="5.97306">
        <ele>526</ele>
        <time>2014-11-11T10:25:50Z</time>
      </trkpt>
      <trkpt lat="45.46396" lon="5.97283">
        <ele>527</ele>
        <time>2014-11-11T10:26:01Z</time>
      </trkpt>
      <trkpt lat="45.46406" lon="5.97259">
        <ele>527</ele>
        <time>2014-11-11T10:26:12Z</time>
      </trkpt>
      <trkpt lat="45.46418" lon="5.97238">
        <ele>528</ele>
        <time>2014-11-11T10:26:24Z</time>
      </trkpt>
      <trkpt lat="45.46434" lon="5.97228">
        <ele>529</ele>
        <time>2014-11-11T10:26:32Z</time>
      </trkpt>
      <trkpt lat="45.46453" lon="5.97231">
        <ele>529</ele>
        <time>2014-11-11T10:26:43Z</time>
      </trkpt>
      <trkpt lat="45.46471" lon="5.9724">
        <ele>529</ele>
        <time>2014-11-11T10:26:54Z</time>
      </trkpt>
      <trkpt lat="45.46491" lon="5.97247">
        <ele>527</ele>
        <time>2014-11-11T10:27:04Z</time>
      </trkpt>
      <trkpt lat="45.46508" lon="5.97256">
        <ele>526</ele>
        <time>2014-11-11T10:27:12Z</time>
      </trkpt>
      <trkpt lat="45.46527" lon="5.97265">
        <ele>527</ele>
        <time>2014-11-11T10:27:21Z</time>
      </trkpt>
      <trkpt lat="45.46546" lon="5.97266">
        <ele>528</ele>
        <time>2014-11-11T10:32:37Z</time>
      </trkpt>
      <trkpt lat="45.46566" lon="5.9727">
        <ele>530</ele>
        <time>2014-11-11T10:32:57Z</time>
      </trkpt>
      <trkpt lat="45.46584" lon="5.97271">
        <ele>532</ele>
        <time>2014-11-11T10:33:05Z</time>
      </trkpt>
      <trkpt lat="45.46603" lon="5.97272">
        <ele>532</ele>
        <time>2014-11-11T10:33:14Z</time>
      </trkpt>
      <trkpt lat="45.46622" lon="5.97275">
        <ele>532</ele>
        <time>2014-11-11T10:33:21Z</time>
      </trkpt>
      <trkpt lat="45.4664" lon="5.97274">
        <ele>532</ele>
        <time>2014-11-11T10:33:28Z</time>
      </trkpt>
      <trkpt lat="45.46644" lon="5.97249">
        <ele>532</ele>
        <time>2014-11-11T10:33:34Z</time>
      </trkpt>
      <trkpt lat="45.46645" lon="5.97221">
        <ele>532</ele>
        <time>2014-11-11T10:33:40Z</time>
      </trkpt>
      <trkpt lat="45.46644" lon="5.97194">
        <ele>532</ele>
        <time>2014-11-11T10:33:47Z</time>
      </trkpt>
      <trkpt lat="45.46642" lon="5.97166">
        <ele>533</ele>
        <time>2014-11-11T10:33:55Z</time>
      </trkpt>
      <trkpt lat="45.4664" lon="5.97138">
        <ele>534</ele>
        <time>2014-11-11T10:34:03Z</time>
      </trkpt>
      <trkpt lat="45.46637" lon="5.97112">
        <ele>534</ele>
        <time>2014-11-11T10:34:11Z</time>
      </trkpt>
      <trkpt lat="45.46634" lon="5.97084">
        <ele>535</ele>
        <time>2014-11-11T10:34:21Z</time>
      </trkpt>
      <trkpt lat="45.46617" lon="5.97073">
        <ele>542</ele>
        <time>2014-11-11T10:34:34Z</time>
      </trkpt>
      <trkpt lat="45.46598" lon="5.97072">
        <ele>543</ele>
        <time>2014-11-11T10:34:45Z</time>
      </trkpt>
      <trkpt lat="45.4658" lon="5.97066">
        <ele>546</ele>
        <time>2014-11-11T10:34:56Z</time>
      </trkpt>
      <trkpt lat="45.46564" lon="5.97052">
        <ele>548</ele>
        <time>2014-11-11T10:35:07Z</time>
      </trkpt>
      <trkpt lat="45.4655" lon="5.97036">
        <ele>549</ele>
        <time>2014-11-11T10:35:18Z</time>
      </trkpt>
      <trkpt lat="45.46538" lon="5.97014">
        <ele>551</ele>
        <time>2014-11-11T10:35:30Z</time>
      </trkpt>
      <trkpt lat="45.46544" lon="5.96988">
        <ele>560</ele>
        <time>2014-11-11T10:35:43Z</time>
      </trkpt>
      <trkpt lat="45.46559" lon="5.96973">
        <ele>561</ele>
        <time>2014-11-11T10:35:54Z</time>
      </trkpt>
      <trkpt lat="45.46574" lon="5.96959">
        <ele>562</ele>
        <time>2014-11-11T10:36:05Z</time>
      </trkpt>
      <trkpt lat="45.46589" lon="5.96943">
        <ele>559</ele>
        <time>2014-11-11T10:36:17Z</time>
      </trkpt>
      <trkpt lat="45.46603" lon="5.96926">
        <ele>560</ele>
        <time>2014-11-11T10:36:29Z</time>
      </trkpt>
      <trkpt lat="45.4661" lon="5.96902">
        <ele>566</ele>
        <time>2014-11-11T10:36:40Z</time>
      </trkpt>
      <trkpt lat="45.46611" lon="5.96876">
        <ele>568</ele>
        <time>2014-11-11T10:36:50Z</time>
      </trkpt>
      <trkpt lat="45.4661" lon="5.96849">
        <ele>569</ele>
        <time>2014-11-11T10:37:01Z</time>
      </trkpt>
      <trkpt lat="45.46605" lon="5.96824">
        <ele>578</ele>
        <time>2014-11-11T10:37:11Z</time>
      </trkpt>
      <trkpt lat="45.46602" lon="5.96798">
        <ele>580</ele>
        <time>2014-11-11T10:37:21Z</time>
      </trkpt>
      <trkpt lat="45.46614" lon="5.96779">
        <ele>582</ele>
        <time>2014-11-11T10:37:32Z</time>
      </trkpt>
      <trkpt lat="45.4663" lon="5.96767">
        <ele>583</ele>
        <time>2014-11-11T10:37:43Z</time>
      </trkpt>
      <trkpt lat="45.46648" lon="5.96759">
        <ele>584</ele>
        <time>2014-11-11T10:37:56Z</time>
      </trkpt>
      <trkpt lat="45.46667" lon="5.96752">
        <ele>587</ele>
        <time>2014-11-11T10:38:10Z</time>
      </trkpt>
      <trkpt lat="45.46686" lon="5.96749">
        <ele>593</ele>
        <time>2014-11-11T10:38:23Z</time>
      </trkpt>
      <trkpt lat="45.46704" lon="5.96748">
        <ele>595</ele>
        <time>2014-11-11T10:38:35Z</time>
      </trkpt>
      <trkpt lat="45.46722" lon="5.9675">
        <ele>587</ele>
        <time>2014-11-11T10:38:46Z</time>
      </trkpt>
      <trkpt lat="45.4674" lon="5.96753">
        <ele>591</ele>
        <time>2014-11-11T10:38:56Z</time>
      </trkpt>
      <trkpt lat="45.46759" lon="5.96748">
        <ele>597</ele>
        <time>2014-11-11T10:39:07Z</time>
      </trkpt>
      <trkpt lat="45.46773" lon="5.96731">
        <ele>600</ele>
        <time>2014-11-11T10:39:20Z</time>
      </trkpt>
      <trkpt lat="45.46784" lon="5.96709">
        <ele>602</ele>
        <time>2014-11-11T10:39:34Z</time>
      </trkpt>
      <trkpt lat="45.46794" lon="5.96687">
        <ele>603</ele>
        <time>2014-11-11T10:39:43Z</time>
      </trkpt>
      <trkpt lat="45.46805" lon="5.96666">
        <ele>605</ele>
        <time>2014-11-11T10:39:49Z</time>
      </trkpt>
      <trkpt lat="45.46808" lon="5.9664">
        <ele>605</ele>
        <time>2014-11-11T10:39:58Z</time>
      </trkpt>
      <trkpt lat="45.46801" lon="5.96616">
        <ele>604</ele>
        <time>2014-11-11T10:40:06Z</time>
      </trkpt>
      <trkpt lat="45.46781" lon="5.96619">
        <ele>605</ele>
        <time>2014-11-11T10:40:15Z</time>
      </trkpt>
      <trkpt lat="45.46763" lon="5.96628">
        <ele>605</ele>
        <time>2014-11-11T10:40:23Z</time>
      </trkpt>
      <trkpt lat="45.46745" lon="5.96638">
        <ele>607</ele>
        <time>2014-11-11T10:40:31Z</time>
      </trkpt>
      <trkpt lat="45.46726" lon="5.96646">
        <ele>607</ele>
        <time>2014-11-11T10:40:39Z</time>
      </trkpt>
      <trkpt lat="45.46708" lon="5.9665">
        <ele>607</ele>
        <time>2014-11-11T10:40:46Z</time>
      </trkpt>
      <trkpt lat="45.46689" lon="5.96654">
        <ele>606</ele>
        <time>2014-11-11T10:40:54Z</time>
      </trkpt>
      <trkpt lat="45.46671" lon="5.96655">
        <ele>606</ele>
        <time>2014-11-11T10:41:01Z</time>
      </trkpt>
      <trkpt lat="45.46651" lon="5.9665">
        <ele>608</ele>
        <time>2014-11-11T10:41:08Z</time>
      </trkpt>
      <trkpt lat="45.46632" lon="5.96648">
        <ele>609</ele>
        <time>2014-11-11T10:41:15Z</time>
      </trkpt>
      <trkpt lat="45.46614" lon="5.96649">
        <ele>609</ele>
        <time>2014-11-11T10:41:22Z</time>
      </trkpt>
      <trkpt lat="45.46596" lon="5.96645">
        <ele>609</ele>
        <time>2014-11-11T10:41:31Z</time>
      </trkpt>
      <trkpt lat="45.46578" lon="5.96638">
        <ele>615</ele>
        <time>2014-11-11T10:41:39Z</time>
      </trkpt>
      <trkpt lat="45.46558" lon="5.96639">
        <ele>617</ele>
        <time>2014-11-11T10:41:48Z</time>
      </trkpt>
      <trkpt lat="45.4654" lon="5.96648">
        <ele>618</ele>
        <time>2014-11-11T10:41:58Z</time>
      </trkpt>
      <trkpt lat="45.46522" lon="5.96657">
        <ele>620</ele>
        <time>2014-11-11T10:42:09Z</time>
      </trkpt>
      <trkpt lat="45.46503" lon="5.96655">
        <ele>621</ele>
        <time>2014-11-11T10:42:20Z</time>
      </trkpt>
      <trkpt lat="45.46485" lon="5.96648">
        <ele>628</ele>
        <time>2014-11-11T10:42:31Z</time>
      </trkpt>
      <trkpt lat="45.46466" lon="5.96645">
        <ele>629</ele>
        <time>2014-11-11T10:42:43Z</time>
      </trkpt>
      <trkpt lat="45.46448" lon="5.96643">
        <ele>631</ele>
        <time>2014-11-11T10:42:53Z</time>
      </trkpt>
      <trkpt lat="45.4643" lon="5.96638">
        <ele>632</ele>
        <time>2014-11-11T10:43:05Z</time>
      </trkpt>
      <trkpt lat="45.46412" lon="5.9663">
        <ele>639</ele>
        <time>2014-11-11T10:43:20Z</time>
      </trkpt>
      <trkpt lat="45.46393" lon="5.96631">
        <ele>639</ele>
        <time>2014-11-11T10:43:33Z</time>
      </trkpt>
      <trkpt lat="45.46374" lon="5.96634">
        <ele>640</ele>
        <time>2014-11-11T10:43:45Z</time>
      </trkpt>
      <trkpt lat="45.46354" lon="5.96631">
        <ele>641</ele>
        <time>2014-11-11T10:43:53Z</time>
      </trkpt>
      <trkpt lat="45.46336" lon="5.96627">
        <ele>642</ele>
        <time>2014-11-11T10:43:58Z</time>
      </trkpt>
      <trkpt lat="45.46319" lon="5.96635">
        <ele>645</ele>
        <time>2014-11-11T10:44:17Z</time>
      </trkpt>
      <trkpt lat="45.463" lon="5.96634">
        <ele>646</ele>
        <time>2014-11-11T10:44:29Z</time>
      </trkpt>
      <trkpt lat="45.46282" lon="5.96629">
        <ele>646</ele>
        <time>2014-11-11T10:44:41Z</time>
      </trkpt>
      <trkpt lat="45.46264" lon="5.96626">
        <ele>647</ele>
        <time>2014-11-11T10:44:52Z</time>
      </trkpt>
      <trkpt lat="45.46245" lon="5.96623">
        <ele>652</ele>
        <time>2014-11-11T10:45:06Z</time>
      </trkpt>
      <trkpt lat="45.46227" lon="5.96621">
        <ele>654</ele>
        <time>2014-11-11T10:45:20Z</time>
      </trkpt>
      <trkpt lat="45.46209" lon="5.96615">
        <ele>655</ele>
        <time>2014-11-11T10:45:32Z</time>
      </trkpt>
      <trkpt lat="45.46189" lon="5.96619">
        <ele>657</ele>
        <time>2014-11-11T10:45:44Z</time>
      </trkpt>
      <trkpt lat="45.46171" lon="5.96627">
        <ele>657</ele>
        <time>2014-11-11T10:45:55Z</time>
      </trkpt>
      <trkpt lat="45.46154" lon="5.96639">
        <ele>667</ele>
        <time>2014-11-11T10:46:07Z</time>
      </trkpt>
      <trkpt lat="45.46137" lon="5.96652">
        <ele>668</ele>
        <time>2014-11-11T10:46:19Z</time>
      </trkpt>
      <trkpt lat="45.46121" lon="5.96666">
        <ele>670</ele>
        <time>2014-11-11T10:46:32Z</time>
      </trkpt>
      <trkpt lat="45.46104" lon="5.96678">
        <ele>666</ele>
        <time>2014-11-11T10:46:45Z</time>
      </trkpt>
      <trkpt lat="45.46087" lon="5.96689">
        <ele>667</ele>
        <time>2014-11-11T10:46:58Z</time>
      </trkpt>
      <trkpt lat="45.4607" lon="5.96697">
        <ele>677</ele>
        <time>2014-11-11T10:47:09Z</time>
      </trkpt>
      <trkpt lat="45.46055" lon="5.96711">
        <ele>678</ele>
        <time>2014-11-11T10:47:22Z</time>
      </trkpt>
      <trkpt lat="45.46035" lon="5.96716">
        <ele>679</ele>
        <time>2014-11-11T10:47:33Z</time>
      </trkpt>
      <trkpt lat="45.46017" lon="5.96723">
        <ele>681</ele>
        <time>2014-11-11T10:47:44Z</time>
      </trkpt>
      <trkpt lat="45.46004" lon="5.96741">
        <ele>682</ele>
        <time>2014-11-11T10:47:55Z</time>
      </trkpt>
      <trkpt lat="45.45987" lon="5.96752">
        <ele>686</ele>
        <time>2014-11-11T10:48:08Z</time>
      </trkpt>
      <trkpt lat="45.45969" lon="5.9675">
        <ele>690</ele>
        <time>2014-11-11T10:48:20Z</time>
      </trkpt>
      <trkpt lat="45.45951" lon="5.96744">
        <ele>692</ele>
        <time>2014-11-11T10:48:33Z</time>
      </trkpt>
      <trkpt lat="45.45933" lon="5.9674">
        <ele>693</ele>
        <time>2014-11-11T10:48:48Z</time>
      </trkpt>
      <trkpt lat="45.45916" lon="5.96725">
        <ele>693</ele>
        <time>2014-11-11T10:49:02Z</time>
      </trkpt>
      <trkpt lat="45.45909" lon="5.967">
        <ele>693</ele>
        <time>2014-11-11T10:49:13Z</time>
      </trkpt>
      <trkpt lat="45.45906" lon="5.96674">
        <ele>694</ele>
        <time>2014-11-11T10:49:20Z</time>
      </trkpt>
      <trkpt lat="45.45898" lon="5.96647">
        <ele>694</ele>
        <time>2014-11-11T10:49:26Z</time>
      </trkpt>
      <trkpt lat="45.45888" lon="5.96626">
        <ele>694</ele>
        <time>2014-11-11T10:49:32Z</time>
      </trkpt>
      <trkpt lat="45.45875" lon="5.96605">
        <ele>694</ele>
        <time>2014-11-11T10:49:38Z</time>
      </trkpt>
      <trkpt lat="45.45864" lon="5.96581">
        <ele>695</ele>
        <time>2014-11-11T10:49:45Z</time>
      </trkpt>
      <trkpt lat="45.45855" lon="5.96558">
        <ele>695</ele>
        <time>2014-11-11T10:49:52Z</time>
      </trkpt>
      <trkpt lat="45.45848" lon="5.96532">
        <ele>696</ele>
        <time>2014-11-11T10:50:00Z</time>
      </trkpt>
      <trkpt lat="45.45841" lon="5.96506">
        <ele>695</ele>
        <time>2014-11-11T10:50:08Z</time>
      </trkpt>
      <trkpt lat="45.45835" lon="5.96479">
        <ele>699</ele>
        <time>2014-11-11T10:50:16Z</time>
      </trkpt>
      <trkpt lat="45.45834" lon="5.96451">
        <ele>702</ele>
        <time>2014-11-11T10:50:24Z</time>
      </trkpt>
      <trkpt lat="45.45836" lon="5.96425">
        <ele>702</ele>
        <time>2014-11-11T10:50:31Z</time>
      </trkpt>
      <trkpt lat="45.4584" lon="5.96398">
        <ele>707</ele>
        <time>2014-11-11T10:50:39Z</time>
      </trkpt>
      <trkpt lat="45.45845" lon="5.9637">
        <ele>710</ele>
        <time>2014-11-11T10:50:47Z</time>
      </trkpt>
      <trkpt lat="45.45845" lon="5.96344">
        <ele>710</ele>
        <time>2014-11-11T10:50:55Z</time>
      </trkpt>
      <trkpt lat="45.4584" lon="5.96317">
        <ele>715</ele>
        <time>2014-11-11T10:51:03Z</time>
      </trkpt>
      <trkpt lat="45.45834" lon="5.96291">
        <ele>719</ele>
        <time>2014-11-11T10:51:11Z</time>
      </trkpt>
      <trkpt lat="45.45826" lon="5.96266">
        <ele>707</ele>
        <time>2014-11-11T10:51:19Z</time>
      </trkpt>
      <trkpt lat="45.45819" lon="5.96241">
        <ele>712</ele>
        <time>2014-11-11T10:51:27Z</time>
      </trkpt>
      <trkpt lat="45.45811" lon="5.96215">
        <ele>711</ele>
        <time>2014-11-11T10:51:35Z</time>
      </trkpt>
      <trkpt lat="45.45805" lon="5.96189">
        <ele>712</ele>
        <time>2014-11-11T10:51:43Z</time>
      </trkpt>
      <trkpt lat="45.45799" lon="5.96161">
        <ele>718</ele>
        <time>2014-11-11T10:51:51Z</time>
      </trkpt>
      <trkpt lat="45.45796" lon="5.96135">
        <ele>718</ele>
        <time>2014-11-11T10:51:59Z</time>
      </trkpt>
      <trkpt lat="45.45792" lon="5.96106">
        <ele>719</ele>
        <time>2014-11-11T10:52:07Z</time>
      </trkpt>
      <trkpt lat="45.45792" lon="5.96077">
        <ele>725</ele>
        <time>2014-11-11T10:52:15Z</time>
      </trkpt>
      <trkpt lat="45.45795" lon="5.96049">
        <ele>726</ele>
        <time>2014-11-11T10:52:23Z</time>
      </trkpt>
      <trkpt lat="45.45796" lon="5.96022">
        <ele>728</ele>
        <time>2014-11-11T10:52:31Z</time>
      </trkpt>
      <trkpt lat="45.45795" lon="5.95996">
        <ele>736</ele>
        <time>2014-11-11T10:52:39Z</time>
      </trkpt>
      <trkpt lat="45.45786" lon="5.95972">
        <ele>736</ele>
        <time>2014-11-11T10:52:47Z</time>
      </trkpt>
      <trkpt lat="45.45772" lon="5.95956">
        <ele>736</ele>
        <time>2014-11-11T10:52:54Z</time>
      </trkpt>
      <trkpt lat="45.45755" lon="5.95941">
        <ele>736</ele>
        <time>2014-11-11T10:53:02Z</time>
      </trkpt>
      <trkpt lat="45.45747" lon="5.95915">
        <ele>733</ele>
        <time>2014-11-11T10:53:10Z</time>
      </trkpt>
      <trkpt lat="45.45747" lon="5.95889">
        <ele>729</ele>
        <time>2014-11-11T10:53:18Z</time>
      </trkpt>
      <trkpt lat="45.45751" lon="5.95863">
        <ele>751</ele>
        <time>2014-11-11T10:53:29Z</time>
      </trkpt>
      <trkpt lat="45.45737" lon="5.95845">
        <ele>735</ele>
        <time>2014-11-11T10:53:37Z</time>
      </trkpt>
      <trkpt lat="45.45735" lon="5.95817">
        <ele>741</ele>
        <time>2014-11-11T10:53:44Z</time>
      </trkpt>
      <trkpt lat="45.4574" lon="5.9579">
        <ele>744</ele>
        <time>2014-11-11T10:53:51Z</time>
      </trkpt>
      <trkpt lat="45.45745" lon="5.95763">
        <ele>753</ele>
        <time>2014-11-11T10:53:59Z</time>
      </trkpt>
      <trkpt lat="45.45731" lon="5.95743">
        <ele>761</ele>
        <time>2014-11-11T10:54:06Z</time>
      </trkpt>
      <trkpt lat="45.45713" lon="5.95728">
        <ele>758</ele>
        <time>2014-11-11T10:54:12Z</time>
      </trkpt>
      <trkpt lat="45.45699" lon="5.95711">
        <ele>757</ele>
        <time>2014-11-11T10:54:20Z</time>
      </trkpt>
      <trkpt lat="45.45687" lon="5.95689">
        <ele>757</ele>
        <time>2014-11-11T10:54:26Z</time>
      </trkpt>
      <trkpt lat="45.45672" lon="5.95673">
        <ele>753</ele>
        <time>2014-11-11T10:54:34Z</time>
      </trkpt>
      <trkpt lat="45.45663" lon="5.95651">
        <ele>753</ele>
        <time>2014-11-11T10:54:43Z</time>
      </trkpt>
      <trkpt lat="45.45651" lon="5.95625">
        <ele>758</ele>
        <time>2014-11-11T10:54:52Z</time>
      </trkpt>
      <trkpt lat="45.45641" lon="5.95603">
        <ele>761</ele>
        <time>2014-11-11T10:54:59Z</time>
      </trkpt>
      <trkpt lat="45.45627" lon="5.95584">
        <ele>760</ele>
        <time>2014-11-11T10:55:07Z</time>
      </trkpt>
      <trkpt lat="45.45615" lon="5.95563">
        <ele>772</ele>
        <time>2014-11-11T10:55:15Z</time>
      </trkpt>
      <trkpt lat="45.45598" lon="5.95543">
        <ele>773</ele>
        <time>2014-11-11T10:55:21Z</time>
      </trkpt>
      <trkpt lat="45.4558" lon="5.95521">
        <ele>767</ele>
        <time>2014-11-11T10:55:24Z</time>
      </trkpt>
      <trkpt lat="45.45566" lon="5.955">
        <ele>775</ele>
        <time>2014-11-11T10:55:30Z</time>
      </trkpt>
      <trkpt lat="45.45546" lon="5.95491">
        <ele>776</ele>
        <time>2014-11-11T10:55:36Z</time>
      </trkpt>
      <trkpt lat="45.45529" lon="5.95505">
        <ele>767</ele>
        <time>2014-11-11T10:55:43Z</time>
      </trkpt>
      <trkpt lat="45.45526" lon="5.95533">
        <ele>766</ele>
        <time>2014-11-11T10:55:49Z</time>
      </trkpt>
      <trkpt lat="45.45529" lon="5.95562">
        <ele>765</ele>
        <time>2014-11-11T10:55:55Z</time>
      </trkpt>
      <trkpt lat="45.45529" lon="5.95588">
        <ele>760</ele>
        <time>2014-11-11T10:56:00Z</time>
      </trkpt>
      <trkpt lat="45.45514" lon="5.95607">
        <ele>761</ele>
        <time>2014-11-11T10:56:07Z</time>
      </trkpt>
      <trkpt lat="45.45497" lon="5.95623">
        <ele>776</ele>
        <time>2014-11-11T10:56:14Z</time>
      </trkpt>
      <trkpt lat="45.45492" lon="5.95648">
        <ele>773</ele>
        <time>2014-11-11T10:56:20Z</time>
      </trkpt>
      <trkpt lat="45.45496" lon="5.95677">
        <ele>769</ele>
        <time>2014-11-11T10:56:26Z</time>
      </trkpt>
      <trkpt lat="45.45497" lon="5.95707">
        <ele>771</ele>
        <time>2014-11-11T10:56:33Z</time>
      </trkpt>
      <trkpt lat="45.45491" lon="5.95733">
        <ele>768</ele>
        <time>2014-11-11T10:56:39Z</time>
      </trkpt>
      <trkpt lat="45.45479" lon="5.95755">
        <ele>766</ele>
        <time>2014-11-11T10:56:47Z</time>
      </trkpt>
      <trkpt lat="45.45464" lon="5.95773">
        <ele>769</ele>
        <time>2014-11-11T10:56:53Z</time>
      </trkpt>
      <trkpt lat="45.45448" lon="5.95791">
        <ele>771</ele>
        <time>2014-11-11T10:56:59Z</time>
      </trkpt>
      <trkpt lat="45.45435" lon="5.95809">
        <ele>773</ele>
        <time>2014-11-11T10:57:04Z</time>
      </trkpt>
      <trkpt lat="45.4543" lon="5.95834">
        <ele>772</ele>
        <time>2014-11-11T10:57:09Z</time>
      </trkpt>
      <trkpt lat="45.45427" lon="5.95864">
        <ele>768</ele>
        <time>2014-11-11T10:57:16Z</time>
      </trkpt>
      <trkpt lat="45.45419" lon="5.95888">
        <ele>768</ele>
        <time>2014-11-11T10:57:22Z</time>
      </trkpt>
      <trkpt lat="45.45411" lon="5.95912">
        <ele>780</ele>
        <time>2014-11-11T10:57:29Z</time>
      </trkpt>
      <trkpt lat="45.45404" lon="5.9594">
        <ele>781</ele>
        <time>2014-11-11T10:57:35Z</time>
      </trkpt>
      <trkpt lat="45.45398" lon="5.95968">
        <ele>780</ele>
        <time>2014-11-11T10:57:41Z</time>
      </trkpt>
      <trkpt lat="45.45389" lon="5.9599">
        <ele>780</ele>
        <time>2014-11-11T10:57:47Z</time>
      </trkpt>
      <trkpt lat="45.45375" lon="5.9601">
        <ele>777</ele>
        <time>2014-11-11T10:57:55Z</time>
      </trkpt>
      <trkpt lat="45.45361" lon="5.9603">
        <ele>779</ele>
        <time>2014-11-11T10:58:04Z</time>
      </trkpt>
      <trkpt lat="45.45355" lon="5.96054">
        <ele>779</ele>
        <time>2014-11-11T10:58:10Z</time>
      </trkpt>
      <trkpt lat="45.45358" lon="5.9608">
        <ele>778</ele>
        <time>2014-11-11T10:58:16Z</time>
      </trkpt>
      <trkpt lat="45.45354" lon="5.96108">
        <ele>772</ele>
        <time>2014-11-11T10:58:23Z</time>
      </trkpt>
      <trkpt lat="45.45349" lon="5.96137">
        <ele>772</ele>
        <time>2014-11-11T10:58:30Z</time>
      </trkpt>
      <trkpt lat="45.45348" lon="5.96164">
        <ele>774</ele>
        <time>2014-11-11T10:58:36Z</time>
      </trkpt>
      <trkpt lat="45.45343" lon="5.96189">
        <ele>768</ele>
        <time>2014-11-11T10:58:42Z</time>
      </trkpt>
      <trkpt lat="45.4534" lon="5.96219">
        <ele>765</ele>
        <time>2014-11-11T10:58:49Z</time>
      </trkpt>
      <trkpt lat="45.45335" lon="5.96244">
        <ele>771</ele>
        <time>2014-11-11T10:58:55Z</time>
      </trkpt>
      <trkpt lat="45.45323" lon="5.96266">
        <ele>777</ele>
        <time>2014-11-11T10:59:03Z</time>
      </trkpt>
      <trkpt lat="45.45307" lon="5.96284">
        <ele>779</ele>
        <time>2014-11-11T10:59:10Z</time>
      </trkpt>
      <trkpt lat="45.45294" lon="5.96302">
        <ele>779</ele>
        <time>2014-11-11T10:59:15Z</time>
      </trkpt>
      <trkpt lat="45.4528" lon="5.96324">
        <ele>781</ele>
        <time>2014-11-11T10:59:21Z</time>
      </trkpt>
      <trkpt lat="45.45271" lon="5.9635">
        <ele>774</ele>
        <time>2014-11-11T10:59:26Z</time>
      </trkpt>
      <trkpt lat="45.45266" lon="5.9638">
        <ele>769</ele>
        <time>2014-11-11T10:59:31Z</time>
      </trkpt>
      <trkpt lat="45.45257" lon="5.96405">
        <ele>768</ele>
        <time>2014-11-11T10:59:36Z</time>
      </trkpt>
      <trkpt lat="45.45244" lon="5.96424">
        <ele>770</ele>
        <time>2014-11-11T10:59:41Z</time>
      </trkpt>
      <trkpt lat="45.4523" lon="5.96441">
        <ele>770</ele>
        <time>2014-11-11T10:59:46Z</time>
      </trkpt>
      <trkpt lat="45.45215" lon="5.96459">
        <ele>770</ele>
        <time>2014-11-11T10:59:51Z</time>
      </trkpt>
      <trkpt lat="45.45199" lon="5.9648">
        <ele>770</ele>
        <time>2014-11-11T10:59:56Z</time>
      </trkpt>
      <trkpt lat="45.45183" lon="5.96495">
        <ele>771</ele>
        <time>2014-11-11T11:00:01Z</time>
      </trkpt>
      <trkpt lat="45.45164" lon="5.96502">
        <ele>770</ele>
        <time>2014-11-11T11:00:07Z</time>
      </trkpt>
      <trkpt lat="45.45144" lon="5.96501">
        <ele>766</ele>
        <time>2014-11-11T11:00:14Z</time>
      </trkpt>
      <trkpt lat="45.45126" lon="5.96491">
        <ele>774</ele>
        <time>2014-11-11T11:00:20Z</time>
      </trkpt>
      <trkpt lat="45.45111" lon="5.96471">
        <ele>775</ele>
        <time>2014-11-11T11:00:27Z</time>
      </trkpt>
      <trkpt lat="45.451" lon="5.96449">
        <ele>777</ele>
        <time>2014-11-11T11:00:35Z</time>
      </trkpt>
      <trkpt lat="45.45092" lon="5.96425">
        <ele>781</ele>
        <time>2014-11-11T11:00:44Z</time>
      </trkpt>
      <trkpt lat="45.45081" lon="5.96401">
        <ele>788</ele>
        <time>2014-11-11T11:00:53Z</time>
      </trkpt>
      <trkpt lat="45.45069" lon="5.96378">
        <ele>792</ele>
        <time>2014-11-11T11:01:02Z</time>
      </trkpt>
      <trkpt lat="45.45057" lon="5.96359">
        <ele>794</ele>
        <time>2014-11-11T11:01:10Z</time>
      </trkpt>
      <trkpt lat="45.45043" lon="5.9634">
        <ele>795</ele>
        <time>2014-11-11T11:01:19Z</time>
      </trkpt>
      <trkpt lat="45.4503" lon="5.96319">
        <ele>804</ele>
        <time>2014-11-11T11:01:28Z</time>
      </trkpt>
      <trkpt lat="45.45016" lon="5.963">
        <ele>806</ele>
        <time>2014-11-11T11:01:36Z</time>
      </trkpt>
      <trkpt lat="45.44999" lon="5.96288">
        <ele>811</ele>
        <time>2014-11-11T11:01:45Z</time>
      </trkpt>
      <trkpt lat="45.44982" lon="5.96299">
        <ele>811</ele>
        <time>2014-11-11T11:01:54Z</time>
      </trkpt>
      <trkpt lat="45.4497" lon="5.96322">
        <ele>811</ele>
        <time>2014-11-11T11:02:05Z</time>
      </trkpt>
      <trkpt lat="45.44955" lon="5.96338">
        <ele>807</ele>
        <time>2014-11-11T11:02:14Z</time>
      </trkpt>
      <trkpt lat="45.44939" lon="5.96352">
        <ele>809</ele>
        <time>2014-11-11T11:02:22Z</time>
      </trkpt>
      <trkpt lat="45.44924" lon="5.96365">
        <ele>809</ele>
        <time>2014-11-11T11:02:31Z</time>
      </trkpt>
      <trkpt lat="45.44922" lon="5.96392">
        <ele>808</ele>
        <time>2014-11-11T11:02:40Z</time>
      </trkpt>
      <trkpt lat="45.44919" lon="5.9642">
        <ele>809</ele>
        <time>2014-11-11T11:02:49Z</time>
      </trkpt>
      <trkpt lat="45.44925" lon="5.96444">
        <ele>804</ele>
        <time>2014-11-11T11:02:57Z</time>
      </trkpt>
      <trkpt lat="45.44934" lon="5.9647">
        <ele>803</ele>
        <time>2014-11-11T11:03:06Z</time>
      </trkpt>
      <trkpt lat="45.44934" lon="5.96498">
        <ele>805</ele>
        <time>2014-11-11T11:03:16Z</time>
      </trkpt>
      <trkpt lat="45.44927" lon="5.96523">
        <ele>801</ele>
        <time>2014-11-11T11:03:24Z</time>
      </trkpt>
      <trkpt lat="45.44918" lon="5.96547">
        <ele>799</ele>
        <time>2014-11-11T11:03:32Z</time>
      </trkpt>
      <trkpt lat="45.44905" lon="5.96565">
        <ele>812</ele>
        <time>2014-11-11T11:03:40Z</time>
      </trkpt>
      <trkpt lat="45.44891" lon="5.96582">
        <ele>813</ele>
        <time>2014-11-11T11:03:49Z</time>
      </trkpt>
      <trkpt lat="45.44876" lon="5.96599">
        <ele>813</ele>
        <time>2014-11-11T11:03:59Z</time>
      </trkpt>
      <trkpt lat="45.44861" lon="5.96613">
        <ele>815</ele>
        <time>2014-11-11T11:04:08Z</time>
      </trkpt>
      <trkpt lat="45.44845" lon="5.96629">
        <ele>815</ele>
        <time>2014-11-11T11:04:17Z</time>
      </trkpt>
      <trkpt lat="45.44831" lon="5.96645">
        <ele>823</ele>
        <time>2014-11-11T11:04:26Z</time>
      </trkpt>
      <trkpt lat="45.44816" lon="5.96661">
        <ele>823</ele>
        <time>2014-11-11T11:04:35Z</time>
      </trkpt>
      <trkpt lat="45.44798" lon="5.96668">
        <ele>824</ele>
        <time>2014-11-11T11:04:44Z</time>
      </trkpt>
      <trkpt lat="45.44779" lon="5.96659">
        <ele>827</ele>
        <time>2014-11-11T11:04:54Z</time>
      </trkpt>
      <trkpt lat="45.44761" lon="5.96648">
        <ele>829</ele>
        <time>2014-11-11T11:05:04Z</time>
      </trkpt>
      <trkpt lat="45.44743" lon="5.96645">
        <ele>835</ele>
        <time>2014-11-11T11:05:14Z</time>
      </trkpt>
      <trkpt lat="45.44725" lon="5.96643">
        <ele>836</ele>
        <time>2014-11-11T11:05:23Z</time>
      </trkpt>
      <trkpt lat="45.44706" lon="5.96642">
        <ele>837</ele>
        <time>2014-11-11T11:05:32Z</time>
      </trkpt>
      <trkpt lat="45.44687" lon="5.9664">
        <ele>839</ele>
        <time>2014-11-11T11:05:41Z</time>
      </trkpt>
      <trkpt lat="45.44668" lon="5.96635">
        <ele>839</ele>
        <time>2014-11-11T11:05:49Z</time>
      </trkpt>
      <trkpt lat="45.44651" lon="5.96623">
        <ele>844</ele>
        <time>2014-11-11T11:05:58Z</time>
      </trkpt>
      <trkpt lat="45.44636" lon="5.96606">
        <ele>844</ele>
        <time>2014-11-11T11:06:07Z</time>
      </trkpt>
      <trkpt lat="45.44621" lon="5.96589">
        <ele>844</ele>
        <time>2014-11-11T11:06:16Z</time>
      </trkpt>
      <trkpt lat="45.44607" lon="5.96573">
        <ele>846</ele>
        <time>2014-11-11T11:06:25Z</time>
      </trkpt>
      <trkpt lat="45.44591" lon="5.96559">
        <ele>847</ele>
        <time>2014-11-11T11:06:34Z</time>
      </trkpt>
      <trkpt lat="45.44573" lon="5.96547">
        <ele>849</ele>
        <time>2014-11-11T11:06:43Z</time>
      </trkpt>
      <trkpt lat="45.44555" lon="5.96538">
        <ele>850</ele>
        <time>2014-11-11T11:06:52Z</time>
      </trkpt>
      <trkpt lat="45.44537" lon="5.96527">
        <ele>850</ele>
        <time>2014-11-11T11:07:02Z</time>
      </trkpt>
      <trkpt lat="45.4452" lon="5.96518">
        <ele>851</ele>
        <time>2014-11-11T11:07:12Z</time>
      </trkpt>
      <trkpt lat="45.44502" lon="5.96509">
        <ele>851</ele>
        <time>2014-11-11T11:07:22Z</time>
      </trkpt>
      <trkpt lat="45.44486" lon="5.96497">
        <ele>851</ele>
        <time>2014-11-11T11:07:31Z</time>
      </trkpt>
      <trkpt lat="45.44473" lon="5.96478">
        <ele>851</ele>
        <time>2014-11-11T11:07:39Z</time>
      </trkpt>
      <trkpt lat="45.44467" lon="5.9645">
        <ele>852</ele>
        <time>2014-11-11T11:07:47Z</time>
      </trkpt>
      <trkpt lat="45.44464" lon="5.96422">
        <ele>853</ele>
        <time>2014-11-11T11:07:55Z</time>
      </trkpt>
      <trkpt lat="45.44456" lon="5.96396">
        <ele>859</ele>
        <time>2014-11-11T11:08:03Z</time>
      </trkpt>
      <trkpt lat="45.44441" lon="5.96377">
        <ele>859</ele>
        <time>2014-11-11T11:08:08Z</time>
      </trkpt>
      <trkpt lat="45.44429" lon="5.96356">
        <ele>859</ele>
        <time>2014-11-11T11:08:14Z</time>
      </trkpt>
      <trkpt lat="45.44416" lon="5.96337">
        <ele>856</ele>
        <time>2014-11-11T11:08:19Z</time>
      </trkpt>
      <trkpt lat="45.44403" lon="5.96318">
        <ele>855</ele>
        <time>2014-11-11T11:08:24Z</time>
      </trkpt>
      <trkpt lat="45.44389" lon="5.96298">
        <ele>854</ele>
        <time>2014-11-11T11:08:29Z</time>
      </trkpt>
      <trkpt lat="45.44374" lon="5.96278">
        <ele>854</ele>
        <time>2014-11-11T11:08:33Z</time>
      </trkpt>
      <trkpt lat="45.44361" lon="5.96257">
        <ele>853</ele>
        <time>2014-11-11T11:08:36Z</time>
      </trkpt>
      <trkpt lat="45.44348" lon="5.96234">
        <ele>858</ele>
        <time>2014-11-11T11:08:39Z</time>
      </trkpt>
      <trkpt lat="45.4434" lon="5.96204">
        <ele>860</ele>
        <time>2014-11-11T11:08:42Z</time>
      </trkpt>
      <trkpt lat="45.44337" lon="5.9617">
        <ele>857</ele>
        <time>2014-11-11T11:08:45Z</time>
      </trkpt>
      <trkpt lat="45.44329" lon="5.96138">
        <ele>854</ele>
        <time>2014-11-11T11:08:48Z</time>
      </trkpt>
      <trkpt lat="45.4431" lon="5.96116">
        <ele>855</ele>
        <time>2014-11-11T11:08:51Z</time>
      </trkpt>
      <trkpt lat="45.44293" lon="5.96098">
        <ele>854</ele>
        <time>2014-11-11T11:08:54Z</time>
      </trkpt>
      <trkpt lat="45.44278" lon="5.96082">
        <ele>863</ele>
        <time>2014-11-11T11:08:57Z</time>
      </trkpt>
      <trkpt lat="45.44262" lon="5.96062">
        <ele>862</ele>
        <time>2014-11-11T11:09:01Z</time>
      </trkpt>
      <trkpt lat="45.4425" lon="5.96039">
        <ele>849</ele>
        <time>2014-11-11T11:09:05Z</time>
      </trkpt>
      <trkpt lat="45.44234" lon="5.96019">
        <ele>851</ele>
        <time>2014-11-11T11:09:10Z</time>
      </trkpt>
      <trkpt lat="45.44217" lon="5.96006">
        <ele>849</ele>
        <time>2014-11-11T11:09:15Z</time>
      </trkpt>
      <trkpt lat="45.44198" lon="5.95992">
        <ele>856</ele>
        <time>2014-11-11T11:09:21Z</time>
      </trkpt>
      <trkpt lat="45.44182" lon="5.95975">
        <ele>855</ele>
        <time>2014-11-11T11:09:27Z</time>
      </trkpt>
      <trkpt lat="45.44171" lon="5.95953">
        <ele>858</ele>
        <time>2014-11-11T11:09:33Z</time>
      </trkpt>
      <trkpt lat="45.44169" lon="5.95926">
        <ele>858</ele>
        <time>2014-11-11T11:09:39Z</time>
      </trkpt>
      <trkpt lat="45.44158" lon="5.95903">
        <ele>857</ele>
        <time>2014-11-11T11:09:44Z</time>
      </trkpt>
      <trkpt lat="45.44147" lon="5.95879">
        <ele>858</ele>
        <time>2014-11-11T11:09:49Z</time>
      </trkpt>
      <trkpt lat="45.44137" lon="5.95855">
        <ele>860</ele>
        <time>2014-11-11T11:09:54Z</time>
      </trkpt>
      <trkpt lat="45.4412" lon="5.95844">
        <ele>859</ele>
        <time>2014-11-11T11:09:59Z</time>
      </trkpt>
      <trkpt lat="45.44102" lon="5.95841">
        <ele>858</ele>
        <time>2014-11-11T11:10:03Z</time>
      </trkpt>
      <trkpt lat="45.44079" lon="5.95837">
        <ele>858</ele>
        <time>2014-11-11T11:10:07Z</time>
      </trkpt>
      <trkpt lat="45.44061" lon="5.95826">
        <ele>864</ele>
        <time>2014-11-11T11:10:12Z</time>
      </trkpt>
      <trkpt lat="45.44047" lon="5.95808">
        <ele>865</ele>
        <time>2014-11-11T11:10:17Z</time>
      </trkpt>
      <trkpt lat="45.44034" lon="5.95786">
        <ele>867</ele>
        <time>2014-11-11T11:10:23Z</time>
      </trkpt>
      <trkpt lat="45.44022" lon="5.95766">
        <ele>869</ele>
        <time>2014-11-11T11:10:30Z</time>
      </trkpt>
      <trkpt lat="45.44003" lon="5.95757">
        <ele>870</ele>
        <time>2014-11-11T11:10:40Z</time>
      </trkpt>
      <trkpt lat="45.43984" lon="5.95769">
        <ele>877</ele>
        <time>2014-11-11T11:10:48Z</time>
      </trkpt>
      <trkpt lat="45.43969" lon="5.95786">
        <ele>880</ele>
        <time>2014-11-11T11:10:57Z</time>
      </trkpt>
      <trkpt lat="45.43964" lon="5.95812">
        <ele>879</ele>
        <time>2014-11-11T11:11:06Z</time>
      </trkpt>
      <trkpt lat="45.43959" lon="5.95838">
        <ele>874</ele>
        <time>2014-11-11T11:11:16Z</time>
      </trkpt>
      <trkpt lat="45.43953" lon="5.95865">
        <ele>874</ele>
        <time>2014-11-11T11:11:27Z</time>
      </trkpt>
      <trkpt lat="45.43944" lon="5.95891">
        <ele>874</ele>
        <time>2014-11-11T11:11:37Z</time>
      </trkpt>
      <trkpt lat="45.43935" lon="5.95916">
        <ele>877</ele>
        <time>2014-11-11T11:11:46Z</time>
      </trkpt>
      <trkpt lat="45.43925" lon="5.95937">
        <ele>870</ele>
        <time>2014-11-11T11:11:54Z</time>
      </trkpt>
      <trkpt lat="45.43913" lon="5.95958">
        <ele>886</ele>
        <time>2014-11-11T11:12:02Z</time>
      </trkpt>
      <trkpt lat="45.43902" lon="5.95981">
        <ele>882</ele>
        <time>2014-11-11T11:12:10Z</time>
      </trkpt>
      <trkpt lat="45.43886" lon="5.95994">
        <ele>884</ele>
        <time>2014-11-11T11:12:17Z</time>
      </trkpt>
      <trkpt lat="45.43867" lon="5.96007">
        <ele>874</ele>
        <time>2014-11-11T11:12:24Z</time>
      </trkpt>
      <trkpt lat="45.43848" lon="5.96013">
        <ele>878</ele>
        <time>2014-11-11T11:12:32Z</time>
      </trkpt>
      <trkpt lat="45.43831" lon="5.96021">
        <ele>889</ele>
        <time>2014-11-11T11:12:39Z</time>
      </trkpt>
      <trkpt lat="45.43814" lon="5.9603">
        <ele>888</ele>
        <time>2014-11-11T11:12:45Z</time>
      </trkpt>
      <trkpt lat="45.43796" lon="5.9604">
        <ele>889</ele>
        <time>2014-11-11T11:12:53Z</time>
      </trkpt>
      <trkpt lat="45.43777" lon="5.96046">
        <ele>890</ele>
        <time>2014-11-11T11:13:03Z</time>
      </trkpt>
      <trkpt lat="45.43759" lon="5.9605">
        <ele>891</ele>
        <time>2014-11-11T11:13:11Z</time>
      </trkpt>
      <trkpt lat="45.4374" lon="5.96058">
        <ele>902</ele>
        <time>2014-11-11T11:13:20Z</time>
      </trkpt>
      <trkpt lat="45.43721" lon="5.96054">
        <ele>905</ele>
        <time>2014-11-11T11:13:28Z</time>
      </trkpt>
      <trkpt lat="45.43702" lon="5.96048">
        <ele>908</ele>
        <time>2014-11-11T11:13:36Z</time>
      </trkpt>
      <trkpt lat="45.437" lon="5.96075">
        <ele>907</ele>
        <time>2014-11-11T11:13:46Z</time>
      </trkpt>
      <trkpt lat="45.43709" lon="5.96097">
        <ele>904</ele>
        <time>2014-11-11T11:13:54Z</time>
      </trkpt>
      <trkpt lat="45.43723" lon="5.96117">
        <ele>903</ele>
        <time>2014-11-11T11:14:02Z</time>
      </trkpt>
      <trkpt lat="45.43737" lon="5.96138">
        <ele>902</ele>
        <time>2014-11-11T11:14:10Z</time>
      </trkpt>
      <trkpt lat="45.43748" lon="5.96161">
        <ele>898</ele>
        <time>2014-11-11T11:14:18Z</time>
      </trkpt>
      <trkpt lat="45.4376" lon="5.96181">
        <ele>893</ele>
        <time>2014-11-11T11:14:27Z</time>
      </trkpt>
      <trkpt lat="45.43772" lon="5.96201">
        <ele>893</ele>
        <time>2014-11-11T11:14:36Z</time>
      </trkpt>
      <trkpt lat="45.43782" lon="5.96225">
        <ele>894</ele>
        <time>2014-11-11T11:14:45Z</time>
      </trkpt>
      <trkpt lat="45.43792" lon="5.96249">
        <ele>893</ele>
        <time>2014-11-11T11:14:54Z</time>
      </trkpt>
      <trkpt lat="45.43802" lon="5.96273">
        <ele>898</ele>
        <time>2014-11-11T11:15:04Z</time>
      </trkpt>
      <trkpt lat="45.43813" lon="5.96296">
        <ele>898</ele>
        <time>2014-11-11T11:15:14Z</time>
      </trkpt>
      <trkpt lat="45.43815" lon="5.96323">
        <ele>898</ele>
        <time>2014-11-11T11:15:25Z</time>
      </trkpt>
      <trkpt lat="45.43796" lon="5.96319">
        <ele>900</ele>
        <time>2014-11-11T11:15:35Z</time>
      </trkpt>
      <trkpt lat="45.4378" lon="5.96306">
        <ele>901</ele>
        <time>2014-11-11T11:15:45Z</time>
      </trkpt>
      <trkpt lat="45.43762" lon="5.96301">
        <ele>902</ele>
        <time>2014-11-11T11:15:58Z</time>
      </trkpt>
      <trkpt lat="45.43744" lon="5.96302">
        <ele>911</ele>
        <time>2014-11-11T11:16:09Z</time>
      </trkpt>
      <trkpt lat="45.43724" lon="5.96301">
        <ele>912</ele>
        <time>2014-11-11T11:16:17Z</time>
      </trkpt>
      <trkpt lat="45.43706" lon="5.96302">
        <ele>913</ele>
        <time>2014-11-11T11:16:25Z</time>
      </trkpt>
      <trkpt lat="45.43688" lon="5.96298">
        <ele>914</ele>
        <time>2014-11-11T11:16:36Z</time>
      </trkpt>
      <trkpt lat="45.4367" lon="5.96295">
        <ele>915</ele>
        <time>2014-11-11T11:16:47Z</time>
      </trkpt>
      <trkpt lat="45.43652" lon="5.9629">
        <ele>921</ele>
        <time>2014-11-11T11:16:58Z</time>
      </trkpt>
      <trkpt lat="45.43634" lon="5.96286">
        <ele>922</ele>
        <time>2014-11-11T11:17:09Z</time>
      </trkpt>
      <trkpt lat="45.43615" lon="5.9628">
        <ele>923</ele>
        <time>2014-11-11T11:17:21Z</time>
      </trkpt>
      <trkpt lat="45.43597" lon="5.96273">
        <ele>925</ele>
        <time>2014-11-11T11:17:33Z</time>
      </trkpt>
      <trkpt lat="45.43579" lon="5.96267">
        <ele>928</ele>
        <time>2014-11-11T11:17:45Z</time>
      </trkpt>
      <trkpt lat="45.43562" lon="5.96258">
        <ele>928</ele>
        <time>2014-11-11T11:17:57Z</time>
      </trkpt>
      <trkpt lat="45.43545" lon="5.96249">
        <ele>939</ele>
        <time>2014-11-11T11:18:09Z</time>
      </trkpt>
      <trkpt lat="45.43526" lon="5.96245">
        <ele>940</ele>
        <time>2014-11-11T11:18:21Z</time>
      </trkpt>
      <trkpt lat="45.43508" lon="5.96241">
        <ele>939</ele>
        <time>2014-11-11T11:18:32Z</time>
      </trkpt>
      <trkpt lat="45.43488" lon="5.96237">
        <ele>940</ele>
        <time>2014-11-11T11:18:44Z</time>
      </trkpt>
      <trkpt lat="45.4347" lon="5.96231">
        <ele>941</ele>
        <time>2014-11-11T11:18:54Z</time>
      </trkpt>
      <trkpt lat="45.43455" lon="5.96217">
        <ele>942</ele>
        <time>2014-11-11T11:19:04Z</time>
      </trkpt>
      <trkpt lat="45.43439" lon="5.962">
        <ele>943</ele>
        <time>2014-11-11T11:19:16Z</time>
      </trkpt>
      <trkpt lat="45.43423" lon="5.96188">
        <ele>944</ele>
        <time>2014-11-11T11:19:26Z</time>
      </trkpt>
      <trkpt lat="45.43403" lon="5.96184">
        <ele>944</ele>
        <time>2014-11-11T11:19:56Z</time>
      </trkpt>
      <trkpt lat="45.43384" lon="5.96177">
        <ele>944</ele>
        <time>2014-11-11T11:20:05Z</time>
      </trkpt>
      <trkpt lat="45.43366" lon="5.9617">
        <ele>945</ele>
        <time>2014-11-11T11:20:14Z</time>
      </trkpt>
      <trkpt lat="45.43347" lon="5.96166">
        <ele>950</ele>
        <time>2014-11-11T11:20:24Z</time>
      </trkpt>
      <trkpt lat="45.43328" lon="5.96161">
        <ele>950</ele>
        <time>2014-11-11T11:20:34Z</time>
      </trkpt>
      <trkpt lat="45.43309" lon="5.96154">
        <ele>952</ele>
        <time>2014-11-11T11:20:43Z</time>
      </trkpt>
      <trkpt lat="45.4329" lon="5.96145">
        <ele>954</ele>
        <time>2014-11-11T11:20:51Z</time>
      </trkpt>
      <trkpt lat="45.4327" lon="5.96139">
        <ele>954</ele>
        <time>2014-11-11T11:20:58Z</time>
      </trkpt>
      <trkpt lat="45.43252" lon="5.96131">
        <ele>954</ele>
        <time>2014-11-11T11:21:04Z</time>
      </trkpt>
      <trkpt lat="45.43233" lon="5.96123">
        <ele>958</ele>
        <time>2014-11-11T11:21:10Z</time>
      </trkpt>
      <trkpt lat="45.43214" lon="5.96116">
        <ele>958</ele>
        <time>2014-11-11T11:21:17Z</time>
      </trkpt>
      <trkpt lat="45.43195" lon="5.96111">
        <ele>959</ele>
        <time>2014-11-11T11:21:24Z</time>
      </trkpt>
      <trkpt lat="45.43175" lon="5.96104">
        <ele>960</ele>
        <time>2014-11-11T11:21:31Z</time>
      </trkpt>
      <trkpt lat="45.43155" lon="5.961">
        <ele>963</ele>
        <time>2014-11-11T11:21:38Z</time>
      </trkpt>
      <trkpt lat="45.43135" lon="5.96096">
        <ele>963</ele>
        <time>2014-11-11T11:21:45Z</time>
      </trkpt>
      <trkpt lat="45.43115" lon="5.96092">
        <ele>964</ele>
        <time>2014-11-11T11:21:52Z</time>
      </trkpt>
      <trkpt lat="45.43095" lon="5.9609">
        <ele>964</ele>
        <time>2014-11-11T11:21:59Z</time>
      </trkpt>
      <trkpt lat="45.43077" lon="5.96087">
        <ele>965</ele>
        <time>2014-11-11T11:22:06Z</time>
      </trkpt>
      <trkpt lat="45.43058" lon="5.96085">
        <ele>966</ele>
        <time>2014-11-11T11:22:14Z</time>
      </trkpt>
      <trkpt lat="45.43038" lon="5.9608">
        <ele>969</ele>
        <time>2014-11-11T11:22:24Z</time>
      </trkpt>
      <trkpt lat="45.4302" lon="5.96076">
        <ele>969</ele>
        <time>2014-11-11T11:22:32Z</time>
      </trkpt>
      <trkpt lat="45.43002" lon="5.96073">
        <ele>968</ele>
        <time>2014-11-11T11:22:40Z</time>
      </trkpt>
      <trkpt lat="45.42982" lon="5.96066">
        <ele>971</ele>
        <time>2014-11-11T11:22:49Z</time>
      </trkpt>
      <trkpt lat="45.42963" lon="5.96059">
        <ele>973</ele>
        <time>2014-11-11T11:22:58Z</time>
      </trkpt>
      <trkpt lat="45.42944" lon="5.96049">
        <ele>974</ele>
        <time>2014-11-11T11:23:07Z</time>
      </trkpt>
      <trkpt lat="45.42926" lon="5.9604">
        <ele>974</ele>
        <time>2014-11-11T11:23:15Z</time>
      </trkpt>
      <trkpt lat="45.42908" lon="5.9603">
        <ele>976</ele>
        <time>2014-11-11T11:23:23Z</time>
      </trkpt>
      <trkpt lat="45.42891" lon="5.96024">
        <ele>976</ele>
        <time>2014-11-11T11:23:30Z</time>
      </trkpt>
      <trkpt lat="45.42871" lon="5.96016">
        <ele>976</ele>
        <time>2014-11-11T11:23:37Z</time>
      </trkpt>
      <trkpt lat="45.42852" lon="5.96009">
        <ele>976</ele>
        <time>2014-11-11T11:23:43Z</time>
      </trkpt>
      <trkpt lat="45.42833" lon="5.96002">
        <ele>976</ele>
        <time>2014-11-11T11:23:50Z</time>
      </trkpt>
      <trkpt lat="45.42814" lon="5.95995">
        <ele>977</ele>
        <time>2014-11-11T11:23:58Z</time>
      </trkpt>
      <trkpt lat="45.42794" lon="5.95989">
        <ele>977</ele>
        <time>2014-11-11T11:24:05Z</time>
      </trkpt>
      <trkpt lat="45.42775" lon="5.95985">
        <ele>977</ele>
        <time>2014-11-11T11:24:10Z</time>
      </trkpt>
      <trkpt lat="45.42756" lon="5.95984">
        <ele>975</ele>
        <time>2014-11-11T11:24:14Z</time>
      </trkpt>
      <trkpt lat="45.42738" lon="5.95981">
        <ele>974</ele>
        <time>2014-11-11T11:24:18Z</time>
      </trkpt>
      <trkpt lat="45.4272" lon="5.9598">
        <ele>974</ele>
        <time>2014-11-11T11:24:22Z</time>
      </trkpt>
      <trkpt lat="45.42701" lon="5.95981">
        <ele>973</ele>
        <time>2014-11-11T11:24:26Z</time>
      </trkpt>
      <trkpt lat="45.42682" lon="5.95986">
        <ele>972</ele>
        <time>2014-11-11T11:24:31Z</time>
      </trkpt>
      <trkpt lat="45.42662" lon="5.95992">
        <ele>971</ele>
        <time>2014-11-11T11:24:37Z</time>
      </trkpt>
      <trkpt lat="45.42643" lon="5.95998">
        <ele>971</ele>
        <time>2014-11-11T11:24:43Z</time>
      </trkpt>
      <trkpt lat="45.42623" lon="5.96003">
        <ele>969</ele>
        <time>2014-11-11T11:24:49Z</time>
      </trkpt>
      <trkpt lat="45.42602" lon="5.9601">
        <ele>969</ele>
        <time>2014-11-11T11:24:55Z</time>
      </trkpt>
      <trkpt lat="45.42582" lon="5.96015">
        <ele>967</ele>
        <time>2014-11-11T11:25:01Z</time>
      </trkpt>
      <trkpt lat="45.42562" lon="5.96021">
        <ele>966</ele>
        <time>2014-11-11T11:25:07Z</time>
      </trkpt>
      <trkpt lat="45.42545" lon="5.96027">
        <ele>965</ele>
        <time>2014-11-11T11:25:12Z</time>
      </trkpt>
      <trkpt lat="45.42526" lon="5.96033">
        <ele>964</ele>
        <time>2014-11-11T11:25:17Z</time>
      </trkpt>
      <trkpt lat="45.42505" lon="5.96037">
        <ele>964</ele>
        <time>2014-11-11T11:25:22Z</time>
      </trkpt>
      <trkpt lat="45.42487" lon="5.96043">
        <ele>961</ele>
        <time>2014-11-11T11:25:45Z</time>
      </trkpt>
      <trkpt lat="45.42467" lon="5.96048">
        <ele>961</ele>
        <time>2014-11-11T11:25:50Z</time>
      </trkpt>
      <trkpt lat="45.42445" lon="5.96053">
        <ele>960</ele>
        <time>2014-11-11T11:25:54Z</time>
      </trkpt>
      <trkpt lat="45.42422" lon="5.96064">
        <ele>959</ele>
        <time>2014-11-11T11:25:58Z</time>
      </trkpt>
      <trkpt lat="45.42401" lon="5.96075">
        <ele>959</ele>
        <time>2014-11-11T11:26:02Z</time>
      </trkpt>
      <trkpt lat="45.4238" lon="5.96087">
        <ele>954</ele>
        <time>2014-11-11T11:26:06Z</time>
      </trkpt>
      <trkpt lat="45.42359" lon="5.96095">
        <ele>954</ele>
        <time>2014-11-11T11:26:10Z</time>
      </trkpt>
      <trkpt lat="45.42339" lon="5.96096">
        <ele>955</ele>
        <time>2014-11-11T11:26:14Z</time>
      </trkpt>
      <trkpt lat="45.42317" lon="5.96094">
        <ele>953</ele>
        <time>2014-11-11T11:26:18Z</time>
      </trkpt>
      <trkpt lat="45.42299" lon="5.96091">
        <ele>952</ele>
        <time>2014-11-11T11:26:21Z</time>
      </trkpt>
      <trkpt lat="45.4228" lon="5.96089">
        <ele>952</ele>
        <time>2014-11-11T11:26:24Z</time>
      </trkpt>
      <trkpt lat="45.4226" lon="5.96085">
        <ele>952</ele>
        <time>2014-11-11T11:26:27Z</time>
      </trkpt>
      <trkpt lat="45.4224" lon="5.96083">
        <ele>952</ele>
        <time>2014-11-11T11:26:30Z</time>
      </trkpt>
      <trkpt lat="45.4222" lon="5.9608">
        <ele>950</ele>
        <time>2014-11-11T11:26:33Z</time>
      </trkpt>
      <trkpt lat="45.42202" lon="5.96077">
        <ele>947</ele>
        <time>2014-11-11T11:26:36Z</time>
      </trkpt>
      <trkpt lat="45.42182" lon="5.96062">
        <ele>945</ele>
        <time>2014-11-11T11:26:40Z</time>
      </trkpt>
      <trkpt lat="45.42169" lon="5.96036">
        <ele>947</ele>
        <time>2014-11-11T11:26:44Z</time>
      </trkpt>
      <trkpt lat="45.42166" lon="5.96004">
        <ele>941</ele>
        <time>2014-11-11T11:26:48Z</time>
      </trkpt>
      <trkpt lat="45.42167" lon="5.95974">
        <ele>941</ele>
        <time>2014-11-11T11:26:51Z</time>
      </trkpt>
      <trkpt lat="45.42165" lon="5.95941">
        <ele>943</ele>
        <time>2014-11-11T11:26:54Z</time>
      </trkpt>
      <trkpt lat="45.42161" lon="5.95906">
        <ele>949</ele>
        <time>2014-11-11T11:26:57Z</time>
      </trkpt>
      <trkpt lat="45.42149" lon="5.95876">
        <ele>952</ele>
        <time>2014-11-11T11:27:00Z</time>
      </trkpt>
      <trkpt lat="45.42128" lon="5.95874">
        <ele>952</ele>
        <time>2014-11-11T11:27:03Z</time>
      </trkpt>
      <trkpt lat="45.42113" lon="5.95894">
        <ele>949</ele>
        <time>2014-11-11T11:27:06Z</time>
      </trkpt>
      <trkpt lat="45.42106" lon="5.95919">
        <ele>940</ele>
        <time>2014-11-11T11:27:09Z</time>
      </trkpt>
      <trkpt lat="45.42099" lon="5.95946">
        <ele>939</ele>
        <time>2014-11-11T11:27:13Z</time>
      </trkpt>
      <trkpt lat="45.42088" lon="5.95966">
        <ele>937</ele>
        <time>2014-11-11T11:27:17Z</time>
      </trkpt>
      <trkpt lat="45.42067" lon="5.95973">
        <ele>933</ele>
        <time>2014-11-11T11:27:22Z</time>
      </trkpt>
      <trkpt lat="45.42048" lon="5.95961">
        <ele>934</ele>
        <time>2014-11-11T11:27:27Z</time>
      </trkpt>
      <trkpt lat="45.42032" lon="5.95947">
        <ele>935</ele>
        <time>2014-11-11T11:27:33Z</time>
      </trkpt>
      <trkpt lat="45.42015" lon="5.95931">
        <ele>937</ele>
        <time>2014-11-11T11:27:40Z</time>
      </trkpt>
      <trkpt lat="45.41999" lon="5.95915">
        <ele>942</ele>
        <time>2014-11-11T11:27:47Z</time>
      </trkpt>
      <trkpt lat="45.41984" lon="5.95898">
        <ele>943</ele>
        <time>2014-11-11T11:27:54Z</time>
      </trkpt>
      <trkpt lat="45.41963" lon="5.95891">
        <ele>943</ele>
        <time>2014-11-11T11:28:01Z</time>
      </trkpt>
      <trkpt lat="45.41946" lon="5.95878">
        <ele>943</ele>
        <time>2014-11-11T11:28:07Z</time>
      </trkpt>
      <trkpt lat="45.41933" lon="5.95856">
        <ele>944</ele>
        <time>2014-11-11T11:28:13Z</time>
      </trkpt>
      <trkpt lat="45.41924" lon="5.95829">
        <ele>947</ele>
        <time>2014-11-11T11:28:20Z</time>
      </trkpt>
      <trkpt lat="45.41912" lon="5.95808">
        <ele>942</ele>
        <time>2014-11-11T11:28:26Z</time>
      </trkpt>
      <trkpt lat="45.41896" lon="5.9579">
        <ele>942</ele>
        <time>2014-11-11T11:28:32Z</time>
      </trkpt>
      <trkpt lat="45.41883" lon="5.9577">
        <ele>942</ele>
        <time>2014-11-11T11:28:37Z</time>
      </trkpt>
      <trkpt lat="45.41869" lon="5.95745">
        <ele>947</ele>
        <time>2014-11-11T11:28:41Z</time>
      </trkpt>
      <trkpt lat="45.41863" lon="5.95716">
        <ele>948</ele>
        <time>2014-11-11T11:28:45Z</time>
      </trkpt>
      <trkpt lat="45.41858" lon="5.95687">
        <ele>948</ele>
        <time>2014-11-11T11:28:48Z</time>
      </trkpt>
      <trkpt lat="45.4184" lon="5.95674">
        <ele>945</ele>
        <time>2014-11-11T11:28:51Z</time>
      </trkpt>
      <trkpt lat="45.41818" lon="5.95666">
        <ele>946</ele>
        <time>2014-11-11T11:28:55Z</time>
      </trkpt>
      <trkpt lat="45.418" lon="5.95649">
        <ele>947</ele>
        <time>2014-11-11T11:29:00Z</time>
      </trkpt>
      <trkpt lat="45.41788" lon="5.95629">
        <ele>948</ele>
        <time>2014-11-11T11:29:05Z</time>
      </trkpt>
      <trkpt lat="45.41775" lon="5.9561">
        <ele>948</ele>
        <time>2014-11-11T11:29:11Z</time>
      </trkpt>
      <trkpt lat="45.41759" lon="5.9559">
        <ele>948</ele>
        <time>2014-11-11T11:29:17Z</time>
      </trkpt>
      <trkpt lat="45.41745" lon="5.95574">
        <ele>949</ele>
        <time>2014-11-11T11:29:22Z</time>
      </trkpt>
      <trkpt lat="45.41731" lon="5.95557">
        <ele>950</ele>
        <time>2014-11-11T11:29:27Z</time>
      </trkpt>
      <trkpt lat="45.41717" lon="5.9554">
        <ele>951</ele>
        <time>2014-11-11T11:29:32Z</time>
      </trkpt>
      <trkpt lat="45.41701" lon="5.95523">
        <ele>951</ele>
        <time>2014-11-11T11:29:37Z</time>
      </trkpt>
      <trkpt lat="45.41685" lon="5.95505">
        <ele>950</ele>
        <time>2014-11-11T11:29:42Z</time>
      </trkpt>
      <trkpt lat="45.4167" lon="5.95486">
        <ele>952</ele>
        <time>2014-11-11T11:29:47Z</time>
      </trkpt>
      <trkpt lat="45.41657" lon="5.95463">
        <ele>949</ele>
        <time>2014-11-11T11:29:52Z</time>
      </trkpt>
      <trkpt lat="45.41647" lon="5.9544">
        <ele>948</ele>
        <time>2014-11-11T11:29:57Z</time>
      </trkpt>
      <trkpt lat="45.41638" lon="5.95412">
        <ele>951</ele>
        <time>2014-11-11T11:30:03Z</time>
      </trkpt>
      <trkpt lat="45.41627" lon="5.95391">
        <ele>952</ele>
        <time>2014-11-11T11:30:08Z</time>
      </trkpt>
      <trkpt lat="45.4161" lon="5.95372">
        <ele>952</ele>
        <time>2014-11-11T11:30:13Z</time>
      </trkpt>
      <trkpt lat="45.41593" lon="5.95358">
        <ele>952</ele>
        <time>2014-11-11T11:30:17Z</time>
      </trkpt>
      <trkpt lat="45.41576" lon="5.95345">
        <ele>948</ele>
        <time>2014-11-11T11:30:21Z</time>
      </trkpt>
      <trkpt lat="45.41557" lon="5.95333">
        <ele>950</ele>
        <time>2014-11-11T11:30:25Z</time>
      </trkpt>
      <trkpt lat="45.41538" lon="5.95319">
        <ele>949</ele>
        <time>2014-11-11T11:30:29Z</time>
      </trkpt>
      <trkpt lat="45.41518" lon="5.95303">
        <ele>947</ele>
        <time>2014-11-11T11:30:33Z</time>
      </trkpt>
      <trkpt lat="45.41503" lon="5.95287">
        <ele>947</ele>
        <time>2014-11-11T11:30:36Z</time>
      </trkpt>
      <trkpt lat="45.41489" lon="5.95269">
        <ele>940</ele>
        <time>2014-11-11T11:30:39Z</time>
      </trkpt>
      <trkpt lat="45.41479" lon="5.95244">
        <ele>944</ele>
        <time>2014-11-11T11:30:42Z</time>
      </trkpt>
      <trkpt lat="45.41466" lon="5.95222">
        <ele>945</ele>
        <time>2014-11-11T11:30:45Z</time>
      </trkpt>
      <trkpt lat="45.41444" lon="5.95205">
        <ele>945</ele>
        <time>2014-11-11T11:30:49Z</time>
      </trkpt>
      <trkpt lat="45.41434" lon="5.95182">
        <ele>947</ele>
        <time>2014-11-11T11:30:52Z</time>
      </trkpt>
      <trkpt lat="45.41414" lon="5.9517">
        <ele>947</ele>
        <time>2014-11-11T11:30:55Z</time>
      </trkpt>
      <trkpt lat="45.41393" lon="5.95177">
        <ele>940</ele>
        <time>2014-11-11T11:30:58Z</time>
      </trkpt>
      <trkpt lat="45.41373" lon="5.95178">
        <ele>938</ele>
        <time>2014-11-11T11:31:01Z</time>
      </trkpt>
      <trkpt lat="45.41354" lon="5.95171">
        <ele>937</ele>
        <time>2014-11-11T11:31:04Z</time>
      </trkpt>
      <trkpt lat="45.41335" lon="5.95162">
        <ele>940</ele>
        <time>2014-11-11T11:31:07Z</time>
      </trkpt>
      <trkpt lat="45.41317" lon="5.95155">
        <ele>938</ele>
        <time>2014-11-11T11:31:10Z</time>
      </trkpt>
      <trkpt lat="45.41296" lon="5.95148">
        <ele>936</ele>
        <time>2014-11-11T11:31:14Z</time>
      </trkpt>
      <trkpt lat="45.41279" lon="5.95139">
        <ele>935</ele>
        <time>2014-11-11T11:31:18Z</time>
      </trkpt>
      <trkpt lat="45.41262" lon="5.9512">
        <ele>935</ele>
        <time>2014-11-11T11:31:23Z</time>
      </trkpt>
      <trkpt lat="45.41258" lon="5.95092">
        <ele>935</ele>
        <time>2014-11-11T11:31:28Z</time>
      </trkpt>
      <trkpt lat="45.4126" lon="5.95066">
        <ele>941</ele>
        <time>2014-11-11T11:31:33Z</time>
      </trkpt>
      <trkpt lat="45.41266" lon="5.95041">
        <ele>945</ele>
        <time>2014-11-11T11:31:38Z</time>
      </trkpt>
      <trkpt lat="45.41273" lon="5.95014">
        <ele>946</ele>
        <time>2014-11-11T11:31:43Z</time>
      </trkpt>
      <trkpt lat="45.41281" lon="5.94989">
        <ele>951</ele>
        <time>2014-11-11T11:31:48Z</time>
      </trkpt>
      <trkpt lat="45.41287" lon="5.94965">
        <ele>953</ele>
        <time>2014-11-11T11:31:53Z</time>
      </trkpt>
      <trkpt lat="45.4127" lon="5.94952">
        <ele>952</ele>
        <time>2014-11-11T11:31:59Z</time>
      </trkpt>
      <trkpt lat="45.41252" lon="5.94963">
        <ele>951</ele>
        <time>2014-11-11T11:32:04Z</time>
      </trkpt>
      <trkpt lat="45.41233" lon="5.94977">
        <ele>943</ele>
        <time>2014-11-11T11:32:09Z</time>
      </trkpt>
      <trkpt lat="45.41213" lon="5.94983">
        <ele>942</ele>
        <time>2014-11-11T11:32:14Z</time>
      </trkpt>
      <trkpt lat="45.41193" lon="5.94969">
        <ele>941</ele>
        <time>2014-11-11T11:32:19Z</time>
      </trkpt>
      <trkpt lat="45.4118" lon="5.94948">
        <ele>941</ele>
        <time>2014-11-11T11:32:23Z</time>
      </trkpt>
      <trkpt lat="45.41168" lon="5.94927">
        <ele>941</ele>
        <time>2014-11-11T11:32:27Z</time>
      </trkpt>
      <trkpt lat="45.41154" lon="5.94903">
        <ele>943</ele>
        <time>2014-11-11T11:32:32Z</time>
      </trkpt>
      <trkpt lat="45.4115" lon="5.94877">
        <ele>945</ele>
        <time>2014-11-11T11:32:38Z</time>
      </trkpt>
      <trkpt lat="45.41153" lon="5.94851">
        <ele>948</ele>
        <time>2014-11-11T11:32:43Z</time>
      </trkpt>
      <trkpt lat="45.41138" lon="5.94834">
        <ele>948</ele>
        <time>2014-11-11T11:32:49Z</time>
      </trkpt>
      <trkpt lat="45.41117" lon="5.94831">
        <ele>955</ele>
        <time>2014-11-11T11:32:55Z</time>
      </trkpt>
      <trkpt lat="45.41098" lon="5.94826">
        <ele>952</ele>
        <time>2014-11-11T11:33:02Z</time>
      </trkpt>
      <trkpt lat="45.41083" lon="5.94806">
        <ele>952</ele>
        <time>2014-11-11T11:33:09Z</time>
      </trkpt>
      <trkpt lat="45.4107" lon="5.94785">
        <ele>954</ele>
        <time>2014-11-11T11:33:15Z</time>
      </trkpt>
      <trkpt lat="45.4105" lon="5.94774">
        <ele>955</ele>
        <time>2014-11-11T11:33:20Z</time>
      </trkpt>
      <trkpt lat="45.41033" lon="5.94784">
        <ele>954</ele>
        <time>2014-11-11T11:33:26Z</time>
      </trkpt>
      <trkpt lat="45.41016" lon="5.94795">
        <ele>953</ele>
        <time>2014-11-11T11:33:33Z</time>
      </trkpt>
      <trkpt lat="45.40997" lon="5.94794">
        <ele>949</ele>
        <time>2014-11-11T11:33:39Z</time>
      </trkpt>
      <trkpt lat="45.40977" lon="5.94785">
        <ele>949</ele>
        <time>2014-11-11T11:33:45Z</time>
      </trkpt>
      <trkpt lat="45.40959" lon="5.9478">
        <ele>949</ele>
        <time>2014-11-11T11:33:50Z</time>
      </trkpt>
      <trkpt lat="45.40941" lon="5.94774">
        <ele>948</ele>
        <time>2014-11-11T11:33:55Z</time>
      </trkpt>
      <trkpt lat="45.40921" lon="5.94766">
        <ele>948</ele>
        <time>2014-11-11T11:34:00Z</time>
      </trkpt>
      <trkpt lat="45.40904" lon="5.94757">
        <ele>945</ele>
        <time>2014-11-11T11:34:04Z</time>
      </trkpt>
      <trkpt lat="45.40887" lon="5.94745">
        <ele>950</ele>
        <time>2014-11-11T11:34:08Z</time>
      </trkpt>
      <trkpt lat="45.40871" lon="5.94734">
        <ele>949</ele>
        <time>2014-11-11T11:34:12Z</time>
      </trkpt>
      <trkpt lat="45.40853" lon="5.94724">
        <ele>949</ele>
        <time>2014-11-11T11:34:16Z</time>
      </trkpt>
      <trkpt lat="45.40836" lon="5.94712">
        <ele>949</ele>
        <time>2014-11-11T11:34:20Z</time>
      </trkpt>
      <trkpt lat="45.40824" lon="5.9469">
        <ele>946</ele>
        <time>2014-11-11T11:34:24Z</time>
      </trkpt>
      <trkpt lat="45.40811" lon="5.9467">
        <ele>946</ele>
        <time>2014-11-11T11:34:28Z</time>
      </trkpt>
      <trkpt lat="45.40792" lon="5.94657">
        <ele>952</ele>
        <time>2014-11-11T11:34:33Z</time>
      </trkpt>
      <trkpt lat="45.40775" lon="5.94643">
        <ele>951</ele>
        <time>2014-11-11T11:34:38Z</time>
      </trkpt>
      <trkpt lat="45.4076" lon="5.94626">
        <ele>952</ele>
        <time>2014-11-11T11:34:43Z</time>
      </trkpt>
      <trkpt lat="45.40748" lon="5.94606">
        <ele>949</ele>
        <time>2014-11-11T11:34:48Z</time>
      </trkpt>
      <trkpt lat="45.40738" lon="5.94583">
        <ele>955</ele>
        <time>2014-11-11T11:34:54Z</time>
      </trkpt>
      <trkpt lat="45.40744" lon="5.94559">
        <ele>956</ele>
        <time>2014-11-11T11:35:59Z</time>
      </trkpt>
      <trkpt lat="45.40762" lon="5.94558">
        <ele>962</ele>
        <time>2014-11-11T11:36:10Z</time>
      </trkpt>
      <trkpt lat="45.40781" lon="5.94562">
        <ele>963</ele>
        <time>2014-11-11T11:36:24Z</time>
      </trkpt>
      <trkpt lat="45.40799" lon="5.94565">
        <ele>964</ele>
        <time>2014-11-11T11:36:40Z</time>
      </trkpt>
      <trkpt lat="45.40817" lon="5.94572">
        <ele>965</ele>
        <time>2014-11-11T11:36:59Z</time>
      </trkpt>
      <trkpt lat="45.40834" lon="5.94581">
        <ele>967</ele>
        <time>2014-11-11T11:37:11Z</time>
      </trkpt>
      <trkpt lat="45.40852" lon="5.94576">
        <ele>971</ele>
        <time>2014-11-11T11:37:24Z</time>
      </trkpt>
      <trkpt lat="45.40871" lon="5.94567">
        <ele>974</ele>
        <time>2014-11-11T11:37:41Z</time>
      </trkpt>
      <trkpt lat="45.4089" lon="5.94567">
        <ele>975</ele>
        <time>2014-11-11T11:37:53Z</time>
      </trkpt>
      <trkpt lat="45.40908" lon="5.94564">
        <ele>976</ele>
        <time>2014-11-11T11:38:07Z</time>
      </trkpt>
      <trkpt lat="45.40927" lon="5.94561">
        <ele>981</ele>
        <time>2014-11-11T11:38:22Z</time>
      </trkpt>
      <trkpt lat="45.40942" lon="5.94548">
        <ele>983</ele>
        <time>2014-11-11T11:38:36Z</time>
      </trkpt>
      <trkpt lat="45.40959" lon="5.94536">
        <ele>985</ele>
        <time>2014-11-11T11:38:49Z</time>
      </trkpt>
      <trkpt lat="45.40977" lon="5.94532">
        <ele>986</ele>
        <time>2014-11-11T11:39:03Z</time>
      </trkpt>
      <trkpt lat="45.40996" lon="5.94536">
        <ele>987</ele>
        <time>2014-11-11T11:39:17Z</time>
      </trkpt>
      <trkpt lat="45.41015" lon="5.94538">
        <ele>991</ele>
        <time>2014-11-11T11:39:31Z</time>
      </trkpt>
      <trkpt lat="45.41034" lon="5.9454">
        <ele>992</ele>
        <time>2014-11-11T11:39:44Z</time>
      </trkpt>
      <trkpt lat="45.41052" lon="5.9454">
        <ele>992</ele>
        <time>2014-11-11T11:39:56Z</time>
      </trkpt>
      <trkpt lat="45.41072" lon="5.94539">
        <ele>993</ele>
        <time>2014-11-11T11:40:07Z</time>
      </trkpt>
      <trkpt lat="45.41091" lon="5.94541">
        <ele>997</ele>
        <time>2014-11-11T11:40:16Z</time>
      </trkpt>
      <trkpt lat="45.41111" lon="5.94544">
        <ele>998</ele>
        <time>2014-11-11T11:40:27Z</time>
      </trkpt>
      <trkpt lat="45.41131" lon="5.9455">
        <ele>998</ele>
        <time>2014-11-11T11:40:37Z</time>
      </trkpt>
      <trkpt lat="45.4115" lon="5.94555">
        <ele>998</ele>
        <time>2014-11-11T11:40:48Z</time>
      </trkpt>
      <trkpt lat="45.41169" lon="5.9455">
        <ele>1003</ele>
        <time>2014-11-11T11:40:57Z</time>
      </trkpt>
      <trkpt lat="45.41186" lon="5.94535">
        <ele>1005</ele>
        <time>2014-11-11T11:41:06Z</time>
      </trkpt>
      <trkpt lat="45.41201" lon="5.94521">
        <ele>1007</ele>
        <time>2014-11-11T11:41:15Z</time>
      </trkpt>
      <trkpt lat="45.41216" lon="5.94508">
        <ele>1009</ele>
        <time>2014-11-11T11:41:23Z</time>
      </trkpt>
      <trkpt lat="45.41234" lon="5.94496">
        <ele>1019</ele>
        <time>2014-11-11T11:41:33Z</time>
      </trkpt>
      <trkpt lat="45.41252" lon="5.94491">
        <ele>1021</ele>
        <time>2014-11-11T11:41:43Z</time>
      </trkpt>
      <trkpt lat="45.41271" lon="5.94494">
        <ele>1024</ele>
        <time>2014-11-11T11:41:55Z</time>
      </trkpt>
      <trkpt lat="45.41289" lon="5.94502">
        <ele>1016</ele>
        <time>2014-11-11T11:42:05Z</time>
      </trkpt>
      <trkpt lat="45.41307" lon="5.9451">
        <ele>1017</ele>
        <time>2014-11-11T11:42:16Z</time>
      </trkpt>
      <trkpt lat="45.41326" lon="5.94515">
        <ele>1019</ele>
        <time>2014-11-11T11:42:28Z</time>
      </trkpt>
      <trkpt lat="45.41345" lon="5.94517">
        <ele>1025</ele>
        <time>2014-11-11T11:42:42Z</time>
      </trkpt>
      <trkpt lat="45.41364" lon="5.94517">
        <ele>1027</ele>
        <time>2014-11-11T11:42:55Z</time>
      </trkpt>
      <trkpt lat="45.41383" lon="5.94516">
        <ele>1029</ele>
        <time>2014-11-11T11:43:08Z</time>
      </trkpt>
      <trkpt lat="45.41402" lon="5.94518">
        <ele>1032</ele>
        <time>2014-11-11T11:43:21Z</time>
      </trkpt>
      <trkpt lat="45.41421" lon="5.9452">
        <ele>1041</ele>
        <time>2014-11-11T11:43:32Z</time>
      </trkpt>
      <trkpt lat="45.41439" lon="5.94527">
        <ele>1041</ele>
        <time>2014-11-11T11:43:45Z</time>
      </trkpt>
      <trkpt lat="45.41456" lon="5.94538">
        <ele>1042</ele>
        <time>2014-11-11T11:43:55Z</time>
      </trkpt>
      <trkpt lat="45.41474" lon="5.94543">
        <ele>1043</ele>
        <time>2014-11-11T11:44:08Z</time>
      </trkpt>
      <trkpt lat="45.41493" lon="5.94548">
        <ele>1043</ele>
        <time>2014-11-11T11:44:20Z</time>
      </trkpt>
      <trkpt lat="45.4151" lon="5.9454">
        <ele>1055</ele>
        <time>2014-11-11T11:44:31Z</time>
      </trkpt>
      <trkpt lat="45.41528" lon="5.94531">
        <ele>1057</ele>
        <time>2014-11-11T11:44:41Z</time>
      </trkpt>
      <trkpt lat="45.41545" lon="5.94521">
        <ele>1059</ele>
        <time>2014-11-11T11:44:55Z</time>
      </trkpt>
      <trkpt lat="45.41563" lon="5.94511">
        <ele>1063</ele>
        <time>2014-11-11T11:45:07Z</time>
      </trkpt>
      <trkpt lat="45.41578" lon="5.94525">
        <ele>1063</ele>
        <time>2014-11-11T11:45:21Z</time>
      </trkpt>
      <trkpt lat="45.41576" lon="5.94551">
        <ele>1059</ele>
        <time>2014-11-11T11:45:39Z</time>
      </trkpt>
      <trkpt lat="45.41594" lon="5.94548">
        <ele>1074</ele>
        <time>2014-11-11T11:45:56Z</time>
      </trkpt>
      <trkpt lat="45.41602" lon="5.94524">
        <ele>1076</ele>
        <time>2014-11-11T11:46:06Z</time>
      </trkpt>
      <trkpt lat="45.41607" lon="5.94497">
        <ele>1083</ele>
        <time>2014-11-11T11:46:18Z</time>
      </trkpt>
      <trkpt lat="45.416" lon="5.9447">
        <ele>1086</ele>
        <time>2014-11-11T11:46:31Z</time>
      </trkpt>
      <trkpt lat="45.41584" lon="5.94456">
        <ele>1087</ele>
        <time>2014-11-11T11:46:40Z</time>
      </trkpt>
      <trkpt lat="45.41566" lon="5.94446">
        <ele>1078</ele>
        <time>2014-11-11T11:46:50Z</time>
      </trkpt>
      <trkpt lat="45.41553" lon="5.94426">
        <ele>1078</ele>
        <time>2014-11-11T11:47:04Z</time>
      </trkpt>
      <trkpt lat="45.41541" lon="5.94405">
        <ele>1091</ele>
        <time>2014-11-11T11:47:18Z</time>
      </trkpt>
      <trkpt lat="45.41526" lon="5.9439">
        <ele>1091</ele>
        <time>2014-11-11T11:47:30Z</time>
      </trkpt>
      <trkpt lat="45.41512" lon="5.94372">
        <ele>1093</ele>
        <time>2014-11-11T11:47:42Z</time>
      </trkpt>
      <trkpt lat="45.41497" lon="5.94356">
        <ele>1091</ele>
        <time>2014-11-11T11:47:55Z</time>
      </trkpt>
      <trkpt lat="45.4148" lon="5.94348">
        <ele>1090</ele>
        <time>2014-11-11T11:48:09Z</time>
      </trkpt>
      <trkpt lat="45.41462" lon="5.94341">
        <ele>1088</ele>
        <time>2014-11-11T11:48:23Z</time>
      </trkpt>
      <trkpt lat="45.41445" lon="5.94331">
        <ele>1102</ele>
        <time>2014-11-11T11:48:38Z</time>
      </trkpt>
      <trkpt lat="45.41429" lon="5.94316">
        <ele>1101</ele>
        <time>2014-11-11T11:48:53Z</time>
      </trkpt>
      <trkpt lat="45.41414" lon="5.943">
        <ele>1095</ele>
        <time>2014-11-11T11:49:12Z</time>
      </trkpt>
      <trkpt lat="45.41403" lon="5.94279">
        <ele>1098</ele>
        <time>2014-11-11T11:49:29Z</time>
      </trkpt>
      <trkpt lat="45.41394" lon="5.94255">
        <ele>1101</ele>
        <time>2014-11-11T11:49:46Z</time>
      </trkpt>
      <trkpt lat="45.41393" lon="5.94228">
        <ele>1114</ele>
        <time>2014-11-11T11:50:02Z</time>
      </trkpt>
      <trkpt lat="45.41384" lon="5.94204">
        <ele>1116</ele>
        <time>2014-11-11T11:50:17Z</time>
      </trkpt>
      <trkpt lat="45.41369" lon="5.94189">
        <ele>1117</ele>
        <time>2014-11-11T11:50:29Z</time>
      </trkpt>
      <trkpt lat="45.4135" lon="5.94184">
        <ele>1116</ele>
        <time>2014-11-11T11:50:42Z</time>
      </trkpt>
      <trkpt lat="45.41332" lon="5.94186">
        <ele>1111</ele>
        <time>2014-11-11T11:53:45Z</time>
      </trkpt>
      <trkpt lat="45.41311" lon="5.94185">
        <ele>1109</ele>
        <time>2014-11-11T11:53:51Z</time>
      </trkpt>
      <trkpt lat="45.41292" lon="5.94178">
        <ele>1108</ele>
        <time>2014-11-11T11:53:56Z</time>
      </trkpt>
      <trkpt lat="45.41276" lon="5.94164">
        <ele>1125</ele>
        <time>2014-11-11T11:54:05Z</time>
      </trkpt>
      <trkpt lat="45.41257" lon="5.94163">
        <ele>1119</ele>
        <time>2014-11-11T11:54:13Z</time>
      </trkpt>
      <trkpt lat="45.41237" lon="5.94163">
        <ele>1118</ele>
        <time>2014-11-11T11:54:21Z</time>
      </trkpt>
      <trkpt lat="45.41219" lon="5.94153">
        <ele>1120</ele>
        <time>2014-11-11T11:54:28Z</time>
      </trkpt>
      <trkpt lat="45.41203" lon="5.94143">
        <ele>1120</ele>
        <time>2014-11-11T11:54:36Z</time>
      </trkpt>
      <trkpt lat="45.41184" lon="5.94133">
        <ele>1120</ele>
        <time>2014-11-11T11:54:44Z</time>
      </trkpt>
      <trkpt lat="45.41164" lon="5.94124">
        <ele>1112</ele>
        <time>2014-11-11T11:54:50Z</time>
      </trkpt>
      <trkpt lat="45.41145" lon="5.94114">
        <ele>1113</ele>
        <time>2014-11-11T11:54:56Z</time>
      </trkpt>
      <trkpt lat="45.41128" lon="5.94101">
        <ele>1112</ele>
        <time>2014-11-11T11:55:01Z</time>
      </trkpt>
      <trkpt lat="45.41109" lon="5.94089">
        <ele>1111</ele>
        <time>2014-11-11T11:55:07Z</time>
      </trkpt>
      <trkpt lat="45.41095" lon="5.9407">
        <ele>1122</ele>
        <time>2014-11-11T11:55:14Z</time>
      </trkpt>
      <trkpt lat="45.41076" lon="5.94062">
        <ele>1115</ele>
        <time>2014-11-11T11:55:22Z</time>
      </trkpt>
      <trkpt lat="45.41058" lon="5.94048">
        <ele>1117</ele>
        <time>2014-11-11T11:55:30Z</time>
      </trkpt>
      <trkpt lat="45.41041" lon="5.94034">
        <ele>1118</ele>
        <time>2014-11-11T11:55:36Z</time>
      </trkpt>
      <trkpt lat="45.41025" lon="5.94016">
        <ele>1119</ele>
        <time>2014-11-11T11:55:43Z</time>
      </trkpt>
      <trkpt lat="45.41007" lon="5.94008">
        <ele>1119</ele>
        <time>2014-11-11T11:55:51Z</time>
      </trkpt>
      <trkpt lat="45.4099" lon="5.93999">
        <ele>1122</ele>
        <time>2014-11-11T11:55:57Z</time>
      </trkpt>
      <trkpt lat="45.40974" lon="5.93984">
        <ele>1122</ele>
        <time>2014-11-11T11:56:04Z</time>
      </trkpt>
      <trkpt lat="45.40956" lon="5.93971">
        <ele>1122</ele>
        <time>2014-11-11T11:56:10Z</time>
      </trkpt>
      <trkpt lat="45.40939" lon="5.9396">
        <ele>1121</ele>
        <time>2014-11-11T11:56:16Z</time>
      </trkpt>
      <trkpt lat="45.40921" lon="5.93949">
        <ele>1122</ele>
        <time>2014-11-11T11:56:22Z</time>
      </trkpt>
      <trkpt lat="45.40902" lon="5.93935">
        <ele>1112</ele>
        <time>2014-11-11T11:56:28Z</time>
      </trkpt>
      <trkpt lat="45.40886" lon="5.93917">
        <ele>1110</ele>
        <time>2014-11-11T11:56:34Z</time>
      </trkpt>
      <trkpt lat="45.4087" lon="5.93902">
        <ele>1122</ele>
        <time>2014-11-11T11:56:40Z</time>
      </trkpt>
      <trkpt lat="45.40853" lon="5.93892">
        <ele>1120</ele>
        <time>2014-11-11T11:56:45Z</time>
      </trkpt>
      <trkpt lat="45.40834" lon="5.93879">
        <ele>1122</ele>
        <time>2014-11-11T11:56:52Z</time>
      </trkpt>
      <trkpt lat="45.40819" lon="5.93866">
        <ele>1111</ele>
        <time>2014-11-11T11:56:59Z</time>
      </trkpt>
      <trkpt lat="45.40804" lon="5.93848">
        <ele>1113</ele>
        <time>2014-11-11T11:57:07Z</time>
      </trkpt>
      <trkpt lat="45.40787" lon="5.93837">
        <ele>1111</ele>
        <time>2014-11-11T11:57:14Z</time>
      </trkpt>
      <trkpt lat="45.40768" lon="5.93832">
        <ele>1123</ele>
        <time>2014-11-11T11:57:22Z</time>
      </trkpt>
      <trkpt lat="45.4075" lon="5.93824">
        <ele>1114</ele>
        <time>2014-11-11T11:57:27Z</time>
      </trkpt>
      <trkpt lat="45.40733" lon="5.93808">
        <ele>1116</ele>
        <time>2014-11-11T11:57:35Z</time>
      </trkpt>
      <trkpt lat="45.40718" lon="5.93791">
        <ele>1118</ele>
        <time>2014-11-11T11:57:42Z</time>
      </trkpt>
      <trkpt lat="45.40699" lon="5.93789">
        <ele>1116</ele>
        <time>2014-11-11T11:57:52Z</time>
      </trkpt>
      <trkpt lat="45.4068" lon="5.93781">
        <ele>1116</ele>
        <time>2014-11-11T11:58:00Z</time>
      </trkpt>
      <trkpt lat="45.40663" lon="5.93772">
        <ele>1106</ele>
        <time>2014-11-11T11:58:05Z</time>
      </trkpt>
      <trkpt lat="45.40645" lon="5.93761">
        <ele>1105</ele>
        <time>2014-11-11T11:58:10Z</time>
      </trkpt>
      <trkpt lat="45.40628" lon="5.93747">
        <ele>1112</ele>
        <time>2014-11-11T11:58:14Z</time>
      </trkpt>
      <trkpt lat="45.40611" lon="5.93728">
        <ele>1110</ele>
        <time>2014-11-11T11:58:18Z</time>
      </trkpt>
      <trkpt lat="45.40592" lon="5.93711">
        <ele>1110</ele>
        <time>2014-11-11T11:58:21Z</time>
      </trkpt>
      <trkpt lat="45.40575" lon="5.93698">
        <ele>1096</ele>
        <time>2014-11-11T11:58:25Z</time>
      </trkpt>
      <trkpt lat="45.4056" lon="5.93682">
        <ele>1097</ele>
        <time>2014-11-11T11:59:57Z</time>
      </trkpt>
      <trkpt lat="45.40541" lon="5.93668">
        <ele>1093</ele>
        <time>2014-11-11T12:00:02Z</time>
      </trkpt>
      <trkpt lat="45.4052" lon="5.93659">
        <ele>1100</ele>
        <time>2014-11-11T12:00:06Z</time>
      </trkpt>
      <trkpt lat="45.40502" lon="5.93648">
        <ele>1099</ele>
        <time>2014-11-11T12:00:09Z</time>
      </trkpt>
      <trkpt lat="45.40485" lon="5.93635">
        <ele>1088</ele>
        <time>2014-11-11T12:00:12Z</time>
      </trkpt>
      <trkpt lat="45.40469" lon="5.93625">
        <ele>1088</ele>
        <time>2014-11-11T12:00:15Z</time>
      </trkpt>
      <trkpt lat="45.40451" lon="5.93613">
        <ele>1086</ele>
        <time>2014-11-11T12:00:18Z</time>
      </trkpt>
      <trkpt lat="45.40433" lon="5.93604">
        <ele>1085</ele>
        <time>2014-11-11T12:00:21Z</time>
      </trkpt>
      <trkpt lat="45.40416" lon="5.93593">
        <ele>1076</ele>
        <time>2014-11-11T12:00:24Z</time>
      </trkpt>
      <trkpt lat="45.40397" lon="5.93573">
        <ele>1080</ele>
        <time>2014-11-11T12:00:28Z</time>
      </trkpt>
      <trkpt lat="45.40386" lon="5.93546">
        <ele>1079</ele>
        <time>2014-11-11T12:00:32Z</time>
      </trkpt>
      <trkpt lat="45.40369" lon="5.9353">
        <ele>1078</ele>
        <time>2014-11-11T12:00:36Z</time>
      </trkpt>
      <trkpt lat="45.40351" lon="5.9351">
        <ele>1074</ele>
        <time>2014-11-11T12:00:40Z</time>
      </trkpt>
      <trkpt lat="45.40336" lon="5.93487">
        <ele>1080</ele>
        <time>2014-11-11T12:00:43Z</time>
      </trkpt>
      <trkpt lat="45.40323" lon="5.9346">
        <ele>1064</ele>
        <time>2014-11-11T12:00:46Z</time>
      </trkpt>
      <trkpt lat="45.4031" lon="5.93437">
        <ele>1066</ele>
        <time>2014-11-11T12:00:49Z</time>
      </trkpt>
      <trkpt lat="45.40295" lon="5.93423">
        <ele>1063</ele>
        <time>2014-11-11T12:00:52Z</time>
      </trkpt>
      <trkpt lat="45.40276" lon="5.93402">
        <ele>1070</ele>
        <time>2014-11-11T12:00:56Z</time>
      </trkpt>
      <trkpt lat="45.4026" lon="5.93388">
        <ele>1069</ele>
        <time>2014-11-11T12:00:59Z</time>
      </trkpt>
      <trkpt lat="45.40241" lon="5.93373">
        <ele>1049</ele>
        <time>2014-11-11T12:01:03Z</time>
      </trkpt>
      <trkpt lat="45.40226" lon="5.93356">
        <ele>1050</ele>
        <time>2014-11-11T12:01:07Z</time>
      </trkpt>
      <trkpt lat="45.4021" lon="5.93342">
        <ele>1048</ele>
        <time>2014-11-11T12:01:11Z</time>
      </trkpt>
      <trkpt lat="45.40191" lon="5.93325">
        <ele>1054</ele>
        <time>2014-11-11T12:01:16Z</time>
      </trkpt>
      <trkpt lat="45.40174" lon="5.93311">
        <ele>1053</ele>
        <time>2014-11-11T12:01:19Z</time>
      </trkpt>
      <trkpt lat="45.40158" lon="5.93293">
        <ele>1038</ele>
        <time>2014-11-11T12:01:22Z</time>
      </trkpt>
      <trkpt lat="45.40141" lon="5.93277">
        <ele>1039</ele>
        <time>2014-11-11T12:01:26Z</time>
      </trkpt>
      <trkpt lat="45.40125" lon="5.9326">
        <ele>1037</ele>
        <time>2014-11-11T12:01:29Z</time>
      </trkpt>
      <trkpt lat="45.40111" lon="5.93243">
        <ele>1045</ele>
        <time>2014-11-11T12:01:32Z</time>
      </trkpt>
      <trkpt lat="45.40096" lon="5.93228">
        <ele>1044</ele>
        <time>2014-11-11T12:01:42Z</time>
      </trkpt>
      <trkpt lat="45.40091" lon="5.93253">
        <ele>1031</ele>
        <time>2014-11-11T12:01:49Z</time>
      </trkpt>
      <trkpt lat="45.40093" lon="5.93279">
        <ele>1031</ele>
        <time>2014-11-11T12:01:53Z</time>
      </trkpt>
      <trkpt lat="45.40098" lon="5.93305">
        <ele>1027</ele>
        <time>2014-11-11T12:01:59Z</time>
      </trkpt>
      <trkpt lat="45.40106" lon="5.93332">
        <ele>1024</ele>
        <time>2014-11-11T12:02:04Z</time>
      </trkpt>
      <trkpt lat="45.40111" lon="5.93358">
        <ele>1013</ele>
        <time>2014-11-11T12:02:11Z</time>
      </trkpt>
      <trkpt lat="45.40118" lon="5.93383">
        <ele>1011</ele>
        <time>2014-11-11T12:02:21Z</time>
      </trkpt>
      <trkpt lat="45.40132" lon="5.93401">
        <ele>1011</ele>
        <time>2014-11-11T12:02:27Z</time>
      </trkpt>
      <trkpt lat="45.40144" lon="5.93427">
        <ele>1001</ele>
        <time>2014-11-11T12:02:32Z</time>
      </trkpt>
      <trkpt lat="45.40156" lon="5.93451">
        <ele>998</ele>
        <time>2014-11-11T12:02:36Z</time>
      </trkpt>
      <trkpt lat="45.40166" lon="5.93478">
        <ele>995</ele>
        <time>2014-11-11T12:02:40Z</time>
      </trkpt>
      <trkpt lat="45.40174" lon="5.93503">
        <ele>998</ele>
        <time>2014-11-11T12:02:43Z</time>
      </trkpt>
      <trkpt lat="45.40184" lon="5.93525">
        <ele>1001</ele>
        <time>2014-11-11T12:02:46Z</time>
      </trkpt>
      <trkpt lat="45.40189" lon="5.93555">
        <ele>998</ele>
        <time>2014-11-11T12:02:51Z</time>
      </trkpt>
      <trkpt lat="45.40193" lon="5.93583">
        <ele>995</ele>
        <time>2014-11-11T12:02:54Z</time>
      </trkpt>
      <trkpt lat="45.402" lon="5.93607">
        <ele>988</ele>
        <time>2014-11-11T12:02:58Z</time>
      </trkpt>
      <trkpt lat="45.40205" lon="5.93632">
        <ele>988</ele>
        <time>2014-11-11T12:03:03Z</time>
      </trkpt>
      <trkpt lat="45.40205" lon="5.93657">
        <ele>986</ele>
        <time>2014-11-11T12:03:08Z</time>
      </trkpt>
      <trkpt lat="45.402" lon="5.93685">
        <ele>976</ele>
        <time>2014-11-11T12:03:12Z</time>
      </trkpt>
      <trkpt lat="45.40195" lon="5.93712">
        <ele>975</ele>
        <time>2014-11-11T12:03:16Z</time>
      </trkpt>
      <trkpt lat="45.40199" lon="5.93739">
        <ele>974</ele>
        <time>2014-11-11T12:03:21Z</time>
      </trkpt>
      <trkpt lat="45.40209" lon="5.93761">
        <ele>971</ele>
        <time>2014-11-11T12:03:25Z</time>
      </trkpt>
      <trkpt lat="45.40217" lon="5.93784">
        <ele>971</ele>
        <time>2014-11-11T12:03:28Z</time>
      </trkpt>
      <trkpt lat="45.40215" lon="5.93813">
        <ele>969</ele>
        <time>2014-11-11T12:03:32Z</time>
      </trkpt>
      <trkpt lat="45.40212" lon="5.9384">
        <ele>964</ele>
        <time>2014-11-11T12:03:36Z</time>
      </trkpt>
      <trkpt lat="45.40216" lon="5.93868">
        <ele>964</ele>
        <time>2014-11-11T12:03:40Z</time>
      </trkpt>
      <trkpt lat="45.40217" lon="5.93894">
        <ele>963</ele>
        <time>2014-11-11T12:03:46Z</time>
      </trkpt>
      <trkpt lat="45.40199" lon="5.93911">
        <ele>959</ele>
        <time>2014-11-11T12:03:51Z</time>
      </trkpt>
      <trkpt lat="45.40184" lon="5.93925">
        <ele>955</ele>
        <time>2014-11-11T12:03:55Z</time>
      </trkpt>
      <trkpt lat="45.40168" lon="5.93941">
        <ele>956</ele>
        <time>2014-11-11T12:04:00Z</time>
      </trkpt>
      <trkpt lat="45.40153" lon="5.93961">
        <ele>941</ele>
        <time>2014-11-11T12:04:05Z</time>
      </trkpt>
      <trkpt lat="45.40143" lon="5.93982">
        <ele>942</ele>
        <time>2014-11-11T12:04:09Z</time>
      </trkpt>
      <trkpt lat="45.40136" lon="5.94007">
        <ele>943</ele>
        <time>2014-11-11T12:04:13Z</time>
      </trkpt>
      <trkpt lat="45.40138" lon="5.94036">
        <ele>942</ele>
        <time>2014-11-11T12:04:18Z</time>
      </trkpt>
      <trkpt lat="45.40145" lon="5.94062">
        <ele>943</ele>
        <time>2014-11-11T12:04:23Z</time>
      </trkpt>
      <trkpt lat="45.40152" lon="5.94089">
        <ele>944</ele>
        <time>2014-11-11T12:04:29Z</time>
      </trkpt>
      <trkpt lat="45.40161" lon="5.94112">
        <ele>942</ele>
        <time>2014-11-11T12:04:35Z</time>
      </trkpt>
      <trkpt lat="45.4017" lon="5.94136">
        <ele>950</ele>
        <time>2014-11-11T12:04:41Z</time>
      </trkpt>
      <trkpt lat="45.40182" lon="5.9416">
        <ele>948</ele>
        <time>2014-11-11T12:04:48Z</time>
      </trkpt>
      <trkpt lat="45.40194" lon="5.94184">
        <ele>945</ele>
        <time>2014-11-11T12:04:54Z</time>
      </trkpt>
      <trkpt lat="45.40206" lon="5.94209">
        <ele>944</ele>
        <time>2014-11-11T12:05:00Z</time>
      </trkpt>
      <trkpt lat="45.40216" lon="5.94235">
        <ele>944</ele>
        <time>2014-11-11T12:05:06Z</time>
      </trkpt>
      <trkpt lat="45.40231" lon="5.9425">
        <ele>945</ele>
        <time>2014-11-11T12:05:11Z</time>
      </trkpt>
      <trkpt lat="45.4025" lon="5.94266">
        <ele>941</ele>
        <time>2014-11-11T12:05:16Z</time>
      </trkpt>
      <trkpt lat="45.40267" lon="5.9428">
        <ele>946</ele>
        <time>2014-11-11T12:05:21Z</time>
      </trkpt>
      <trkpt lat="45.40286" lon="5.9429">
        <ele>946</ele>
        <time>2014-11-11T12:05:27Z</time>
      </trkpt>
      <trkpt lat="45.40305" lon="5.94297">
        <ele>947</ele>
        <time>2014-11-11T12:05:32Z</time>
      </trkpt>
      <trkpt lat="45.40318" lon="5.94321">
        <ele>946</ele>
        <time>2014-11-11T12:05:37Z</time>
      </trkpt>
      <trkpt lat="45.40333" lon="5.94341">
        <ele>943</ele>
        <time>2014-11-11T12:05:42Z</time>
      </trkpt>
      <trkpt lat="45.40349" lon="5.94353">
        <ele>945</ele>
        <time>2014-11-11T12:05:47Z</time>
      </trkpt>
      <trkpt lat="45.40366" lon="5.94366">
        <ele>945</ele>
        <time>2014-11-11T12:05:52Z</time>
      </trkpt>
      <trkpt lat="45.40382" lon="5.94386">
        <ele>945</ele>
        <time>2014-11-11T12:05:59Z</time>
      </trkpt>
      <trkpt lat="45.40398" lon="5.94403">
        <ele>945</ele>
        <time>2014-11-11T12:06:04Z</time>
      </trkpt>
      <trkpt lat="45.40418" lon="5.94421">
        <ele>946</ele>
        <time>2014-11-11T12:06:09Z</time>
      </trkpt>
      <trkpt lat="45.40436" lon="5.94431">
        <ele>944</ele>
        <time>2014-11-11T12:06:14Z</time>
      </trkpt>
      <trkpt lat="45.40455" lon="5.94436">
        <ele>944</ele>
        <time>2014-11-11T12:06:21Z</time>
      </trkpt>
      <trkpt lat="45.40475" lon="5.94438">
        <ele>945</ele>
        <time>2014-11-11T12:06:29Z</time>
      </trkpt>
      <trkpt lat="45.40494" lon="5.94446">
        <ele>945</ele>
        <time>2014-11-11T12:06:36Z</time>
      </trkpt>
      <trkpt lat="45.40513" lon="5.94456">
        <ele>948</ele>
        <time>2014-11-11T12:06:43Z</time>
      </trkpt>
      <trkpt lat="45.40533" lon="5.94463">
        <ele>948</ele>
        <time>2014-11-11T12:06:49Z</time>
      </trkpt>
      <trkpt lat="45.40552" lon="5.94466">
        <ele>948</ele>
        <time>2014-11-11T12:06:56Z</time>
      </trkpt>
      <trkpt lat="45.40572" lon="5.94466">
        <ele>948</ele>
        <time>2014-11-11T12:07:04Z</time>
      </trkpt>
      <trkpt lat="45.40591" lon="5.94475">
        <ele>953</ele>
        <time>2014-11-11T12:07:11Z</time>
      </trkpt>
      <trkpt lat="45.40608" lon="5.94495">
        <ele>953</ele>
        <time>2014-11-11T12:07:16Z</time>
      </trkpt>
      <trkpt lat="45.40625" lon="5.94517">
        <ele>947</ele>
        <time>2014-11-11T12:07:20Z</time>
      </trkpt>
      <trkpt lat="45.40641" lon="5.94533">
        <ele>947</ele>
        <time>2014-11-11T12:07:24Z</time>
      </trkpt>
      <trkpt lat="45.40661" lon="5.94548">
        <ele>947</ele>
        <time>2014-11-11T12:07:28Z</time>
      </trkpt>
      <trkpt lat="45.40681" lon="5.94559">
        <ele>952</ele>
        <time>2014-11-11T12:07:32Z</time>
      </trkpt>
      <trkpt lat="45.40665" lon="5.94583">
        <ele>944</ele>
        <time>2014-11-11T12:07:50Z</time>
      </trkpt>
      <trkpt lat="45.40657" lon="5.94606">
        <ele>940</ele>
        <time>2014-11-11T12:07:52Z</time>
      </trkpt>
      <trkpt lat="45.40647" lon="5.94631">
        <ele>938</ele>
        <time>2014-11-11T12:07:56Z</time>
      </trkpt>
      <trkpt lat="45.40664" lon="5.94646">
        <ele>938</ele>
        <time>2014-11-11T12:08:03Z</time>
      </trkpt>
      <trkpt lat="45.40683" lon="5.94653">
        <ele>942</ele>
        <time>2014-11-11T12:08:09Z</time>
      </trkpt>
      <trkpt lat="45.40702" lon="5.94662">
        <ele>943</ele>
        <time>2014-11-11T12:08:16Z</time>
      </trkpt>
      <trkpt lat="45.40721" lon="5.9467">
        <ele>939</ele>
        <time>2014-11-11T12:08:23Z</time>
      </trkpt>
      <trkpt lat="45.40739" lon="5.9468">
        <ele>940</ele>
        <time>2014-11-11T12:08:30Z</time>
      </trkpt>
      <trkpt lat="45.4076" lon="5.94685">
        <ele>943</ele>
        <time>2014-11-11T12:08:37Z</time>
      </trkpt>
      <trkpt lat="45.40778" lon="5.94693">
        <ele>943</ele>
        <time>2014-11-11T12:08:43Z</time>
      </trkpt>
      <trkpt lat="45.40798" lon="5.94701">
        <ele>944</ele>
        <time>2014-11-11T12:08:49Z</time>
      </trkpt>
      <trkpt lat="45.40817" lon="5.94709">
        <ele>944</ele>
        <time>2014-11-11T12:08:55Z</time>
      </trkpt>
      <trkpt lat="45.40834" lon="5.94719">
        <ele>948</ele>
        <time>2014-11-11T12:09:00Z</time>
      </trkpt>
      <trkpt lat="45.40854" lon="5.94729">
        <ele>948</ele>
        <time>2014-11-11T12:09:05Z</time>
      </trkpt>
      <trkpt lat="45.40872" lon="5.94737">
        <ele>949</ele>
        <time>2014-11-11T12:09:09Z</time>
      </trkpt>
      <trkpt lat="45.40889" lon="5.94748">
        <ele>950</ele>
        <time>2014-11-11T12:09:13Z</time>
      </trkpt>
      <trkpt lat="45.40906" lon="5.9476">
        <ele>945</ele>
        <time>2014-11-11T12:09:17Z</time>
      </trkpt>
      <trkpt lat="45.40925" lon="5.94769">
        <ele>948</ele>
        <time>2014-11-11T12:09:21Z</time>
      </trkpt>
      <trkpt lat="45.40944" lon="5.94776">
        <ele>948</ele>
        <time>2014-11-11T12:09:25Z</time>
      </trkpt>
      <trkpt lat="45.40964" lon="5.94783">
        <ele>949</ele>
        <time>2014-11-11T12:09:29Z</time>
      </trkpt>
      <trkpt lat="45.40986" lon="5.94793">
        <ele>949</ele>
        <time>2014-11-11T12:09:33Z</time>
      </trkpt>
      <trkpt lat="45.41008" lon="5.94803">
        <ele>952</ele>
        <time>2014-11-11T12:09:37Z</time>
      </trkpt>
      <trkpt lat="45.4103" lon="5.94794">
        <ele>953</ele>
        <time>2014-11-11T12:09:41Z</time>
      </trkpt>
      <trkpt lat="45.41045" lon="5.94778">
        <ele>955</ele>
        <time>2014-11-11T12:09:44Z</time>
      </trkpt>
      <trkpt lat="45.41062" lon="5.94787">
        <ele>954</ele>
        <time>2014-11-11T12:09:48Z</time>
      </trkpt>
      <trkpt lat="45.41075" lon="5.9481">
        <ele>952</ele>
        <time>2014-11-11T12:09:52Z</time>
      </trkpt>
      <trkpt lat="45.41094" lon="5.94831">
        <ele>951</ele>
        <time>2014-11-11T12:09:56Z</time>
      </trkpt>
      <trkpt lat="45.41114" lon="5.94833">
        <ele>954</ele>
        <time>2014-11-11T12:09:59Z</time>
      </trkpt>
      <trkpt lat="45.41133" lon="5.94836">
        <ele>947</ele>
        <time>2014-11-11T12:10:02Z</time>
      </trkpt>
      <trkpt lat="45.41141" lon="5.9486">
        <ele>946</ele>
        <time>2014-11-11T12:10:06Z</time>
      </trkpt>
      <trkpt lat="45.41142" lon="5.94892">
        <ele>943</ele>
        <time>2014-11-11T12:10:10Z</time>
      </trkpt>
      <trkpt lat="45.41154" lon="5.94913">
        <ele>942</ele>
        <time>2014-11-11T12:10:13Z</time>
      </trkpt>
      <trkpt lat="45.41167" lon="5.94936">
        <ele>941</ele>
        <time>2014-11-11T12:10:16Z</time>
      </trkpt>
      <trkpt lat="45.41182" lon="5.94958">
        <ele>941</ele>
        <time>2014-11-11T12:10:19Z</time>
      </trkpt>
      <trkpt lat="45.41195" lon="5.94976">
        <ele>941</ele>
        <time>2014-11-11T12:10:22Z</time>
      </trkpt>
      <trkpt lat="45.41217" lon="5.94986">
        <ele>942</ele>
        <time>2014-11-11T12:10:26Z</time>
      </trkpt>
      <trkpt lat="45.41238" lon="5.94976">
        <ele>943</ele>
        <time>2014-11-11T12:10:30Z</time>
      </trkpt>
      <trkpt lat="45.41256" lon="5.9496">
        <ele>951</ele>
        <time>2014-11-11T12:10:34Z</time>
      </trkpt>
      <trkpt lat="45.41277" lon="5.94959">
        <ele>952</ele>
        <time>2014-11-11T12:10:38Z</time>
      </trkpt>
      <trkpt lat="45.41274" lon="5.9499">
        <ele>950</ele>
        <time>2014-11-11T12:10:42Z</time>
      </trkpt>
      <trkpt lat="45.41267" lon="5.95015">
        <ele>946</ele>
        <time>2014-11-11T12:10:45Z</time>
      </trkpt>
      <trkpt lat="45.4126" lon="5.95041">
        <ele>945</ele>
        <time>2014-11-11T12:10:48Z</time>
      </trkpt>
      <trkpt lat="45.41255" lon="5.95067">
        <ele>940</ele>
        <time>2014-11-11T12:10:51Z</time>
      </trkpt>
      <trkpt lat="45.41252" lon="5.95095">
        <ele>935</ele>
        <time>2014-11-11T12:10:54Z</time>
      </trkpt>
      <trkpt lat="45.41258" lon="5.95122">
        <ele>935</ele>
        <time>2014-11-11T12:10:57Z</time>
      </trkpt>
      <trkpt lat="45.41272" lon="5.95141">
        <ele>934</ele>
        <time>2014-11-11T12:11:00Z</time>
      </trkpt>
      <trkpt lat="45.41292" lon="5.9515">
        <ele>936</ele>
        <time>2014-11-11T12:11:03Z</time>
      </trkpt>
      <trkpt lat="45.41312" lon="5.95158">
        <ele>937</ele>
        <time>2014-11-11T12:11:06Z</time>
      </trkpt>
      <trkpt lat="45.41331" lon="5.95167">
        <ele>937</ele>
        <time>2014-11-11T12:11:09Z</time>
      </trkpt>
      <trkpt lat="45.4135" lon="5.95173">
        <ele>937</ele>
        <time>2014-11-11T12:11:12Z</time>
      </trkpt>
      <trkpt lat="45.41368" lon="5.9518">
        <ele>937</ele>
        <time>2014-11-11T12:11:16Z</time>
      </trkpt>
      <trkpt lat="45.41389" lon="5.9518">
        <ele>939</ele>
        <time>2014-11-11T12:11:21Z</time>
      </trkpt>
      <trkpt lat="45.4141" lon="5.95174">
        <ele>945</ele>
        <time>2014-11-11T12:11:26Z</time>
      </trkpt>
      <trkpt lat="45.41427" lon="5.95186">
        <ele>947</ele>
        <time>2014-11-11T12:11:31Z</time>
      </trkpt>
      <trkpt lat="45.41438" lon="5.9521">
        <ele>944</ele>
        <time>2014-11-11T12:11:37Z</time>
      </trkpt>
      <trkpt lat="45.41457" lon="5.95217">
        <ele>945</ele>
        <time>2014-11-11T12:11:43Z</time>
      </trkpt>
      <trkpt lat="45.41471" lon="5.95237">
        <ele>944</ele>
        <time>2014-11-11T12:11:48Z</time>
      </trkpt>
      <trkpt lat="45.41482" lon="5.95261">
        <ele>939</ele>
        <time>2014-11-11T12:11:55Z</time>
      </trkpt>
      <trkpt lat="45.41495" lon="5.95281">
        <ele>939</ele>
        <time>2014-11-11T12:12:01Z</time>
      </trkpt>
      <trkpt lat="45.41511" lon="5.95298">
        <ele>947</ele>
        <time>2014-11-11T12:12:07Z</time>
      </trkpt>
      <trkpt lat="45.41528" lon="5.95311">
        <ele>948</ele>
        <time>2014-11-11T12:12:13Z</time>
      </trkpt>
      <trkpt lat="45.41545" lon="5.95325">
        <ele>949</ele>
        <time>2014-11-11T12:12:19Z</time>
      </trkpt>
      <trkpt lat="45.41564" lon="5.9534">
        <ele>948</ele>
        <time>2014-11-11T12:12:25Z</time>
      </trkpt>
      <trkpt lat="45.41582" lon="5.95354">
        <ele>948</ele>
        <time>2014-11-11T12:12:31Z</time>
      </trkpt>
      <trkpt lat="45.416" lon="5.95367">
        <ele>952</ele>
        <time>2014-11-11T12:12:37Z</time>
      </trkpt>
      <trkpt lat="45.41616" lon="5.95383">
        <ele>952</ele>
        <time>2014-11-11T12:12:43Z</time>
      </trkpt>
      <trkpt lat="45.41626" lon="5.95404">
        <ele>951</ele>
        <time>2014-11-11T12:12:48Z</time>
      </trkpt>
      <trkpt lat="45.41636" lon="5.95428">
        <ele>948</ele>
        <time>2014-11-11T12:12:53Z</time>
      </trkpt>
      <trkpt lat="45.41648" lon="5.95453">
        <ele>948</ele>
        <time>2014-11-11T12:12:58Z</time>
      </trkpt>
      <trkpt lat="45.41659" lon="5.95475">
        <ele>949</ele>
        <time>2014-11-11T12:13:03Z</time>
      </trkpt>
      <trkpt lat="45.41672" lon="5.95495">
        <ele>951</ele>
        <time>2014-11-11T12:13:08Z</time>
      </trkpt>
      <trkpt lat="45.41687" lon="5.95516">
        <ele>950</ele>
        <time>2014-11-11T12:13:14Z</time>
      </trkpt>
      <trkpt lat="45.41701" lon="5.95534">
        <ele>951</ele>
        <time>2014-11-11T12:13:20Z</time>
      </trkpt>
      <trkpt lat="45.41715" lon="5.95551">
        <ele>950</ele>
        <time>2014-11-11T12:13:26Z</time>
      </trkpt>
      <trkpt lat="45.4173" lon="5.95568">
        <ele>950</ele>
        <time>2014-11-11T12:13:32Z</time>
      </trkpt>
      <trkpt lat="45.41747" lon="5.95587">
        <ele>948</ele>
        <time>2014-11-11T12:13:38Z</time>
      </trkpt>
      <trkpt lat="45.41762" lon="5.95604">
        <ele>948</ele>
        <time>2014-11-11T12:13:43Z</time>
      </trkpt>
      <trkpt lat="45.41776" lon="5.95624">
        <ele>948</ele>
        <time>2014-11-11T12:13:48Z</time>
      </trkpt>
      <trkpt lat="45.41789" lon="5.95644">
        <ele>948</ele>
        <time>2014-11-11T12:13:52Z</time>
      </trkpt>
      <trkpt lat="45.41806" lon="5.95665">
        <ele>947</ele>
        <time>2014-11-11T12:13:56Z</time>
      </trkpt>
      <trkpt lat="45.41825" lon="5.95675">
        <ele>943</ele>
        <time>2014-11-11T12:13:59Z</time>
      </trkpt>
      <trkpt lat="45.41844" lon="5.9568">
        <ele>946</ele>
        <time>2014-11-11T12:14:02Z</time>
      </trkpt>
      <trkpt lat="45.41839" lon="5.95708">
        <ele>946</ele>
        <time>2014-11-11T12:14:33Z</time>
      </trkpt>
      <trkpt lat="45.41824" lon="5.95725">
        <ele>942</ele>
        <time>2014-11-11T12:14:37Z</time>
      </trkpt>
      <trkpt lat="45.41817" lon="5.95751">
        <ele>937</ele>
        <time>2014-11-11T12:14:41Z</time>
      </trkpt>
      <trkpt lat="45.4181" lon="5.95775">
        <ele>934</ele>
        <time>2014-11-11T12:14:44Z</time>
      </trkpt>
      <trkpt lat="45.41802" lon="5.95798">
        <ele>932</ele>
        <time>2014-11-11T12:14:47Z</time>
      </trkpt>
      <trkpt lat="45.4179" lon="5.95821">
        <ele>930</ele>
        <time>2014-11-11T12:14:50Z</time>
      </trkpt>
      <trkpt lat="45.41776" lon="5.9584">
        <ele>921</ele>
        <time>2014-11-11T12:14:53Z</time>
      </trkpt>
      <trkpt lat="45.41757" lon="5.95853">
        <ele>921</ele>
        <time>2014-11-11T12:14:57Z</time>
      </trkpt>
      <trkpt lat="45.41738" lon="5.95862">
        <ele>914</ele>
        <time>2014-11-11T12:15:00Z</time>
      </trkpt>
      <trkpt lat="45.41719" lon="5.9587">
        <ele>912</ele>
        <time>2014-11-11T12:15:03Z</time>
      </trkpt>
      <trkpt lat="45.41697" lon="5.95879">
        <ele>910</ele>
        <time>2014-11-11T12:15:06Z</time>
      </trkpt>
      <trkpt lat="45.41671" lon="5.95889">
        <ele>908</ele>
        <time>2014-11-11T12:15:09Z</time>
      </trkpt>
      <trkpt lat="45.41648" lon="5.95889">
        <ele>902</ele>
        <time>2014-11-11T12:15:12Z</time>
      </trkpt>
      <trkpt lat="45.4163" lon="5.95884">
        <ele>902</ele>
        <time>2014-11-11T12:15:15Z</time>
      </trkpt>
      <trkpt lat="45.41613" lon="5.95868">
        <ele>901</ele>
        <time>2014-11-11T12:15:19Z</time>
      </trkpt>
      <trkpt lat="45.41593" lon="5.95874">
        <ele>900</ele>
        <time>2014-11-11T12:15:25Z</time>
      </trkpt>
      <trkpt lat="45.41576" lon="5.95885">
        <ele>897</ele>
        <time>2014-11-11T12:15:30Z</time>
      </trkpt>
      <trkpt lat="45.41561" lon="5.95908">
        <ele>897</ele>
        <time>2014-11-11T12:15:34Z</time>
      </trkpt>
      <trkpt lat="45.41548" lon="5.95926">
        <ele>895</ele>
        <time>2014-11-11T12:15:37Z</time>
      </trkpt>
      <trkpt lat="45.41531" lon="5.95943">
        <ele>894</ele>
        <time>2014-11-11T12:15:43Z</time>
      </trkpt>
      <trkpt lat="45.41515" lon="5.95958">
        <ele>893</ele>
        <time>2014-11-11T12:15:48Z</time>
      </trkpt>
      <trkpt lat="45.41495" lon="5.95965">
        <ele>886</ele>
        <time>2014-11-11T12:15:54Z</time>
      </trkpt>
      <trkpt lat="45.41478" lon="5.95975">
        <ele>885</ele>
        <time>2014-11-11T12:16:00Z</time>
      </trkpt>
      <trkpt lat="45.41464" lon="5.95993">
        <ele>883</ele>
        <time>2014-11-11T12:16:04Z</time>
      </trkpt>
      <trkpt lat="45.41449" lon="5.96013">
        <ele>869</ele>
        <time>2014-11-11T12:16:10Z</time>
      </trkpt>
      <trkpt lat="45.41433" lon="5.96027">
        <ele>867</ele>
        <time>2014-11-11T12:16:18Z</time>
      </trkpt>
      <trkpt lat="45.41417" lon="5.96041">
        <ele>864</ele>
        <time>2014-11-11T12:16:31Z</time>
      </trkpt>
      <trkpt lat="45.41399" lon="5.96052">
        <ele>834</ele>
        <time>2014-11-11T12:16:43Z</time>
      </trkpt>
      <trkpt lat="45.4138" lon="5.96052">
        <ele>828</ele>
        <time>2014-11-11T12:17:06Z</time>
      </trkpt>
      <trkpt lat="45.4137" lon="5.96078">
        <ele>822</ele>
        <time>2014-11-11T12:17:15Z</time>
      </trkpt>
      <trkpt lat="45.41352" lon="5.96095">
        <ele>801</ele>
        <time>2014-11-11T12:17:19Z</time>
      </trkpt>
      <trkpt lat="45.41349" lon="5.96122">
        <ele>800</ele>
        <time>2014-11-11T12:17:24Z</time>
      </trkpt>
      <trkpt lat="45.41358" lon="5.96145">
        <ele>798</ele>
        <time>2014-11-11T12:17:29Z</time>
      </trkpt>
      <trkpt lat="45.4137" lon="5.96166">
        <ele>802</ele>
        <time>2014-11-11T12:17:37Z</time>
      </trkpt>
      <trkpt lat="45.41385" lon="5.96189">
        <ele>793</ele>
        <time>2014-11-11T12:17:50Z</time>
      </trkpt>
      <trkpt lat="45.41396" lon="5.96212">
        <ele>791</ele>
        <time>2014-11-11T12:17:56Z</time>
      </trkpt>
      <trkpt lat="45.41409" lon="5.96233">
        <ele>791</ele>
        <time>2014-11-11T12:18:01Z</time>
      </trkpt>
      <trkpt lat="45.41418" lon="5.96257">
        <ele>795</ele>
        <time>2014-11-11T12:18:05Z</time>
      </trkpt>
      <trkpt lat="45.41419" lon="5.96285">
        <ele>794</ele>
        <time>2014-11-11T12:18:10Z</time>
      </trkpt>
      <trkpt lat="45.41425" lon="5.96309">
        <ele>788</ele>
        <time>2014-11-11T12:18:14Z</time>
      </trkpt>
      <trkpt lat="45.41435" lon="5.96344">
        <ele>769</ele>
        <time>2014-11-11T12:18:18Z</time>
      </trkpt>
      <trkpt lat="45.41443" lon="5.96371">
        <ele>767</ele>
        <time>2014-11-11T12:18:21Z</time>
      </trkpt>
      <trkpt lat="45.41456" lon="5.96392">
        <ele>765</ele>
        <time>2014-11-11T12:18:25Z</time>
      </trkpt>
      <trkpt lat="45.41472" lon="5.96407">
        <ele>766</ele>
        <time>2014-11-11T12:18:31Z</time>
      </trkpt>
      <trkpt lat="45.41456" lon="5.96422">
        <ele>737</ele>
        <time>2014-11-11T12:18:39Z</time>
      </trkpt>
      <trkpt lat="45.41435" lon="5.96419">
        <ele>735</ele>
        <time>2014-11-11T12:18:43Z</time>
      </trkpt>
      <trkpt lat="45.41417" lon="5.96411">
        <ele>745</ele>
        <time>2014-11-11T12:18:48Z</time>
      </trkpt>
      <trkpt lat="45.41402" lon="5.9639">
        <ele>738</ele>
        <time>2014-11-11T12:18:53Z</time>
      </trkpt>
      <trkpt lat="45.41384" lon="5.96373">
        <ele>737</ele>
        <time>2014-11-11T12:19:00Z</time>
      </trkpt>
      <trkpt lat="45.41364" lon="5.9636">
        <ele>735</ele>
        <time>2014-11-11T12:19:04Z</time>
      </trkpt>
      <trkpt lat="45.41342" lon="5.96353">
        <ele>733</ele>
        <time>2014-11-11T12:19:08Z</time>
      </trkpt>
      <trkpt lat="45.41338" lon="5.96325">
        <ele>740</ele>
        <time>2014-11-11T12:19:13Z</time>
      </trkpt>
      <trkpt lat="45.41327" lon="5.96301">
        <ele>722</ele>
        <time>2014-11-11T12:19:18Z</time>
      </trkpt>
      <trkpt lat="45.41312" lon="5.96279">
        <ele>721</ele>
        <time>2014-11-11T12:19:22Z</time>
      </trkpt>
      <trkpt lat="45.41304" lon="5.96256">
        <ele>721</ele>
        <time>2014-11-11T12:19:29Z</time>
      </trkpt>
      <trkpt lat="45.41286" lon="5.96241">
        <ele>722</ele>
        <time>2014-11-11T12:19:36Z</time>
      </trkpt>
      <trkpt lat="45.41267" lon="5.96222">
        <ele>717</ele>
        <time>2014-11-11T12:19:43Z</time>
      </trkpt>
      <trkpt lat="45.41252" lon="5.96201">
        <ele>719</ele>
        <time>2014-11-11T12:19:47Z</time>
      </trkpt>
      <trkpt lat="45.4124" lon="5.96171">
        <ele>697</ele>
        <time>2014-11-11T12:19:51Z</time>
      </trkpt>
      <trkpt lat="45.41235" lon="5.96145">
        <ele>699</ele>
        <time>2014-11-11T12:19:55Z</time>
      </trkpt>
      <trkpt lat="45.41237" lon="5.96113">
        <ele>703</ele>
        <time>2014-11-11T12:19:59Z</time>
      </trkpt>
      <trkpt lat="45.41225" lon="5.96093">
        <ele>704</ele>
        <time>2014-11-11T12:20:09Z</time>
      </trkpt>
      <trkpt lat="45.41207" lon="5.96092">
        <ele>695</ele>
        <time>2014-11-11T12:20:16Z</time>
      </trkpt>
      <trkpt lat="45.41188" lon="5.96089">
        <ele>688</ele>
        <time>2014-11-11T12:20:22Z</time>
      </trkpt>
      <trkpt lat="45.41169" lon="5.96088">
        <ele>681</ele>
        <time>2014-11-11T12:20:40Z</time>
      </trkpt>
      <trkpt lat="45.41147" lon="5.96091">
        <ele>664</ele>
        <time>2014-11-11T12:20:47Z</time>
      </trkpt>
      <trkpt lat="45.41129" lon="5.961">
        <ele>657</ele>
        <time>2014-11-11T12:20:50Z</time>
      </trkpt>
      <trkpt lat="45.41111" lon="5.96113">
        <ele>652</ele>
        <time>2014-11-11T12:20:53Z</time>
      </trkpt>
      <trkpt lat="45.41092" lon="5.96123">
        <ele>648</ele>
        <time>2014-11-11T12:20:56Z</time>
      </trkpt>
      <trkpt lat="45.41071" lon="5.96129">
        <ele>626</ele>
        <time>2014-11-11T12:21:00Z</time>
      </trkpt>
      <trkpt lat="45.41055" lon="5.96119">
        <ele>626</ele>
        <time>2014-11-11T12:21:06Z</time>
      </trkpt>
      <trkpt lat="45.41039" lon="5.96101">
        <ele>625</ele>
        <time>2014-11-11T12:21:13Z</time>
      </trkpt>
      <trkpt lat="45.41022" lon="5.96084">
        <ele>623</ele>
        <time>2014-11-11T12:21:20Z</time>
      </trkpt>
      <trkpt lat="45.41005" lon="5.96072">
        <ele>633</ele>
        <time>2014-11-11T12:21:26Z</time>
      </trkpt>
      <trkpt lat="45.40988" lon="5.9606">
        <ele>615</ele>
        <time>2014-11-11T12:21:34Z</time>
      </trkpt>
      <trkpt lat="45.40973" lon="5.9604">
        <ele>615</ele>
        <time>2014-11-11T12:21:41Z</time>
      </trkpt>
      <trkpt lat="45.40959" lon="5.96019">
        <ele>614</ele>
        <time>2014-11-11T12:21:47Z</time>
      </trkpt>
      <trkpt lat="45.40946" lon="5.96002">
        <ele>611</ele>
        <time>2014-11-11T12:21:52Z</time>
      </trkpt>
      <trkpt lat="45.40938" lon="5.96025">
        <ele>608</ele>
        <time>2014-11-11T12:22:00Z</time>
      </trkpt>
      <trkpt lat="45.40938" lon="5.96056">
        <ele>601</ele>
        <time>2014-11-11T12:23:17Z</time>
      </trkpt>
      <trkpt lat="45.40939" lon="5.96084">
        <ele>580</ele>
        <time>2014-11-11T12:23:25Z</time>
      </trkpt>
      <trkpt lat="45.40941" lon="5.9611">
        <ele>581</ele>
        <time>2014-11-11T12:23:30Z</time>
      </trkpt>
      <trkpt lat="45.4095" lon="5.96139">
        <ele>579</ele>
        <time>2014-11-11T12:23:34Z</time>
      </trkpt>
      <trkpt lat="45.40961" lon="5.9616">
        <ele>580</ele>
        <time>2014-11-11T12:23:38Z</time>
      </trkpt>
      <trkpt lat="45.40971" lon="5.96186">
        <ele>566</ele>
        <time>2014-11-11T12:23:43Z</time>
      </trkpt>
      <trkpt lat="45.40984" lon="5.96206">
        <ele>565</ele>
        <time>2014-11-11T12:23:48Z</time>
      </trkpt>
      <trkpt lat="45.40996" lon="5.96229">
        <ele>562</ele>
        <time>2014-11-11T12:23:53Z</time>
      </trkpt>
      <trkpt lat="45.41001" lon="5.96256">
        <ele>561</ele>
        <time>2014-11-11T12:24:00Z</time>
      </trkpt>
      <trkpt lat="45.40988" lon="5.96275">
        <ele>546</ele>
        <time>2014-11-11T12:24:07Z</time>
      </trkpt>
      <trkpt lat="45.4097" lon="5.96285">
        <ele>542</ele>
        <time>2014-11-11T12:24:14Z</time>
      </trkpt>
      <trkpt lat="45.40951" lon="5.9629">
        <ele>539</ele>
        <time>2014-11-11T12:24:24Z</time>
      </trkpt>
      <trkpt lat="45.40933" lon="5.96296">
        <ele>536</ele>
        <time>2014-11-11T12:24:32Z</time>
      </trkpt>
      <trkpt lat="45.40921" lon="5.96317">
        <ele>530</ele>
        <time>2014-11-11T12:24:42Z</time>
      </trkpt>
      <trkpt lat="45.40924" lon="5.96342">
        <ele>522</ele>
        <time>2014-11-11T12:24:49Z</time>
      </trkpt>
      <trkpt lat="45.40929" lon="5.96368">
        <ele>520</ele>
        <time>2014-11-11T12:24:56Z</time>
      </trkpt>
      <trkpt lat="45.40925" lon="5.96395">
        <ele>514</ele>
        <time>2014-11-11T12:25:06Z</time>
      </trkpt>
      <trkpt lat="45.40907" lon="5.96405">
        <ele>498</ele>
        <time>2014-11-11T12:25:14Z</time>
      </trkpt>
      <trkpt lat="45.40888" lon="5.96406">
        <ele>495</ele>
        <time>2014-11-11T12:25:24Z</time>
      </trkpt>
      <trkpt lat="45.40869" lon="5.96404">
        <ele>492</ele>
        <time>2014-11-11T12:25:34Z</time>
      </trkpt>
      <trkpt lat="45.40852" lon="5.96416">
        <ele>485</ele>
        <time>2014-11-11T12:25:42Z</time>
      </trkpt>
      <trkpt lat="45.40836" lon="5.9643">
        <ele>475</ele>
        <time>2014-11-11T12:25:52Z</time>
      </trkpt>
      <trkpt lat="45.40825" lon="5.96452">
        <ele>461</ele>
        <time>2014-11-11T12:26:01Z</time>
      </trkpt>
      <trkpt lat="45.40815" lon="5.96473">
        <ele>458</ele>
        <time>2014-11-11T12:26:08Z</time>
      </trkpt>
      <trkpt lat="45.40818" lon="5.96504">
        <ele>450</ele>
        <time>2014-11-11T12:26:16Z</time>
      </trkpt>
      <trkpt lat="45.40822" lon="5.96531">
        <ele>446</ele>
        <time>2014-11-11T12:26:21Z</time>
      </trkpt>
      <trkpt lat="45.40804" lon="5.96549">
        <ele>441</ele>
        <time>2014-11-11T12:26:27Z</time>
      </trkpt>
      <trkpt lat="45.40791" lon="5.96569">
        <ele>439</ele>
        <time>2014-11-11T12:26:31Z</time>
      </trkpt>
      <trkpt lat="45.40785" lon="5.96598">
        <ele>429</ele>
        <time>2014-11-11T12:26:35Z</time>
      </trkpt>
      <trkpt lat="45.40789" lon="5.96631">
        <ele>427</ele>
        <time>2014-11-11T12:26:39Z</time>
      </trkpt>
      <trkpt lat="45.40794" lon="5.96662">
        <ele>426</ele>
        <time>2014-11-11T12:26:43Z</time>
      </trkpt>
      <trkpt lat="45.40805" lon="5.96689">
        <ele>417</ele>
        <time>2014-11-11T12:26:47Z</time>
      </trkpt>
      <trkpt lat="45.4081" lon="5.96717">
        <ele>416</ele>
        <time>2014-11-11T12:26:53Z</time>
      </trkpt>
      <trkpt lat="45.4083" lon="5.96724">
        <ele>415</ele>
        <time>2014-11-11T12:26:59Z</time>
      </trkpt>
      <trkpt lat="45.40848" lon="5.96729">
        <ele>415</ele>
        <time>2014-11-11T12:27:20Z</time>
      </trkpt>
      <trkpt lat="45.40867" lon="5.96731">
        <ele>415</ele>
        <time>2014-11-11T12:27:25Z</time>
      </trkpt>
      <trkpt lat="45.40887" lon="5.96738">
        <ele>413</ele>
        <time>2014-11-11T12:27:29Z</time>
      </trkpt>
      <trkpt lat="45.40904" lon="5.96748">
        <ele>409</ele>
        <time>2014-11-11T12:27:32Z</time>
      </trkpt>
      <trkpt lat="45.40921" lon="5.96761">
        <ele>407</ele>
        <time>2014-11-11T12:27:35Z</time>
      </trkpt>
      <trkpt lat="45.40938" lon="5.96777">
        <ele>409</ele>
        <time>2014-11-11T12:27:38Z</time>
      </trkpt>
      <trkpt lat="45.40953" lon="5.96795">
        <ele>409</ele>
        <time>2014-11-11T12:27:41Z</time>
      </trkpt>
      <trkpt lat="45.4097" lon="5.96813">
        <ele>409</ele>
        <time>2014-11-11T12:27:44Z</time>
      </trkpt>
      <trkpt lat="45.40987" lon="5.96831">
        <ele>408</ele>
        <time>2014-11-11T12:27:47Z</time>
      </trkpt>
      <trkpt lat="45.41004" lon="5.9685">
        <ele>405</ele>
        <time>2014-11-11T12:27:50Z</time>
      </trkpt>
      <trkpt lat="45.4102" lon="5.96871">
        <ele>404</ele>
        <time>2014-11-11T12:27:53Z</time>
      </trkpt>
      <trkpt lat="45.41037" lon="5.96891">
        <ele>404</ele>
        <time>2014-11-11T12:27:56Z</time>
      </trkpt>
      <trkpt lat="45.41055" lon="5.96911">
        <ele>404</ele>
        <time>2014-11-11T12:27:59Z</time>
      </trkpt>
      <trkpt lat="45.41074" lon="5.96931">
        <ele>399</ele>
        <time>2014-11-11T12:28:02Z</time>
      </trkpt>
      <trkpt lat="45.41092" lon="5.96951">
        <ele>400</ele>
        <time>2014-11-11T12:28:05Z</time>
      </trkpt>
      <trkpt lat="45.41111" lon="5.96971">
        <ele>399</ele>
        <time>2014-11-11T12:28:08Z</time>
      </trkpt>
      <trkpt lat="45.41129" lon="5.96991">
        <ele>398</ele>
        <time>2014-11-11T12:28:11Z</time>
      </trkpt>
      <trkpt lat="45.41148" lon="5.97012">
        <ele>393</ele>
        <time>2014-11-11T12:28:14Z</time>
      </trkpt>
      <trkpt lat="45.41167" lon="5.97031">
        <ele>393</ele>
        <time>2014-11-11T12:28:17Z</time>
      </trkpt>
      <trkpt lat="45.41185" lon="5.97049">
        <ele>392</ele>
        <time>2014-11-11T12:28:20Z</time>
      </trkpt>
      <trkpt lat="45.41203" lon="5.97064">
        <ele>392</ele>
        <time>2014-11-11T12:28:23Z</time>
      </trkpt>
      <trkpt lat="45.4122" lon="5.97078">
        <ele>391</ele>
        <time>2014-11-11T12:28:26Z</time>
      </trkpt>
      <trkpt lat="45.41241" lon="5.97094">
        <ele>388</ele>
        <time>2014-11-11T12:28:30Z</time>
      </trkpt>
      <trkpt lat="45.41261" lon="5.97109">
        <ele>388</ele>
        <time>2014-11-11T12:28:34Z</time>
      </trkpt>
      <trkpt lat="45.41278" lon="5.97121">
        <ele>388</ele>
        <time>2014-11-11T12:28:37Z</time>
      </trkpt>
      <trkpt lat="45.41298" lon="5.97135">
        <ele>388</ele>
        <time>2014-11-11T12:28:41Z</time>
      </trkpt>
      <trkpt lat="45.41317" lon="5.97148">
        <ele>388</ele>
        <time>2014-11-11T12:28:45Z</time>
      </trkpt>
      <trkpt lat="45.41334" lon="5.97161">
        <ele>389</ele>
        <time>2014-11-11T12:28:49Z</time>
      </trkpt>
      <trkpt lat="45.41351" lon="5.97174">
        <ele>387</ele>
        <time>2014-11-11T12:28:53Z</time>
      </trkpt>
      <trkpt lat="45.41368" lon="5.97186">
        <ele>387</ele>
        <time>2014-11-11T12:28:57Z</time>
      </trkpt>
      <trkpt lat="45.41386" lon="5.972">
        <ele>387</ele>
        <time>2014-11-11T12:29:01Z</time>
      </trkpt>
      <trkpt lat="45.41405" lon="5.97213">
        <ele>387</ele>
        <time>2014-11-11T12:29:05Z</time>
      </trkpt>
      <trkpt lat="45.41425" lon="5.97228">
        <ele>389</ele>
        <time>2014-11-11T12:29:09Z</time>
      </trkpt>
      <trkpt lat="45.41444" lon="5.97242">
        <ele>389</ele>
        <time>2014-11-11T12:29:13Z</time>
      </trkpt>
      <trkpt lat="45.41464" lon="5.97258">
        <ele>387</ele>
        <time>2014-11-11T12:29:17Z</time>
      </trkpt>
      <trkpt lat="45.41481" lon="5.97271">
        <ele>387</ele>
        <time>2014-11-11T12:29:20Z</time>
      </trkpt>
      <trkpt lat="45.41497" lon="5.97283">
        <ele>387</ele>
        <time>2014-11-11T12:29:23Z</time>
      </trkpt>
      <trkpt lat="45.41517" lon="5.97298">
        <ele>387</ele>
        <time>2014-11-11T12:29:27Z</time>
      </trkpt>
      <trkpt lat="45.41536" lon="5.97312">
        <ele>387</ele>
        <time>2014-11-11T12:29:31Z</time>
      </trkpt>
      <trkpt lat="45.41555" lon="5.97327">
        <ele>387</ele>
        <time>2014-11-11T12:29:35Z</time>
      </trkpt>
      <trkpt lat="45.41572" lon="5.97339">
        <ele>381</ele>
        <time>2014-11-11T12:29:38Z</time>
      </trkpt>
      <trkpt lat="45.41589" lon="5.9735">
        <ele>380</ele>
        <time>2014-11-11T12:29:41Z</time>
      </trkpt>
      <trkpt lat="45.41608" lon="5.9736">
        <ele>378</ele>
        <time>2014-11-11T12:29:44Z</time>
      </trkpt>
      <trkpt lat="45.4163" lon="5.97372">
        <ele>377</ele>
        <time>2014-11-11T12:29:47Z</time>
      </trkpt>
      <trkpt lat="45.41653" lon="5.97385">
        <ele>375</ele>
        <time>2014-11-11T12:29:50Z</time>
      </trkpt>
      <trkpt lat="45.41678" lon="5.97396">
        <ele>373</ele>
        <time>2014-11-11T12:29:53Z</time>
      </trkpt>
      <trkpt lat="45.41695" lon="5.97406">
        <ele>373</ele>
        <time>2014-11-11T12:29:55Z</time>
      </trkpt>
      <trkpt lat="45.41713" lon="5.97417">
        <ele>365</ele>
        <time>2014-11-11T12:29:57Z</time>
      </trkpt>
      <trkpt lat="45.41729" lon="5.97428">
        <ele>365</ele>
        <time>2014-11-11T12:29:59Z</time>
      </trkpt>
      <trkpt lat="45.41746" lon="5.97438">
        <ele>365</ele>
        <time>2014-11-11T12:30:01Z</time>
      </trkpt>
      <trkpt lat="45.41765" lon="5.9745">
        <ele>366</ele>
        <time>2014-11-11T12:30:03Z</time>
      </trkpt>
      <trkpt lat="45.41783" lon="5.97464">
        <ele>366</ele>
        <time>2014-11-11T12:30:05Z</time>
      </trkpt>
      <trkpt lat="45.41802" lon="5.97474">
        <ele>366</ele>
        <time>2014-11-11T12:30:07Z</time>
      </trkpt>
      <trkpt lat="45.41819" lon="5.97481">
        <ele>365</ele>
        <time>2014-11-11T12:30:09Z</time>
      </trkpt>
      <trkpt lat="45.41838" lon="5.97488">
        <ele>365</ele>
        <time>2014-11-11T12:30:11Z</time>
      </trkpt>
      <trkpt lat="45.41856" lon="5.97493">
        <ele>366</ele>
        <time>2014-11-11T12:30:13Z</time>
      </trkpt>
      <trkpt lat="45.41876" lon="5.97496">
        <ele>366</ele>
        <time>2014-11-11T12:30:15Z</time>
      </trkpt>
      <trkpt lat="45.41895" lon="5.97501">
        <ele>361</ele>
        <time>2014-11-11T12:30:17Z</time>
      </trkpt>
      <trkpt lat="45.41913" lon="5.97511">
        <ele>362</ele>
        <time>2014-11-11T12:30:19Z</time>
      </trkpt>
      <trkpt lat="45.4193" lon="5.97522">
        <ele>360</ele>
        <time>2014-11-11T12:30:21Z</time>
      </trkpt>
      <trkpt lat="45.41948" lon="5.97532">
        <ele>358</ele>
        <time>2014-11-11T12:30:23Z</time>
      </trkpt>
      <trkpt lat="45.41965" lon="5.97542">
        <ele>358</ele>
        <time>2014-11-11T12:30:25Z</time>
      </trkpt>
      <trkpt lat="45.41982" lon="5.9755">
        <ele>357</ele>
        <time>2014-11-11T12:30:27Z</time>
      </trkpt>
      <trkpt lat="45.42008" lon="5.97562">
        <ele>356</ele>
        <time>2014-11-11T12:30:30Z</time>
      </trkpt>
      <trkpt lat="45.42033" lon="5.97573">
        <ele>356</ele>
        <time>2014-11-11T12:30:33Z</time>
      </trkpt>
      <trkpt lat="45.42057" lon="5.97586">
        <ele>352</ele>
        <time>2014-11-11T12:30:36Z</time>
      </trkpt>
      <trkpt lat="45.4208" lon="5.97598">
        <ele>352</ele>
        <time>2014-11-11T12:30:39Z</time>
      </trkpt>
      <trkpt lat="45.421" lon="5.97609">
        <ele>353</ele>
        <time>2014-11-11T12:30:42Z</time>
      </trkpt>
      <trkpt lat="45.42121" lon="5.97623">
        <ele>353</ele>
        <time>2014-11-11T12:30:46Z</time>
      </trkpt>
      <trkpt lat="45.42141" lon="5.97635">
        <ele>353</ele>
        <time>2014-11-11T12:30:50Z</time>
      </trkpt>
      <trkpt lat="45.4216" lon="5.97648">
        <ele>352</ele>
        <time>2014-11-11T12:30:54Z</time>
      </trkpt>
      <trkpt lat="45.42181" lon="5.9766">
        <ele>354</ele>
        <time>2014-11-11T12:30:58Z</time>
      </trkpt>
      <trkpt lat="45.42203" lon="5.97673">
        <ele>348</ele>
        <time>2014-11-11T12:31:02Z</time>
      </trkpt>
      <trkpt lat="45.42221" lon="5.97682">
        <ele>348</ele>
        <time>2014-11-11T12:31:05Z</time>
      </trkpt>
      <trkpt lat="45.42239" lon="5.97691">
        <ele>348</ele>
        <time>2014-11-11T12:31:08Z</time>
      </trkpt>
      <trkpt lat="45.42258" lon="5.97704">
        <ele>349</ele>
        <time>2014-11-11T12:31:11Z</time>
      </trkpt>
      <trkpt lat="45.42277" lon="5.97719">
        <ele>348</ele>
        <time>2014-11-11T12:31:14Z</time>
      </trkpt>
      <trkpt lat="45.42293" lon="5.97732">
        <ele>348</ele>
        <time>2014-11-11T12:31:17Z</time>
      </trkpt>
      <trkpt lat="45.4231" lon="5.97745">
        <ele>348</ele>
        <time>2014-11-11T12:31:20Z</time>
      </trkpt>
      <trkpt lat="45.42325" lon="5.97758">
        <ele>343</ele>
        <time>2014-11-11T12:31:23Z</time>
      </trkpt>
      <trkpt lat="45.42345" lon="5.97772">
        <ele>343</ele>
        <time>2014-11-11T12:31:27Z</time>
      </trkpt>
      <trkpt lat="45.42365" lon="5.97785">
        <ele>342</ele>
        <time>2014-11-11T12:31:31Z</time>
      </trkpt>
      <trkpt lat="45.42388" lon="5.978">
        <ele>342</ele>
        <time>2014-11-11T12:31:35Z</time>
      </trkpt>
      <trkpt lat="45.42407" lon="5.97809">
        <ele>341</ele>
        <time>2014-11-11T12:31:38Z</time>
      </trkpt>
      <trkpt lat="45.42427" lon="5.97819">
        <ele>342</ele>
        <time>2014-11-11T12:31:41Z</time>
      </trkpt>
      <trkpt lat="45.42448" lon="5.9783">
        <ele>342</ele>
        <time>2014-11-11T12:31:44Z</time>
      </trkpt>
      <trkpt lat="45.42469" lon="5.97838">
        <ele>336</ele>
        <time>2014-11-11T12:31:47Z</time>
      </trkpt>
      <trkpt lat="45.42492" lon="5.97849">
        <ele>337</ele>
        <time>2014-11-11T12:31:50Z</time>
      </trkpt>
      <trkpt lat="45.42515" lon="5.97856">
        <ele>338</ele>
        <time>2014-11-11T12:31:53Z</time>
      </trkpt>
      <trkpt lat="45.42536" lon="5.9786">
        <ele>338</ele>
        <time>2014-11-11T12:31:56Z</time>
      </trkpt>
      <trkpt lat="45.42556" lon="5.97866">
        <ele>338</ele>
        <time>2014-11-11T12:31:59Z</time>
      </trkpt>
      <trkpt lat="45.42578" lon="5.97875">
        <ele>338</ele>
        <time>2014-11-11T12:32:02Z</time>
      </trkpt>
      <trkpt lat="45.42599" lon="5.97885">
        <ele>340</ele>
        <time>2014-11-11T12:32:05Z</time>
      </trkpt>
      <trkpt lat="45.42617" lon="5.97898">
        <ele>339</ele>
        <time>2014-11-11T12:32:08Z</time>
      </trkpt>
      <trkpt lat="45.42635" lon="5.97911">
        <ele>340</ele>
        <time>2014-11-11T12:32:11Z</time>
      </trkpt>
      <trkpt lat="45.42653" lon="5.97924">
        <ele>335</ele>
        <time>2014-11-11T12:32:14Z</time>
      </trkpt>
      <trkpt lat="45.42669" lon="5.97937">
        <ele>336</ele>
        <time>2014-11-11T12:32:17Z</time>
      </trkpt>
      <trkpt lat="45.42686" lon="5.97949">
        <ele>336</ele>
        <time>2014-11-11T12:32:20Z</time>
      </trkpt>
      <trkpt lat="45.42703" lon="5.97962">
        <ele>335</ele>
        <time>2014-11-11T12:32:23Z</time>
      </trkpt>
      <trkpt lat="45.4272" lon="5.97974">
        <ele>335</ele>
        <time>2014-11-11T12:32:26Z</time>
      </trkpt>
      <trkpt lat="45.42738" lon="5.97986">
        <ele>334</ele>
        <time>2014-11-11T12:32:29Z</time>
      </trkpt>
      <trkpt lat="45.42756" lon="5.97997">
        <ele>335</ele>
        <time>2014-11-11T12:32:32Z</time>
      </trkpt>
      <trkpt lat="45.42773" lon="5.98009">
        <ele>333</ele>
        <time>2014-11-11T12:32:35Z</time>
      </trkpt>
      <trkpt lat="45.4279" lon="5.98022">
        <ele>333</ele>
        <time>2014-11-11T12:32:38Z</time>
      </trkpt>
      <trkpt lat="45.42806" lon="5.98035">
        <ele>333</ele>
        <time>2014-11-11T12:32:41Z</time>
      </trkpt>
      <trkpt lat="45.42826" lon="5.98052">
        <ele>332</ele>
        <time>2014-11-11T12:32:45Z</time>
      </trkpt>
      <trkpt lat="45.42845" lon="5.9807">
        <ele>333</ele>
        <time>2014-11-11T12:32:49Z</time>
      </trkpt>
      <trkpt lat="45.4286" lon="5.98085">
        <ele>331</ele>
        <time>2014-11-11T12:32:53Z</time>
      </trkpt>
      <trkpt lat="45.42877" lon="5.98102">
        <ele>331</ele>
        <time>2014-11-11T12:32:58Z</time>
      </trkpt>
      <trkpt lat="45.42895" lon="5.98119">
        <ele>331</ele>
        <time>2014-11-11T12:33:03Z</time>
      </trkpt>
      <trkpt lat="45.42914" lon="5.98134">
        <ele>331</ele>
        <time>2014-11-11T12:33:08Z</time>
      </trkpt>
      <trkpt lat="45.42932" lon="5.98148">
        <ele>330</ele>
        <time>2014-11-11T12:33:13Z</time>
      </trkpt>
      <trkpt lat="45.42951" lon="5.98157">
        <ele>330</ele>
        <time>2014-11-11T12:33:17Z</time>
      </trkpt>
      <trkpt lat="45.42971" lon="5.98157">
        <ele>330</ele>
        <time>2014-11-11T12:33:21Z</time>
      </trkpt>
      <trkpt lat="45.4299" lon="5.98158">
        <ele>329</ele>
        <time>2014-11-11T12:33:25Z</time>
      </trkpt>
      <trkpt lat="45.43009" lon="5.98157">
        <ele>329</ele>
        <time>2014-11-11T12:33:30Z</time>
      </trkpt>
      <trkpt lat="45.43029" lon="5.98156">
        <ele>330</ele>
        <time>2014-11-11T12:33:36Z</time>
      </trkpt>
      <trkpt lat="45.43018" lon="5.98184">
        <ele>329</ele>
        <time>2014-11-11T12:33:43Z</time>
      </trkpt>
      <trkpt lat="45.43006" lon="5.98206">
        <ele>329</ele>
        <time>2014-11-11T12:33:47Z</time>
      </trkpt>
      <trkpt lat="45.42994" lon="5.9823">
        <ele>329</ele>
        <time>2014-11-11T12:33:51Z</time>
      </trkpt>
      <trkpt lat="45.42981" lon="5.98254">
        <ele>329</ele>
        <time>2014-11-11T12:33:55Z</time>
      </trkpt>
      <trkpt lat="45.42967" lon="5.98278">
        <ele>330</ele>
        <time>2014-11-11T12:34:00Z</time>
      </trkpt>
      <trkpt lat="45.42954" lon="5.98299">
        <ele>330</ele>
        <time>2014-11-11T12:34:05Z</time>
      </trkpt>
      <trkpt lat="45.42939" lon="5.9832">
        <ele>330</ele>
        <time>2014-11-11T12:34:10Z</time>
      </trkpt>
      <trkpt lat="45.42929" lon="5.98345">
        <ele>330</ele>
        <time>2014-11-11T12:34:16Z</time>
      </trkpt>
      <trkpt lat="45.42919" lon="5.9837">
        <ele>330</ele>
        <time>2014-11-11T12:34:23Z</time>
      </trkpt>
      <trkpt lat="45.42912" lon="5.98394">
        <ele>329</ele>
        <time>2014-11-11T12:34:29Z</time>
      </trkpt>
      <trkpt lat="45.42915" lon="5.98419">
        <ele>330</ele>
        <time>2014-11-11T12:34:44Z</time>
      </trkpt>
    </trkseg>
  </trk>
</gpx>